FR3120 / EI-DYA 7700 Squawk Report (23rd of January, 2023)

Aircraft B738 Reg No. EI-DYA Age 14 years old
Model 737 Jet engines 2 First flight 17-02-08
Registered 04-03-08 Rollout 06-02-08 Delivered 04-03-08
Construction No. 33631 Line No. 2529 Series 8AS
ADSHEX 4CA643 Airline name Ryanair Owner N/A
Airfield based Dublin~Co Dublin~EI First tracked N/A

Flight history for EI-DYA

Time Lat Lon Altitude Heading Speed Vertical Rate
2023-01-23 08:12:18 GMT 41.300182 2.072571 0 28 0 0
2023-01-23 08:12:10 GMT 41.300133 2.072546 0 28 3 0
2023-01-23 08:12:01 GMT 41.300018 2.072468 0 28 6 0
2023-01-23 08:11:52 GMT 41.299782 2.072281 0 28 7 0
2023-01-23 08:11:41 GMT 41.299450 2.072052 0 28 8 0
2023-01-23 08:11:32 GMT 41.299156 2.071844 0 28 8 0
2023-01-23 08:11:21 GMT 41.298843 2.071640 0 8 7 0
2023-01-23 08:11:10 GMT 41.298492 2.071672 0 337 9 0
2023-01-23 08:11:01 GMT 41.298134 2.071869 0 334 10 0
2023-01-23 08:10:50 GMT 41.297688 2.072174 0 306 11 0
2023-01-23 08:10:40 GMT 41.297619 2.072815 0 247 10 0
2023-01-23 08:10:30 GMT 41.297836 2.073456 0 247 14 0
2023-01-23 08:10:27 GMT 41.297909 2.073685 0 247 13 0
2023-01-23 08:10:26 GMT 41.297943 2.073763 0 244 13 0
2023-01-23 08:10:23 GMT 41.298004 2.073966 0 244 11 0
2023-01-23 08:10:19 GMT 41.298107 2.074278 0 244 11 0
2023-01-23 08:10:18 GMT 41.298168 2.074432 0 244 11 0
2023-01-23 08:10:16 GMT 41.298168 2.074432 0 244 10 0
2023-01-23 08:10:09 GMT 41.298317 2.074871 0 247 8 0
2023-01-23 08:10:07 GMT 41.298317 2.074890 0 247 8 0
2023-01-23 08:10:06 GMT 41.298340 2.074933 0 250 8 0
2023-01-23 08:10:01 GMT 41.298397 2.075134 0 253 6 0
2023-01-23 08:09:58 GMT 41.298424 2.075246 0 261 6 0
2023-01-23 08:09:49 GMT 41.298447 2.075573 0 286 7 0
2023-01-23 08:09:48 GMT 41.298443 2.075607 0 289 7 0
2023-01-23 08:09:46 GMT 41.298424 2.075683 0 298 8 0
2023-01-23 08:09:40 GMT 41.298340 2.075897 0 317 8 0
2023-01-23 08:09:38 GMT 41.298225 2.076041 0 331 9 0
2023-01-23 08:09:35 GMT 41.298180 2.076080 0 334 9 0
2023-01-23 08:09:34 GMT 41.298111 2.076126 0 334 10 0
2023-01-23 08:09:31 GMT 41.298027 2.076166 0 334 10 0
2023-01-23 08:09:26 GMT 41.297813 2.076309 0 315 12 0
2023-01-23 08:09:25 GMT 41.297771 2.076354 0 309 12 0
2023-01-23 08:09:18 GMT 41.297596 2.076721 0 278 12 0
2023-01-23 08:09:17 GMT 41.297585 2.076843 0 275 13 0
2023-01-23 08:09:07 GMT 41.297504 2.077914 0 272 22 0
2023-01-23 08:09:04 GMT 41.297504 2.078171 0 270 23 0
2023-01-23 08:08:58 GMT 41.297527 2.078949 0 264 30 0
2023-01-23 08:08:54 GMT 41.297619 2.079693 0 258 34 0
2023-01-23 08:08:49 GMT 41.297928 2.080917 0 247 39 0
2023-01-23 08:08:43 GMT 41.298294 2.082018 0 247 43 0
2023-01-23 08:08:40 GMT 41.298500 2.082596 0 247 44 0
2023-01-23 08:08:38 GMT 41.298748 2.083345 0 247 47 0
2023-01-23 08:08:35 GMT 41.298992 2.084063 0 247 54 0
2023-01-23 08:08:34 GMT 41.299191 2.084640 0 247 59 0
2023-01-23 08:08:31 GMT 41.299370 2.085159 0 244 61 0
2023-01-23 08:08:30 GMT 41.299541 2.085648 0 247 66 0
2023-01-23 08:08:28 GMT 41.299793 2.086380 0 244 74 0
2023-01-23 08:08:27 GMT 41.299911 2.086731 0 244 78 0
2023-01-23 08:08:26 GMT 41.300056 2.087128 0 244 84 0
2023-01-23 08:08:24 GMT 41.300262 2.087769 0 247 88 0
2023-01-23 08:08:23 GMT 41.300674 2.088974 0 247 96 0
2023-01-23 08:08:21 GMT 41.300766 2.089294 -225 246 100 -64
2023-01-23 08:08:20 GMT 41.301086 2.090149 -250 246 121 -128
2023-01-23 08:08:17 GMT 41.301796 2.092209 -250 246 121 -128
2023-01-23 08:08:15 GMT 41.302261 2.093645 -250 246 129 -128
2023-01-23 08:08:14 GMT 41.302776 2.095018 -225 247 137 -128
2023-01-23 08:08:12 GMT 41.303005 2.095767 -225 246 141 -192
2023-01-23 08:08:11 GMT 41.303288 2.096578 -225 246 143 -128
2023-01-23 08:08:09 GMT 41.304016 2.098755 -200 246 148 -256
2023-01-23 08:08:07 GMT 41.304291 2.099548 -200 246 148 -320
2023-01-23 08:08:06 GMT 41.304611 2.100403 -200 246 148 -448
2023-01-23 08:08:04 GMT 41.305241 2.102321 -150 246 148 -704
2023-01-23 08:08:03 GMT 41.305573 2.103210 -150 246 148 -768
2023-01-23 08:08:02 GMT 41.305710 2.103695 -125 246 148 -832
2023-01-23 08:08:00 GMT 41.306358 2.105567 -100 246 148 -832
2023-01-23 08:07:59 GMT 41.306686 2.106504 -75 246 148 -832
2023-01-23 08:07:58 GMT 41.306992 2.107483 -75 246 148 -832
2023-01-23 08:07:57 GMT 41.307449 2.108765 -50 247 147 -768
2023-01-23 08:07:55 GMT 41.307724 2.109619 -25 246 147 -768
2023-01-23 08:07:54 GMT 41.307987 2.110436 -25 246 147 -768
2023-01-23 08:07:53 GMT 41.308273 2.111267 0 246 147 -768
2023-01-23 08:07:52 GMT 41.308968 2.113245 25 246 146 -768
2023-01-23 08:07:50 GMT 41.309200 2.113932 50 246 145 -768
2023-01-23 08:07:49 GMT 41.309757 2.115555 75 246 145 -768
2023-01-23 08:07:47 GMT 41.310013 2.116333 75 246 144 -768
2023-01-23 08:07:46 GMT 41.310268 2.117053 100 246 144 -768
2023-01-23 08:07:43 GMT 41.311108 2.119612 125 246 144 -768
2023-01-23 08:07:42 GMT 41.311432 2.120549 150 246 144 -832
2023-01-23 08:07:41 GMT 41.311981 2.122009 175 246 143 -768
2023-01-23 08:07:38 GMT 41.312595 2.123857 200 246 143 -704
2023-01-23 08:07:37 GMT 41.313110 2.125355 225 246 142 -768
2023-01-23 08:07:35 GMT 41.313400 2.126160 225 246 142 -768
2023-01-23 08:07:34 GMT 41.313675 2.127014 250 246 142 -768
2023-01-23 08:07:33 GMT 41.313904 2.127686 250 246 142 -768
2023-01-23 08:07:32 GMT 41.314453 2.129211 275 246 141 -832
2023-01-23 08:07:30 GMT 41.314728 2.130066 300 246 141 -832
2023-01-23 08:07:29 GMT 41.315018 2.130848 325 246 141 -832
2023-01-23 08:07:27 GMT 41.315643 2.132751 350 246 141 -768
2023-01-23 08:07:26 GMT 41.315807 2.133220 350 246 141 -768
2023-01-23 08:07:25 GMT 41.316090 2.134032 375 246 141 -768
2023-01-23 08:07:23 GMT 41.316647 2.135655 400 246 141 -768
2023-01-23 08:07:22 GMT 41.316879 2.136475 400 246 140 -768
2023-01-23 08:07:21 GMT 41.317108 2.137146 425 246 140 -704
2023-01-23 08:07:18 GMT 41.317951 2.139650 450 246 139 -768
2023-01-23 08:07:17 GMT 41.318321 2.140711 475 246 139 -704
2023-01-23 08:07:16 GMT 41.318619 2.141541 475 246 139 -704
2023-01-23 08:07:15 GMT 41.318790 2.141959 500 246 139 -704
2023-01-23 08:07:14 GMT 41.319347 2.143645 525 246 139 -704
2023-01-23 08:07:12 GMT 41.319626 2.144409 525 246 139 -704
2023-01-23 08:07:11 GMT 41.319904 2.145268 550 246 139 -704
2023-01-23 08:07:10 GMT 41.320129 2.145996 550 247 138 -704
2023-01-23 08:07:08 GMT 41.320698 2.147577 575 246 139 -704
2023-01-23 08:07:07 GMT 41.320976 2.148514 600 246 139 -704
2023-01-23 08:07:06 GMT 41.321228 2.149231 600 246 140 -768
2023-01-23 08:07:04 GMT 41.321770 2.150761 625 246 140 -768
2023-01-23 08:07:03 GMT 41.322052 2.151672 650 246 140 -768
2023-01-23 08:07:02 GMT 41.322327 2.152446 650 246 141 -832
2023-01-23 08:07:01 GMT 41.322559 2.153195 675 246 141 -832
2023-01-23 08:06:59 GMT 41.323105 2.154785 700 246 141 -832
2023-01-23 08:06:58 GMT 41.323353 2.155568 700 246 141 -832
2023-01-23 08:06:57 GMT 41.323910 2.157190 725 246 143 -832
2023-01-23 08:06:55 GMT 41.324112 2.157837 750 246 144 -832
2023-01-23 08:06:54 GMT 41.324432 2.158691 775 246 144 -832
2023-01-23 08:06:53 GMT 41.324654 2.159375 775 246 144 -832
2023-01-23 08:06:52 GMT 41.325214 2.160998 800 246 145 -896
2023-01-23 08:06:50 GMT 41.325531 2.161865 825 246 146 -832
2023-01-23 08:06:49 GMT 41.325817 2.162684 825 246 146 -832
2023-01-23 08:06:47 GMT 41.326469 2.164681 875 246 147 -832
2023-01-23 08:06:45 GMT 41.326767 2.165466 875 246 147 -832
2023-01-23 08:06:44 GMT 41.327316 2.167114 900 246 149 -832
2023-01-23 08:06:42 GMT 41.327633 2.167927 925 246 150 -832
2023-01-23 08:06:41 GMT 41.327911 2.168762 925 246 151 -832
2023-01-23 08:06:40 GMT 41.328186 2.169617 950 246 152 -832
2023-01-23 08:06:38 GMT 41.328796 2.171298 975 246 153 -768
2023-01-23 08:06:37 GMT 41.329102 2.172180 975 246 153 -768
2023-01-23 08:06:36 GMT 41.329403 2.173046 1,000 246 155 -768
2023-01-23 08:06:35 GMT 41.329636 2.173857 1,025 246 155 -832
2023-01-23 08:06:33 GMT 41.330292 2.175720 1,050 246 156 -896
2023-01-23 08:06:32 GMT 41.330566 2.176541 1,050 246 156 -896
2023-01-23 08:06:31 GMT 41.330891 2.177415 1,075 246 157 -896
2023-01-23 08:06:30 GMT 41.331497 2.179163 1,100 246 158 -896
2023-01-23 08:06:28 GMT 41.331757 2.179993 1,125 246 159 -896
2023-01-23 08:06:27 GMT 41.332077 2.180908 1,125 246 159 -896
2023-01-23 08:06:26 GMT 41.332764 2.182800 1,150 246 161 -832
2023-01-23 08:06:24 GMT 41.333080 2.183782 1,175 246 162 -832
2023-01-23 08:06:22 GMT 41.333542 2.185242 1,200 246 164 -832
2023-01-23 08:06:20 GMT 41.334183 2.187012 1,225 246 165 -832
2023-01-23 08:06:19 GMT 41.334618 2.188339 1,250 246 165 -896
2023-01-23 08:06:18 GMT 41.334896 2.189213 1,250 246 165 -896
2023-01-23 08:06:16 GMT 41.335503 2.190899 1,275 246 165 -896
2023-01-23 08:06:15 GMT 41.335827 2.191960 1,300 246 166 -896
2023-01-23 08:06:14 GMT 41.336197 2.192993 1,325 246 166 -896
2023-01-23 08:06:13 GMT 41.337036 2.195455 1,350 246 166 -960
2023-01-23 08:06:11 GMT 41.337036 2.195455 1,350 246 166 -960
2023-01-23 08:06:10 GMT 41.337315 2.196329 1,375 246 166 -960
2023-01-23 08:06:09 GMT 41.337799 2.197693 1,400 246 166 -960
2023-01-23 08:06:07 GMT 41.338394 2.199463 1,425 246 167 -960
2023-01-23 08:06:06 GMT 41.338715 2.200317 1,450 246 167 -960
2023-01-23 08:06:05 GMT 41.339035 2.201416 1,475 246 167 -960
2023-01-23 08:06:03 GMT 41.339722 2.203308 1,500 246 168 -960
2023-01-23 08:06:02 GMT 41.340042 2.204224 1,500 246 168 -896
2023-01-23 08:06:00 GMT 41.340622 2.206005 1,525 246 168 -896
2023-01-23 08:05:59 GMT 41.340946 2.207004 1,550 246 169 -896
2023-01-23 08:05:58 GMT 41.341320 2.208002 1,575 246 169 -896
2023-01-23 08:05:57 GMT 41.341553 2.208740 1,575 246 170 -896
2023-01-23 08:05:54 GMT 41.342529 2.211498 1,625 246 170 -896
2023-01-23 08:05:53 GMT 41.343246 2.213745 1,650 246 170 -896
2023-01-23 08:05:51 GMT 41.343555 2.214557 1,675 246 171 -960
2023-01-23 08:05:50 GMT 41.343842 2.215393 1,675 246 171 -960
2023-01-23 08:05:49 GMT 41.344162 2.216370 1,700 246 171 -1024
2023-01-23 08:05:47 GMT 41.344952 2.218614 1,750 246 171 -1024
2023-01-23 08:05:46 GMT 41.345276 2.219613 1,750 246 171 -1024
2023-01-23 08:05:45 GMT 41.345604 2.220549 1,775 246 171 -1024
2023-01-23 08:05:43 GMT 41.346130 2.222046 1,800 246 171 -1024
2023-01-23 08:05:42 GMT 41.346451 2.223022 1,825 246 171 -1024
2023-01-23 08:05:40 GMT 41.347229 2.225220 1,850 246 171 -960
2023-01-23 08:05:39 GMT 41.347549 2.226135 1,875 246 172 -896
2023-01-23 08:05:37 GMT 41.348164 2.227915 1,900 246 172 -896
2023-01-23 08:05:36 GMT 41.348816 2.229788 1,925 246 173 -960
2023-01-23 08:05:34 GMT 41.349152 2.230774 1,950 246 173 -896
2023-01-23 08:05:33 GMT 41.349518 2.231812 1,975 246 173 -896
2023-01-23 08:05:32 GMT 41.349838 2.232722 1,975 246 173 -896
2023-01-23 08:05:29 GMT 41.350864 2.235843 2,025 246 174 -960
2023-01-23 08:05:28 GMT 41.351234 2.236904 2,050 246 174 -960
2023-01-23 08:05:26 GMT 41.352306 2.240025 2,100 246 174 -1024
2023-01-23 08:05:24 GMT 41.352631 2.241024 2,125 246 175 -1024
2023-01-23 08:05:22 GMT 41.353867 2.244629 2,175 246 175 -1024
2023-01-23 08:05:20 GMT 41.353867 2.244629 2,175 246 175 -1024
2023-01-23 08:05:19 GMT 41.354214 2.245580 2,200 246 175 -1024
2023-01-23 08:05:18 GMT 41.354866 2.247516 2,225 246 176 -960
2023-01-23 08:05:16 GMT 41.355240 2.248577 2,250 246 176 -960
2023-01-23 08:05:15 GMT 41.355564 2.249576 2,250 246 176 -960
2023-01-23 08:05:14 GMT 41.355984 2.250886 2,275 246 176 -960
2023-01-23 08:05:12 GMT 41.356682 2.252884 2,325 246 176 -960
2023-01-23 08:05:11 GMT 41.357025 2.253845 2,325 246 176 -960
2023-01-23 08:05:10 GMT 41.357334 2.254694 2,350 246 177 -960
2023-01-23 08:05:08 GMT 41.357986 2.256629 2,375 246 177 -1024
2023-01-23 08:05:07 GMT 41.358261 2.257568 2,400 246 177 -1024
2023-01-23 08:05:06 GMT 41.358639 2.258564 2,400 246 177 -1024
2023-01-23 08:05:05 GMT 41.359314 2.260620 2,450 246 177 -1088
2023-01-23 08:05:03 GMT 41.359680 2.261658 2,450 246 177 -1024
2023-01-23 08:05:02 GMT 41.360001 2.262573 2,475 246 178 -1024
2023-01-23 08:05:01 GMT 41.360638 2.264557 2,500 247 178 -960
2023-01-23 08:04:59 GMT 41.361057 2.265743 2,525 247 178 -960
2023-01-23 08:04:58 GMT 41.361374 2.266785 2,550 247 179 -960
2023-01-23 08:04:57 GMT 41.361740 2.267883 2,550 247 179 -960
2023-01-23 08:04:55 GMT 41.362362 2.269676 2,600 247 179 -896
2023-01-23 08:04:54 GMT 41.362736 2.270862 2,600 247 180 -896
2023-01-23 08:04:53 GMT 41.363060 2.271860 2,625 247 180 -832
2023-01-23 08:04:52 GMT 41.363754 2.273987 2,650 247 181 -832
2023-01-23 08:04:50 GMT 41.364120 2.275146 2,650 247 181 -896
2023-01-23 08:04:48 GMT 41.365356 2.279053 2,700 248 183 -896
2023-01-23 08:04:46 GMT 41.365356 2.279053 2,725 248 183 -960
2023-01-23 08:04:45 GMT 41.365677 2.280090 2,725 249 184 -1024
2023-01-23 08:04:44 GMT 41.365993 2.281161 2,750 249 184 -1088
2023-01-23 08:04:42 GMT 41.366692 2.283346 2,800 249 184 -1152
2023-01-23 08:04:40 GMT 41.367249 2.285156 2,825 249 184 -1024
2023-01-23 08:04:38 GMT 41.367874 2.287292 2,850 248 185 -1024
2023-01-23 08:04:36 GMT 41.368553 2.289463 2,900 248 185 -1088
2023-01-23 08:04:35 GMT 41.368927 2.290649 2,925 247 185 -1088
2023-01-23 08:04:33 GMT 41.369625 2.292834 2,950 247 185 -1088
2023-01-23 08:04:32 GMT 41.369995 2.293895 2,975 246 186 -1024
2023-01-23 08:04:31 GMT 41.370323 2.294894 2,975 246 186 -1024
2023-01-23 08:04:30 GMT 41.370647 2.295768 3,000 246 186 -960
2023-01-23 08:04:28 GMT 41.371490 2.298279 3,025 245 186 -960
2023-01-23 08:04:27 GMT 41.371811 2.299194 3,050 245 187 -896
2023-01-23 08:04:26 GMT 41.372185 2.300262 3,075 244 188 -960
2023-01-23 08:04:25 GMT 41.372974 2.302385 3,100 243 188 -896
2023-01-23 08:04:23 GMT 41.373257 2.302947 3,100 242 188 -896
2023-01-23 08:04:22 GMT 41.373768 2.304320 3,125 241 188 -832
2023-01-23 08:04:21 GMT 41.374187 2.305381 3,150 239 189 -768
2023-01-23 08:04:20 GMT 41.374977 2.307129 3,150 237 190 -640
2023-01-23 08:04:18 GMT 41.375610 2.308411 3,175 235 190 -640
2023-01-23 08:04:17 GMT 41.376049 2.309314 3,175 233 191 -576
2023-01-23 08:04:16 GMT 41.377167 2.311279 3,200 231 191 -640
2023-01-23 08:04:13 GMT 41.378357 2.313110 3,225 228 192 -704
2023-01-23 08:04:12 GMT 41.379410 2.314514 3,250 220 194 -704
2023-01-23 08:04:10 GMT 41.380142 2.315308 3,275 218 194 -704
2023-01-23 08:04:09 GMT 41.380795 2.316055 3,275 215 195 -704
2023-01-23 08:04:08 GMT 41.382339 2.317505 3,300 213 196 -768
2023-01-23 08:04:06 GMT 41.382984 2.317990 3,300 210 197 -768
2023-01-23 08:04:05 GMT 41.383850 2.318665 3,325 204 199 -768
2023-01-23 08:04:04 GMT 41.384754 2.319239 3,325 202 200 -768
2023-01-23 08:04:03 GMT 41.386570 2.320159 3,375 195 201 -768
2023-01-23 08:04:01 GMT 41.387512 2.320550 3,375 192 203 -768
2023-01-23 08:03:59 GMT 41.389549 2.321053 3,400 190 203 -768
2023-01-23 08:03:58 GMT 41.391457 2.321309 3,425 181 206 -768
2023-01-23 08:03:55 GMT 41.392365 2.321361 3,450 181 206 -768
2023-01-23 08:03:54 GMT 41.393227 2.321309 3,450 175 207 -832
2023-01-23 08:03:53 GMT 41.394104 2.321299 3,475 175 207 -896
2023-01-23 08:03:52 GMT 41.395973 2.320990 3,500 171 209 -896
2023-01-23 08:03:50 GMT 41.396996 2.320798 3,500 169 210 -896
2023-01-23 08:03:49 GMT 41.397995 2.320550 3,525 168 211 -896
2023-01-23 08:03:48 GMT 41.399792 2.320095 3,550 167 211 -960
2023-01-23 08:03:46 GMT 41.400906 2.319776 3,575 167 211 -1024
2023-01-23 08:03:45 GMT 41.401886 2.319489 3,600 167 211 -1088
2023-01-23 08:03:44 GMT 41.402847 2.319239 3,600 167 211 -1152
2023-01-23 08:03:43 GMT 41.403763 2.318989 3,625 167 211 -1280
2023-01-23 08:03:42 GMT 41.405746 2.318371 3,675 167 210 -1600
2023-01-23 08:03:40 GMT 41.406631 2.318179 3,700 167 210 -1728
2023-01-23 08:03:39 GMT 41.407562 2.317866 3,725 168 209 -1792
2023-01-23 08:03:38 GMT 41.408497 2.317604 3,775 168 209 -1792
2023-01-23 08:03:37 GMT 41.410538 2.317054 3,825 168 208 -1792
2023-01-23 08:03:35 GMT 41.411472 2.316838 3,850 168 208 -1728
2023-01-23 08:03:34 GMT 41.412323 2.316555 3,900 168 207 -1728
2023-01-23 08:03:33 GMT 41.413338 2.316327 3,925 168 207 -1664
2023-01-23 08:03:32 GMT 41.415390 2.315743 3,975 168 205 -1664
2023-01-23 08:03:29 GMT 41.417198 2.315305 4,025 168 205 -1408
2023-01-23 08:03:27 GMT 41.419373 2.314682 4,075 168 205 -1088
2023-01-23 08:03:26 GMT 41.420364 2.314474 4,100 168 205 -1024
2023-01-23 08:03:25 GMT 41.421249 2.314183 4,125 168 205 -960
2023-01-23 08:03:24 GMT 41.422028 2.313995 4,125 168 205 -960
2023-01-23 08:03:22 GMT 41.424042 2.313452 4,175 168 205 -960
2023-01-23 08:03:20 GMT 41.426056 2.312934 4,200 168 206 -960
2023-01-23 08:03:18 GMT 41.428837 2.312239 4,225 168 207 -704
2023-01-23 08:03:16 GMT 41.429768 2.311983 4,250 169 208 -640
2023-01-23 08:03:15 GMT 41.430653 2.311728 4,250 169 209 -640
2023-01-23 08:03:13 GMT 41.433495 2.311025 4,300 169 209 -896
2023-01-23 08:03:11 GMT 41.434479 2.310812 4,300 169 210 -1024
2023-01-23 08:03:10 GMT 41.435448 2.310514 4,325 168 212 -1088
2023-01-23 08:03:08 GMT 41.437363 2.310000 4,350 168 212 -1088
2023-01-23 08:03:07 GMT 41.438335 2.309748 4,375 168 212 -1088
2023-01-23 08:03:06 GMT 41.439266 2.309556 4,400 168 212 -1216
2023-01-23 08:03:05 GMT 41.440384 2.309237 4,425 168 212 -1216
2023-01-23 08:03:03 GMT 41.442307 2.308752 4,475 168 213 -1344
2023-01-23 08:03:02 GMT 41.443317 2.308470 4,500 168 213 -1408
2023-01-23 08:03:01 GMT 41.444431 2.308215 4,525 168 213 -1472
2023-01-23 08:03:00 GMT 41.447525 2.307379 4,600 169 214 -1472
2023-01-23 08:02:57 GMT 41.447525 2.307379 4,600 169 214 -1408
2023-01-23 08:02:56 GMT 41.448528 2.307129 4,625 169 214 -1280
2023-01-23 08:02:55 GMT 41.449463 2.306873 4,650 169 214 -1216
2023-01-23 08:02:54 GMT 41.451508 2.306362 4,675 169 214 -1216
2023-01-23 08:02:51 GMT 41.453419 2.305851 4,725 169 215 -1088
2023-01-23 08:02:50 GMT 41.454437 2.305631 4,750 169 215 -1088
2023-01-23 08:02:49 GMT 41.455650 2.305277 4,750 169 215 -960
2023-01-23 08:02:48 GMT 41.457607 2.304766 4,775 168 217 -768
2023-01-23 08:02:46 GMT 41.458538 2.304574 4,800 168 218 -704
2023-01-23 08:02:45 GMT 41.459610 2.304255 4,800 168 218 -640
2023-01-23 08:02:43 GMT 41.461426 2.303807 4,825 168 219 -640
2023-01-23 08:02:42 GMT 41.462357 2.303552 4,850 168 220 -640
2023-01-23 08:02:41 GMT 41.463287 2.303296 4,850 168 221 -640
2023-01-23 08:02:39 GMT 41.465569 2.302722 4,875 168 222 -704
2023-01-23 08:02:37 GMT 41.467476 2.302211 4,900 168 223 -640
2023-01-23 08:02:36 GMT 41.468491 2.301948 4,900 168 223 -640
2023-01-23 08:02:35 GMT 41.470001 2.301511 4,925 168 224 -576
2023-01-23 08:02:33 GMT 41.472038 2.300997 4,925 168 226 -384
2023-01-23 08:02:32 GMT 41.473064 2.300742 4,950 168 227 -384
2023-01-23 08:02:30 GMT 41.475204 2.300167 4,950 168 228 -320
2023-01-23 08:02:29 GMT 41.475769 2.300013 4,950 168 229 -256
2023-01-23 08:02:28 GMT 41.476833 2.299720 4,950 168 230 -192
2023-01-23 08:02:27 GMT 41.478043 2.299400 4,950 168 231 -256
2023-01-23 08:02:25 GMT 41.480072 2.298889 4,975 168 233 -320
2023-01-23 08:02:24 GMT 41.481125 2.298577 4,975 168 233 -448
2023-01-23 08:02:23 GMT 41.482655 2.298187 5,000 168 234 -576
2023-01-23 08:02:22 GMT 41.483551 2.297953 5,000 168 234 -704
2023-01-23 08:02:20 GMT 41.485584 2.297356 5,025 167 235 -960
2023-01-23 08:02:19 GMT 41.486565 2.297101 5,050 167 235 -1088
2023-01-23 08:02:18 GMT 41.487728 2.296781 5,050 167 235 -1088
2023-01-23 08:02:15 GMT 41.490662 2.295887 5,125 167 236 -1088
2023-01-23 08:02:14 GMT 41.492294 2.295456 5,150 167 236 -1024
2023-01-23 08:02:13 GMT 41.493164 2.295206 5,150 167 236 -1024
2023-01-23 08:02:11 GMT 41.495178 2.294644 5,200 167 236 -1088
2023-01-23 08:02:10 GMT 41.496277 2.294270 5,200 167 236 -1088
2023-01-23 08:02:08 GMT 41.498249 2.293715 5,225 168 236 -1088
2023-01-23 08:02:07 GMT 41.499527 2.293396 5,250 168 236 -1088
2023-01-23 08:02:06 GMT 41.500443 2.293146 5,275 168 236 -1024
2023-01-23 08:02:05 GMT 41.501507 2.292821 5,300 168 236 -1024
2023-01-23 08:02:04 GMT 41.503738 2.292210 5,325 168 236 -1088
2023-01-23 08:02:02 GMT 41.504791 2.291898 5,350 168 236 -1088
2023-01-23 08:02:01 GMT 41.505936 2.291586 5,375 168 236 -1024
2023-01-23 08:02:00 GMT 41.507034 2.291274 5,375 168 236 -1088
2023-01-23 08:01:59 GMT 41.510101 2.290462 5,425 168 236 -1088
2023-01-23 08:01:57 GMT 41.510101 2.290462 5,425 168 236 -1024
2023-01-23 08:01:55 GMT 41.511703 2.290025 5,450 168 237 -1024
2023-01-23 08:01:54 GMT 41.513329 2.289564 5,475 168 238 -1024
2023-01-23 08:01:52 GMT 41.515472 2.288989 5,525 168 238 -1152
2023-01-23 08:01:50 GMT 41.517708 2.288350 5,550 167 238 -1152
2023-01-23 08:01:49 GMT 41.518871 2.288031 5,575 167 238 -1152
2023-01-23 08:01:48 GMT 41.519985 2.287711 5,600 167 238 -1152
2023-01-23 08:01:47 GMT 41.521152 2.287392 5,625 168 238 -1152
2023-01-23 08:01:45 GMT 41.523201 2.286817 5,650 168 238 -1152
2023-01-23 08:01:44 GMT 41.524223 2.286498 5,675 168 238 -1088
2023-01-23 08:01:43 GMT 41.525387 2.286178 5,700 168 237 -1088
2023-01-23 08:01:42 GMT 41.527496 2.285593 5,725 168 237 -1088
2023-01-23 08:01:39 GMT 41.529007 2.285156 5,750 168 237 -1088
2023-01-23 08:01:38 GMT 41.530647 2.284709 5,775 168 238 -1088
2023-01-23 08:01:37 GMT 41.533161 2.284070 5,825 168 238 -1088
2023-01-23 08:01:35 GMT 41.534138 2.283751 5,850 168 238 -1088
2023-01-23 08:01:33 GMT 41.535118 2.283496 5,850 168 238 -1088
2023-01-23 08:01:32 GMT 41.536652 2.283096 5,875 168 238 -1088
2023-01-23 08:01:30 GMT 41.538391 2.282659 5,900 168 238 -1088
2023-01-23 08:01:29 GMT 41.539536 2.282347 5,925 168 238 -1088
2023-01-23 08:01:28 GMT 41.540657 2.282026 5,950 168 238 -1088
2023-01-23 08:01:27 GMT 41.544296 2.281036 6,000 168 239 -1088
2023-01-23 08:01:25 GMT 41.544296 2.281036 6,000 168 239 -1088
2023-01-23 08:01:24 GMT 41.545311 2.280749 6,025 168 239 -1088
2023-01-23 08:01:22 GMT 41.547035 2.280302 6,050 168 239 -1088
2023-01-23 08:01:21 GMT 41.548710 2.279855 6,075 168 239 -1088
2023-01-23 08:01:20 GMT 41.549782 2.279535 6,100 168 239 -1088
2023-01-23 08:01:19 GMT 41.550434 2.279408 6,125 168 239 -1088
2023-01-23 08:01:18 GMT 41.551529 2.279101 6,125 168 239 -1088
2023-01-23 08:01:16 GMT 41.553738 2.278513 6,175 168 239 -1088
2023-01-23 08:01:15 GMT 41.554825 2.278165 6,200 168 240 -1088
2023-01-23 08:01:13 GMT 41.557068 2.277603 6,225 168 240 -1088
2023-01-23 08:01:12 GMT 41.559265 2.276979 6,275 168 240 -1088
2023-01-23 08:01:09 GMT 41.560913 2.276542 6,300 168 240 -1088
2023-01-23 08:01:08 GMT 41.562584 2.276086 6,325 168 240 -1088
2023-01-23 08:01:06 GMT 41.564865 2.275511 6,350 168 240 -1088
2023-01-23 08:01:05 GMT 41.566040 2.275169 6,375 168 240 -1088
2023-01-23 08:01:04 GMT 41.567192 2.274873 6,400 168 241 -1088
2023-01-23 08:01:02 GMT 41.569332 2.274298 6,425 168 241 -1088
2023-01-23 08:01:01 GMT 41.570435 2.273983 6,450 168 241 -1088
2023-01-23 08:01:00 GMT 41.571335 2.273723 6,475 168 241 -1152
2023-01-23 08:00:58 GMT 41.575104 2.272701 6,525 168 241 -1152
2023-01-23 08:00:56 GMT 41.576130 2.272445 6,550 168 241 -1152
2023-01-23 08:00:54 GMT 41.577347 2.272110 6,575 168 241 -1152
2023-01-23 08:00:53 GMT 41.580505 2.271296 6,625 168 241 -1088
2023-01-23 08:00:52 GMT 41.580505 2.271296 6,625 168 241 -1088
2023-01-23 08:00:51 GMT 41.581604 2.270986 6,650 168 241 -1088
2023-01-23 08:00:50 GMT 41.582787 2.270657 6,650 168 242 -1088
2023-01-23 08:00:48 GMT 41.585022 2.270082 6,700 168 242 -1088
2023-01-23 08:00:47 GMT 41.585625 2.269890 6,700 168 242 -1088
2023-01-23 08:00:46 GMT 41.586777 2.269613 6,725 168 242 -1088
2023-01-23 08:00:45 GMT 41.587906 2.269315 6,750 168 242 -1088
2023-01-23 08:00:43 GMT 41.590282 2.268613 6,775 168 242 -1088
2023-01-23 08:00:42 GMT 41.591305 2.268357 6,800 168 242 -1088
2023-01-23 08:00:41 GMT 41.592407 2.268053 6,825 168 242 -1088
2023-01-23 08:00:40 GMT 41.594658 2.267463 6,850 168 242 -1088
2023-01-23 08:00:38 GMT 41.595703 2.267179 6,875 168 242 -1088
2023-01-23 08:00:37 GMT 41.596802 2.266929 6,900 168 242 -1088
2023-01-23 08:00:36 GMT 41.598988 2.266313 6,925 168 242 -1088
2023-01-23 08:00:33 GMT 41.601128 2.265739 6,975 168 243 -1088
2023-01-23 08:00:32 GMT 41.604721 2.264807 7,025 168 243 -1152
2023-01-23 08:00:30 GMT 41.604721 2.264807 7,025 168 243 -1152
2023-01-23 08:00:29 GMT 41.605728 2.264494 7,050 168 243 -1152
2023-01-23 08:00:27 GMT 41.608902 2.263695 7,100 168 243 -1152
2023-01-23 08:00:25 GMT 41.610020 2.263375 7,125 168 243 -1088
2023-01-23 08:00:24 GMT 41.611267 2.263059 7,125 168 243 -1088
2023-01-23 08:00:23 GMT 41.612534 2.262736 7,150 168 243 -1088
2023-01-23 08:00:21 GMT 41.614838 2.262122 7,200 168 243 -1088
2023-01-23 08:00:19 GMT 41.617142 2.261523 7,225 168 244 -1088
2023-01-23 08:00:16 GMT 41.620605 2.260562 7,400 168 244 -1088
2023-01-23 08:00:12 GMT 41.624680 2.259501 7,400 168 244 -1088
2023-01-23 08:00:09 GMT 41.628315 2.258521 7,425 168 244 -1088
2023-01-23 08:00:06 GMT 41.631683 2.257628 7,475 168 244 -1024
2023-01-23 07:59:59 GMT 41.639580 2.255519 7,600 168 245 -1152
2023-01-23 07:59:55 GMT 41.643257 2.254497 7,650 168 246 -1088
2023-01-23 07:59:49 GMT 41.651779 2.252135 7,800 168 246 -1024
2023-01-23 07:59:45 GMT 41.654198 2.251495 7,825 168 246 -1024
2023-01-23 07:59:41 GMT 41.659103 2.250137 7,950 168 247 -1088
2023-01-23 07:59:38 GMT 41.662903 2.249067 8,125 168 248 -1152
2023-01-23 07:59:35 GMT 41.665745 2.248301 8,125 168 248 -1152
2023-01-23 07:59:31 GMT 41.670490 2.246960 8,125 168 248 -1152
2023-01-23 07:59:28 GMT 41.674072 2.245955 8,150 168 248 -1216
2023-01-23 07:59:25 GMT 41.676956 2.245144 8,200 168 248 -1152
2023-01-23 07:59:22 GMT 41.680344 2.244270 8,275 168 248 -960
2023-01-23 07:59:19 GMT 41.682735 2.243574 8,300 168 248 -896
2023-01-23 07:59:18 GMT 41.683868 2.243271 8,325 168 250 -832
2023-01-23 07:59:17 GMT 41.685699 2.242771 8,325 168 250 -768
2023-01-23 07:59:15 GMT 41.688183 2.242105 8,350 168 251 -704
2023-01-23 07:59:14 GMT 41.689362 2.241835 8,375 168 251 -640
2023-01-23 07:59:11 GMT 41.692696 2.240892 8,400 168 252 -640
2023-01-23 07:59:10 GMT 41.693939 2.240587 8,425 168 252 -576
2023-01-23 07:59:09 GMT 41.695129 2.240275 8,425 168 252 -576
2023-01-23 07:59:07 GMT 41.697372 2.239650 8,450 168 253 -640
2023-01-23 07:59:06 GMT 41.698471 2.239338 8,450 168 254 -704
2023-01-23 07:59:05 GMT 41.699772 2.239039 8,475 168 254 -704
2023-01-23 07:59:04 GMT 41.702271 2.238340 8,500 168 255 -768
2023-01-23 07:59:01 GMT 41.703918 2.237903 8,500 168 255 -768
2023-01-23 07:59:00 GMT 41.704567 2.237698 8,525 168 257 -768
2023-01-23 07:58:59 GMT 41.706940 2.237091 8,525 168 257 -768
2023-01-23 07:58:55 GMT 41.711643 2.235846 8,600 168 260 -768
2023-01-23 07:58:51 GMT 41.717514 2.234220 8,650 168 262 -640
2023-01-23 07:58:48 GMT 41.719437 2.233720 8,675 168 270 -1024
2023-01-23 07:58:45 GMT 41.723934 2.232524 8,725 168 262 -704
2023-01-23 07:58:38 GMT 41.731800 2.230352 8,800 168 268 -704
2023-01-23 07:58:34 GMT 41.736271 2.229139 8,825 168 266 -640
2023-01-23 07:58:30 GMT 41.741867 2.227603 8,875 168 269 -832
2023-01-23 07:58:25 GMT 41.747955 2.225855 8,950 168 270 -1024
2023-01-23 07:58:21 GMT 41.753036 2.224482 9,025 168 271 -1216
2023-01-23 07:58:14 GMT 41.760910 2.222297 9,150 168 272 -1152
2023-01-23 07:58:08 GMT 41.769508 2.219941 9,300 168 274 -1152
2023-01-23 07:58:04 GMT 41.773590 2.218864 9,350 168 274 -1216
2023-01-23 07:57:57 GMT 41.781693 2.216679 9,475 168 276 -1216
2023-01-23 07:57:54 GMT 41.786362 2.215368 9,550 168 276 -1216
2023-01-23 07:57:48 GMT 41.793320 2.213495 9,675 168 277 -1216
2023-01-23 07:57:44 GMT 41.798740 2.212021 9,775 168 277 -1216
2023-01-23 07:57:37 GMT 41.806641 2.209875 9,900 168 279 -1152
2023-01-23 07:57:33 GMT 41.811996 2.208439 9,975 168 280 -896
2023-01-23 07:57:28 GMT 41.819412 2.206400 10,025 168 284 -320
2023-01-23 07:57:23 GMT 41.824768 2.204944 10,050 168 287 -448
2023-01-23 07:57:17 GMT 41.833099 2.202695 10,100 168 291 -512
2023-01-23 07:57:14 GMT 41.838123 2.201290 10,125 168 294 -448
2023-01-23 07:57:07 GMT 41.846283 2.199076 10,175 168 299 -448
2023-01-23 07:57:03 GMT 41.851952 2.197521 10,200 168 302 -448
2023-01-23 07:56:57 GMT 41.860657 2.195206 10,250 168 307 -576
2023-01-23 07:56:53 GMT 41.865917 2.193753 10,300 168 310 -576
2023-01-23 07:56:46 GMT 41.874901 2.191325 10,350 168 315 -512
2023-01-23 07:56:43 GMT 41.880535 2.189792 10,375 168 318 -512
2023-01-23 07:56:37 GMT 41.890450 2.187110 10,450 168 323 -640
2023-01-23 07:56:32 GMT 41.895432 2.185768 10,475 168 326 -576
2023-01-23 07:56:21 GMT 41.911911 2.181233 10,575 168 336 -512
2023-01-23 07:56:11 GMT 41.928406 2.176729 10,775 168 343 -1728
2023-01-23 07:56:03 GMT 41.942776 2.172738 11,075 168 345 -1856
2023-01-23 07:55:51 GMT 41.958740 2.168331 11,400 168 348 -1856
2023-01-23 07:55:42 GMT 41.972992 2.164369 11,800 168 351 -1920
2023-01-23 07:55:39 GMT 41.978851 2.162746 11,800 168 351 -1920
2023-01-23 07:55:31 GMT 41.991470 2.159261 12,050 168 353 -1920
2023-01-23 07:55:21 GMT 42.007919 2.154694 13,500 168 355 -1920
2023-01-23 07:54:56 GMT 42.047653 2.143645 13,150 168 361 -1856
2023-01-23 07:54:51 GMT 42.055523 2.141504 13,300 168 362 -1856
2023-01-23 07:54:46 GMT 42.065441 2.138757 13,500 168 372 -2048
2023-01-23 07:54:37 GMT 42.078800 2.135052 13,750 168 366 -1984
2023-01-23 07:54:30 GMT 42.091045 2.131667 14,000 168 367 -1984
2023-01-23 07:54:19 GMT 42.108627 2.126916 14,350 168 370 -1984
2023-01-23 07:54:09 GMT 42.125771 2.122278 14,675 168 373 -2048
2023-01-23 07:54:00 GMT 42.142227 2.117864 15,000 168 376 -1984
2023-01-23 07:53:53 GMT 42.152771 2.114996 15,200 168 381 -2176
2023-01-23 07:53:49 GMT 42.160080 2.113058 15,350 168 379 -2112
2023-01-23 07:53:44 GMT 42.168915 2.110748 15,550 168 381 -2176
2023-01-23 07:53:40 GMT 42.177063 2.108564 15,725 168 380 -2176
2023-01-23 07:53:34 GMT 42.186310 2.106067 16,100 168 381 -2176
2023-01-23 07:53:29 GMT 42.194641 2.103819 16,075 168 381 -2176
2023-01-23 07:53:23 GMT 42.204758 2.101010 16,275 168 383 -1920
2023-01-23 07:53:19 GMT 42.212631 2.098888 16,400 168 384 -1792
2023-01-23 07:53:12 GMT 42.223709 2.095829 16,650 168 386 -2624
2023-01-23 07:53:09 GMT 42.230328 2.093981 16,825 168 388 -2624
2023-01-23 07:53:04 GMT 42.242111 2.090586 17,100 168 391 -2496
2023-01-23 07:52:59 GMT 42.248112 2.088935 17,250 168 392 -2688
2023-01-23 07:52:52 GMT 42.259705 2.085678 17,550 168 394 -2880
2023-01-23 07:52:48 GMT 42.266006 2.083969 17,725 168 395 -2240
2023-01-23 07:52:41 GMT 42.278511 2.080504 17,975 168 397 -2176
2023-01-23 07:52:38 GMT 42.284424 2.078843 18,100 168 397 -2304
2023-01-23 07:52:28 GMT 42.303955 2.073295 18,525 167 398 -2240
2023-01-23 07:52:18 GMT 42.321259 2.068364 18,875 168 400 -2048
2023-01-23 07:52:11 GMT 42.333893 2.064868 19,100 168 400 -1984
2023-01-23 07:52:01 GMT 42.351562 2.059999 19,400 168 402 -1920
2023-01-23 07:51:51 GMT 42.370560 2.054755 19,725 168 404 -1920
2023-01-23 07:51:40 GMT 42.389305 2.049525 20,225 168 407 -2048
2023-01-23 07:51:35 GMT 42.400406 2.046391 20,275 168 408 -2112
2023-01-23 07:51:33 GMT 42.402058 2.045948 20,300 168 408 -2112
2023-01-23 07:51:32 GMT 42.403873 2.045437 20,325 168 408 -2048
2023-01-23 07:51:30 GMT 42.413372 2.042754 20,525 168 408 -2048
2023-01-23 07:51:27 GMT 42.413372 2.042754 20,525 168 407 -1920
2023-01-23 07:51:26 GMT 42.415146 2.042209 20,550 168 407 -1920
2023-01-23 07:51:25 GMT 42.417889 2.041477 20,600 168 407 -1856
2023-01-23 07:51:24 GMT 42.419518 2.041030 20,625 168 406 -1792
2023-01-23 07:51:23 GMT 42.421188 2.040523 20,650 168 406 -1792
2023-01-23 07:51:20 GMT 42.426918 2.038922 20,750 168 405 -1792
2023-01-23 07:51:19 GMT 42.428688 2.038411 20,800 168 404 -1792
2023-01-23 07:51:18 GMT 42.430756 2.037839 20,825 168 404 -1792
2023-01-23 07:51:16 GMT 42.434326 2.036778 20,875 168 403 -1792
2023-01-23 07:51:15 GMT 42.436386 2.036216 20,925 168 403 -1792
2023-01-23 07:51:14 GMT 42.438171 2.035717 20,950 168 402 -1792
2023-01-23 07:51:12 GMT 42.442001 2.034642 21,000 168 402 -1792
2023-01-23 07:51:11 GMT 42.443817 2.034131 21,050 168 401 -1792
2023-01-23 07:51:10 GMT 42.445820 2.033557 21,075 168 401 -1792
2023-01-23 07:51:09 GMT 42.447327 2.033095 21,100 168 401 -1792
2023-01-23 07:51:08 GMT 42.451080 2.032024 21,150 168 400 -1728
2023-01-23 07:51:06 GMT 42.452892 2.031513 21,200 168 400 -1792
2023-01-23 07:51:05 GMT 42.454758 2.031002 21,225 168 400 -1792
2023-01-23 07:51:04 GMT 42.458405 2.029974 21,275 168 400 -1792
2023-01-23 07:51:01 GMT 42.462204 2.028894 21,325 168 400 -1792
2023-01-23 07:51:00 GMT 42.463974 2.028383 21,350 168 401 -1792
2023-01-23 07:50:59 GMT 42.465790 2.027872 21,400 168 401 -1792
2023-01-23 07:50:58 GMT 42.471470 2.026275 21,450 168 402 -1728
2023-01-23 07:50:56 GMT 42.471470 2.026275 21,475 168 402 -1664
2023-01-23 07:50:55 GMT 42.473145 2.025792 21,500 168 402 -1664
2023-01-23 07:50:54 GMT 42.476898 2.024730 21,550 168 403 -1600
2023-01-23 07:50:51 GMT 42.478779 2.024231 21,575 168 403 -1664
2023-01-23 07:50:50 GMT 42.481709 2.023401 21,625 168 404 -1664
2023-01-23 07:50:48 GMT 42.485504 2.022296 21,675 168 404 -1728
2023-01-23 07:50:47 GMT 42.487198 2.021859 21,700 168 405 -1728
2023-01-23 07:50:46 GMT 42.489017 2.021357 21,750 168 405 -1728
2023-01-23 07:50:44 GMT 42.492599 2.020298 21,800 168 406 -1728
2023-01-23 07:50:43 GMT 42.494659 2.019737 21,825 168 406 -1792
2023-01-23 07:50:42 GMT 42.496353 2.019300 21,850 168 407 -1792
2023-01-23 07:50:40 GMT 42.500099 2.018227 21,900 168 407 -1792
2023-01-23 07:50:39 GMT 42.501865 2.017716 21,950 168 408 -1856
2023-01-23 07:50:38 GMT 42.503769 2.017177 21,975 168 408 -1856
2023-01-23 07:50:37 GMT 42.506104 2.016553 22,025 168 408 -1920
2023-01-23 07:50:36 GMT 42.509766 2.015554 22,100 168 409 -1984
2023-01-23 07:50:34 GMT 42.511551 2.015033 22,125 168 409 -1984
2023-01-23 07:50:33 GMT 42.513290 2.014555 22,150 168 410 -1920
2023-01-23 07:50:31 GMT 42.516815 2.013557 22,200 168 410 -1856
2023-01-23 07:50:30 GMT 42.519371 2.012861 22,250 168 410 -1856
2023-01-23 07:50:28 GMT 42.525330 2.011185 22,350 168 411 -1856
2023-01-23 07:50:25 GMT 42.528168 2.010434 22,400 168 412 -1856
2023-01-23 07:50:22 GMT 42.534081 2.008773 22,500 168 413 -1856
2023-01-23 07:50:21 GMT 42.536175 2.008199 22,525 168 413 -1856
2023-01-23 07:50:20 GMT 42.539841 2.007190 22,600 168 414 -1792
2023-01-23 07:50:18 GMT 42.541855 2.006666 22,625 168 414 -1792
2023-01-23 07:50:16 GMT 42.544930 2.005835 22,675 168 414 -1728
2023-01-23 07:50:14 GMT 42.549362 2.004630 22,750 168 415 -1728
2023-01-23 07:50:13 GMT 42.551121 2.004175 22,775 168 416 -1728
2023-01-23 07:50:12 GMT 42.553169 2.003600 22,800 168 416 -1728
2023-01-23 07:50:10 GMT 42.556824 2.002633 22,850 168 417 -1792
2023-01-23 07:50:09 GMT 42.558754 2.002131 22,875 168 417 -1792
2023-01-23 07:50:08 GMT 42.560944 2.001572 22,925 168 417 -1792
2023-01-23 07:50:07 GMT 42.562775 2.001072 22,950 168 417 -1856
2023-01-23 07:50:05 GMT 42.566620 2.000074 23,000 168 418 -1856
2023-01-23 07:50:04 GMT 42.568253 1.999639 23,050 168 418 -1920
2023-01-23 07:50:03 GMT 42.570190 1.999075 23,075 168 419 -1920
2023-01-23 07:50:00 GMT 42.575886 1.997595 23,175 168 420 -1984
2023-01-23 07:49:59 GMT 42.577888 1.997085 23,200 168 420 -1984
2023-01-23 07:49:57 GMT 42.581566 1.996063 23,275 168 421 -1920
2023-01-23 07:49:56 GMT 42.583740 1.995517 23,300 168 421 -1984
2023-01-23 07:49:55 GMT 42.585938 1.994955 23,325 169 422 -1984
2023-01-23 07:49:53 GMT 42.589806 1.993955 23,400 169 422 -2048
2023-01-23 07:49:52 GMT 42.591751 1.993394 23,450 169 423 -2048
2023-01-23 07:49:50 GMT 42.595779 1.992333 23,500 168 423 -2112
2023-01-23 07:49:48 GMT 42.598976 1.991527 23,575 168 423 -2112
2023-01-23 07:49:47 GMT 42.601135 1.990960 23,600 169 424 -2048
2023-01-23 07:49:46 GMT 42.603165 1.990442 23,650 169 424 -2048
2023-01-23 07:49:44 GMT 42.607262 1.989356 23,725 169 424 -2112
2023-01-23 07:49:43 GMT 42.609238 1.988838 23,750 169 424 -2176
2023-01-23 07:49:42 GMT 42.611031 1.988334 23,800 169 424 -2176
2023-01-23 07:49:41 GMT 42.614914 1.987339 23,875 169 425 -2112
2023-01-23 07:49:38 GMT 42.616653 1.986840 23,900 168 425 -2048
2023-01-23 07:49:37 GMT 42.618668 1.986354 23,925 168 425 -1984
2023-01-23 07:49:35 GMT 42.626633 1.984218 24,025 168 425 -1664
2023-01-23 07:49:33 GMT 42.626633 1.984218 24,050 168 425 -1600
2023-01-23 07:49:32 GMT 42.628418 1.983781 24,075 168 425 -1536
2023-01-23 07:49:30 GMT 42.632492 1.982658 24,125 168 426 -1216
2023-01-23 07:49:29 GMT 42.634277 1.982221 24,125 168 427 -1216
2023-01-23 07:49:28 GMT 42.636402 1.981627 24,150 168 427 -1088
2023-01-23 07:49:26 GMT 42.640137 1.980598 24,175 168 428 -960
2023-01-23 07:49:25 GMT 42.642128 1.980094 24,175 168 429 -960
2023-01-23 07:49:24 GMT 42.644211 1.979537 24,200 168 429 -1024
2023-01-23 07:49:23 GMT 42.645859 1.979100 24,200 168 430 -1088
2023-01-23 07:49:21 GMT 42.650089 1.977922 24,250 168 431 -1280
2023-01-23 07:49:20 GMT 42.651947 1.977414 24,275 168 431 -1472
2023-01-23 07:49:18 GMT 42.655884 1.976353 24,325 168 432 -1984
2023-01-23 07:49:17 GMT 42.661865 1.974665 24,475 168 432 -3200
2023-01-23 07:49:15 GMT 42.661865 1.974665 24,475 168 432 -3200
2023-01-23 07:49:14 GMT 42.663918 1.974090 24,525 168 431 -3648
2023-01-23 07:49:13 GMT 42.665825 1.973579 24,575 168 431 -3840
2023-01-23 07:49:11 GMT 42.669891 1.972483 24,725 168 431 -4096
2023-01-23 07:49:10 GMT 42.671970 1.971854 24,800 168 430 -4288
2023-01-23 07:49:09 GMT 42.673965 1.971359 24,875 168 430 -4288
2023-01-23 07:49:08 GMT 42.677650 1.970321 25,000 168 429 -4352
2023-01-23 07:49:06 GMT 42.679733 1.969736 25,075 168 429 -4352
2023-01-23 07:49:05 GMT 42.681793 1.969172 25,150 168 428 -4288
2023-01-23 07:49:04 GMT 42.683514 1.968724 25,225 168 428 -4224
2023-01-23 07:49:02 GMT 42.687656 1.967575 25,375 168 427 -4096
2023-01-23 07:49:00 GMT 42.691334 1.966553 25,475 168 427 -3968
2023-01-23 07:48:59 GMT 42.693195 1.966042 25,550 168 427 -3776
2023-01-23 07:48:58 GMT 42.695011 1.965531 25,625 168 427 -3648
2023-01-23 07:48:56 GMT 42.698784 1.964509 25,725 168 427 -3264
2023-01-23 07:48:54 GMT 42.701752 1.963681 25,825 168 427 -3200
2023-01-23 07:48:53 GMT 42.704498 1.962932 25,900 168 428 -3008
2023-01-23 07:48:52 GMT 42.707108 1.962183 25,950 168 428 -2944
2023-01-23 07:48:51 GMT 42.708885 1.961698 26,000 168 428 -2816
2023-01-23 07:48:50 GMT 42.710815 1.961184 26,050 168 428 -2816
2023-01-23 07:48:49 GMT 42.714569 1.960123 26,125 168 429 -2752
2023-01-23 07:48:47 GMT 42.716427 1.959654 26,175 168 429 -2752
2023-01-23 07:48:46 GMT 42.718597 1.959062 26,225 168 429 -2752
2023-01-23 07:48:45 GMT 42.722198 1.958057 26,300 168 429 -2688
2023-01-23 07:48:43 GMT 42.724155 1.957483 26,350 168 431 -2624
2023-01-23 07:48:41 GMT 42.728157 1.956397 26,425 168 431 -2560
2023-01-23 07:48:40 GMT 42.730160 1.955822 26,475 167 431 -2560
2023-01-23 07:48:39 GMT 42.732021 1.955247 26,525 167 431 -2560
2023-01-23 07:48:38 GMT 42.733978 1.954692 26,550 167 431 -2688
2023-01-23 07:48:36 GMT 42.738586 1.953331 26,675 167 431 -3072
2023-01-23 07:48:35 GMT 42.740707 1.952695 26,725 167 431 -3200
2023-01-23 07:48:34 GMT 42.742493 1.952133 26,775 167 430 -3456
2023-01-23 07:48:33 GMT 42.744507 1.951509 26,850 167 429 -3712
2023-01-23 07:48:32 GMT 42.746220 1.950967 26,900 167 428 -3968
2023-01-23 07:48:30 GMT 42.750000 1.949824 27,050 166 428 -4160
2023-01-23 07:48:29 GMT 42.752224 1.949115 27,125 167 426 -4224
2023-01-23 07:48:28 GMT 42.754303 1.948450 27,200 167 425 -4224
2023-01-23 07:48:27 GMT 42.757553 1.947452 27,325 167 424 -4288
2023-01-23 07:48:25 GMT 42.759487 1.946880 27,400 167 423 -4352
2023-01-23 07:48:24 GMT 42.761444 1.946241 27,475 167 423 -4352
2023-01-23 07:48:22 GMT 42.765656 1.944955 27,650 167 421 -4480
2023-01-23 07:48:21 GMT 42.767818 1.944261 27,725 167 421 -4544
2023-01-23 07:48:20 GMT 42.768936 1.943941 27,775 167 419 -4544
2023-01-23 07:48:19 GMT 42.773575 1.942520 27,950 167 417 -4544
2023-01-23 07:48:16 GMT 42.776779 1.941584 28,100 167 416 -4416
2023-01-23 07:48:15 GMT 42.778564 1.941022 28,150 167 415 -4352
2023-01-23 07:48:13 GMT 42.782204 1.939981 28,300 167 414 -4160
2023-01-23 07:48:12 GMT 42.784161 1.939342 28,375 167 414 -3968
2023-01-23 07:48:11 GMT 42.788635 1.938026 28,525 167 413 -3584
2023-01-23 07:48:09 GMT 42.790329 1.937526 28,575 167 413 -3328
2023-01-23 07:48:08 GMT 42.792114 1.936965 28,625 167 413 -3136
2023-01-23 07:48:07 GMT 42.793991 1.936403 28,675 167 413 -2880
2023-01-23 07:48:06 GMT 42.797894 1.935318 28,775 167 414 -2496
2023-01-23 07:48:04 GMT 42.799667 1.934780 28,800 167 414 -2368
2023-01-23 07:48:03 GMT 42.801361 1.934280 28,850 167 414 -2112
2023-01-23 07:48:02 GMT 42.803528 1.933658 28,875 167 414 -2048
2023-01-23 07:48:01 GMT 42.807251 1.932508 28,950 167 415 -1984
2023-01-23 07:47:59 GMT 42.809189 1.931997 28,975 167 415 -1984
2023-01-23 07:47:58 GMT 42.811157 1.931358 29,025 167 415 -2048
2023-01-23 07:47:57 GMT 42.814499 1.930400 29,075 167 416 -2112
2023-01-23 07:47:55 GMT 42.816422 1.929825 29,125 167 416 -2176
2023-01-23 07:47:54 GMT 42.818005 1.929408 29,150 167 417 -2304
2023-01-23 07:47:51 GMT 42.823883 1.927717 29,275 168 416 -2368
2023-01-23 07:47:50 GMT 42.825684 1.927185 29,325 168 417 -2304
2023-01-23 07:47:49 GMT 42.830338 1.925865 29,400 168 418 -2176
2023-01-23 07:47:46 GMT 42.834137 1.924779 29,475 168 419 -1920
2023-01-23 07:47:44 GMT 42.837929 1.923719 29,550 168 419 -1920
2023-01-23 07:47:43 GMT 42.839035 1.923374 29,575 168 419 -1856
2023-01-23 07:47:42 GMT 42.841095 1.922863 29,600 168 420 -1856
2023-01-23 07:47:40 GMT 42.845142 1.921692 29,675 168 420 -1792
2023-01-23 07:47:39 GMT 42.847145 1.921169 29,700 168 421 -1664
2023-01-23 07:47:38 GMT 42.850777 1.920188 29,750 168 421 -1536
2023-01-23 07:47:36 GMT 42.852768 1.919669 29,775 168 421 -1408
2023-01-23 07:47:35 GMT 42.854782 1.919158 29,800 168 421 -1344
2023-01-23 07:47:32 GMT 42.858505 1.918161 29,825 168 422 -1216
2023-01-23 07:47:31 GMT 42.860645 1.917572 29,850 169 423 -1152
2023-01-23 07:47:30 GMT 42.862335 1.917114 29,875 169 424 -1088
2023-01-23 07:47:29 GMT 42.866882 1.915937 29,900 169 425 -1152
2023-01-23 07:47:27 GMT 42.868698 1.915454 29,925 169 426 -1216
2023-01-23 07:47:26 GMT 42.870621 1.915006 29,950 169 426 -1344
2023-01-23 07:47:25 GMT 42.872704 1.914498 29,975 169 426 -1536
2023-01-23 07:47:23 GMT 42.875793 1.913729 30,025 170 427 -2048
2023-01-23 07:47:22 GMT 42.877823 1.913256 30,050 170 426 -2368
2023-01-23 07:47:21 GMT 42.879826 1.912733 30,100 170 426 -2688
2023-01-23 07:47:19 GMT 42.883896 1.911813 30,200 171 426 -2880
2023-01-23 07:47:18 GMT 42.885818 1.911429 30,250 171 426 -2880
2023-01-23 07:47:17 GMT 42.887691 1.911033 30,300 171 426 -2816
2023-01-23 07:47:16 GMT 42.892273 1.910088 30,400 171 426 -2560
2023-01-23 07:47:14 GMT 42.894161 1.909725 30,425 171 426 -2368
2023-01-23 07:47:13 GMT 42.895931 1.909398 30,475 171 427 -2048
2023-01-23 07:47:12 GMT 42.898121 1.908940 30,500 171 427 -1856
2023-01-23 07:47:11 GMT 42.903519 1.907894 30,575 172 427 -1536
2023-01-23 07:47:09 GMT 42.903519 1.907894 30,575 172 428 -1536
2023-01-23 07:47:08 GMT 42.905502 1.907533 30,600 172 428 -1536
2023-01-23 07:47:06 GMT 42.909573 1.906782 30,650 172 429 -1536
2023-01-23 07:47:05 GMT 42.911201 1.906455 30,700 172 429 -1536
2023-01-23 07:47:04 GMT 42.913925 1.905936 30,700 172 429 -1536
2023-01-23 07:47:03 GMT 42.917816 1.905170 30,750 171 430 -1536
2023-01-23 07:47:01 GMT 42.919811 1.904820 30,775 171 430 -1536
2023-01-23 07:47:00 GMT 42.921982 1.904403 30,825 171 430 -1536
2023-01-23 07:46:59 GMT 42.923584 1.904084 30,825 171 430 -1536
2023-01-23 07:46:57 GMT 42.927612 1.903317 30,875 172 431 -1536
2023-01-23 07:46:56 GMT 42.929634 1.902924 30,900 172 431 -1536
2023-01-23 07:46:54 GMT 42.935642 1.901812 30,975 171 432 -1472
2023-01-23 07:46:52 GMT 42.937408 1.901465 31,000 171 432 -1472
2023-01-23 07:46:51 GMT 42.939365 1.901027 31,025 171 433 -1536
2023-01-23 07:46:50 GMT 42.941368 1.900700 31,050 171 433 -1536
2023-01-23 07:46:48 GMT 42.945511 1.899850 31,125 171 433 -1600
2023-01-23 07:46:47 GMT 42.947281 1.899523 31,150 171 434 -1664
2023-01-23 07:46:46 GMT 42.949127 1.899166 31,175 171 434 -1664
2023-01-23 07:46:43 GMT 42.954987 1.898016 31,250 171 435 -1664
2023-01-23 07:46:42 GMT 42.956863 1.897633 31,275 171 435 -1664
2023-01-23 07:46:40 GMT 42.960827 1.896842 31,325 171 436 -1664
2023-01-23 07:46:39 GMT 42.963619 1.896319 31,375 171 436 -1664
2023-01-23 07:46:37 GMT 42.966751 1.895653 31,400 171 436 -1664
2023-01-23 07:46:36 GMT 42.968811 1.895269 31,450 171 437 -1728
2023-01-23 07:46:35 GMT 42.970825 1.894886 31,475 171 437 -1728
2023-01-23 07:46:34 GMT 42.973347 1.894422 31,525 171 437 -1728
2023-01-23 07:46:31 GMT 42.978882 1.893353 31,600 171 438 -1664
2023-01-23 07:46:30 GMT 42.981033 1.892906 31,625 171 438 -1664
2023-01-23 07:46:28 GMT 42.985153 1.892140 31,675 171 439 -1664
2023-01-23 07:46:27 GMT 42.987919 1.891610 31,725 171 439 -1664
2023-01-23 07:46:26 GMT 42.991550 1.890891 31,775 171 439 -1664
2023-01-23 07:46:24 GMT 42.993530 1.890479 31,800 171 440 -1664
2023-01-23 07:46:23 GMT 42.995693 1.890041 31,825 171 440 -1664
2023-01-23 07:46:21 GMT 43.001770 1.888882 31,900 171 441 -1664
2023-01-23 07:46:19 GMT 43.003601 1.888499 31,925 171 441 -1664
2023-01-23 07:46:18 GMT 43.005608 1.888144 31,950 171 441 -1664
2023-01-23 07:46:16 GMT 43.009552 1.887349 32,025 171 442 -1664
2023-01-23 07:46:15 GMT 43.011520 1.886966 32,050 171 442 -1664
2023-01-23 07:46:14 GMT 43.013397 1.886646 32,075 171 442 -1664
2023-01-23 07:46:13 GMT 43.017700 1.885816 32,125 171 443 -1664
2023-01-23 07:46:11 GMT 43.019901 1.885398 32,150 171 443 -1664
2023-01-23 07:46:10 GMT 43.022141 1.884922 32,200 171 444 -1728
2023-01-23 07:46:09 GMT 43.024017 1.884602 32,225 171 444 -1664
2023-01-23 07:46:08 GMT 43.025940 1.884219 32,250 172 444 -1664
2023-01-23 07:46:07 GMT 43.030701 1.883325 32,300 172 445 -1664
2023-01-23 07:46:05 GMT 43.031937 1.883069 32,325 172 445 -1664
2023-01-23 07:46:04 GMT 43.034180 1.882622 32,350 172 446 -1600
2023-01-23 07:46:03 GMT 43.038345 1.881856 32,400 172 446 -1600
2023-01-23 07:46:01 GMT 43.040569 1.881409 32,425 172 446 -1536
2023-01-23 07:46:00 GMT 43.042511 1.881089 32,450 172 447 -1536
2023-01-23 07:45:59 GMT 43.046623 1.880297 32,500 172 447 -1472
2023-01-23 07:45:57 GMT 43.048645 1.879876 32,550 172 447 -1472
2023-01-23 07:45:55 GMT 43.052719 1.879109 32,575 172 448 -1408
2023-01-23 07:45:54 GMT 43.055054 1.878662 32,600 172 448 -1408
2023-01-23 07:45:53 GMT 43.056931 1.878343 32,625 172 449 -1408
2023-01-23 07:45:51 GMT 43.061142 1.877512 32,675 172 449 -1472
2023-01-23 07:45:49 GMT 43.065289 1.876766 32,725 172 450 -1536
2023-01-23 07:45:47 GMT 43.069290 1.875979 32,775 172 451 -1600
2023-01-23 07:45:46 GMT 43.071247 1.875589 32,800 171 452 -1664
2023-01-23 07:45:45 GMT 43.076111 1.874702 32,875 171 452 -1792
2023-01-23 07:45:43 GMT 43.078045 1.874281 32,900 171 452 -1856
2023-01-23 07:45:42 GMT 43.080280 1.873888 32,950 171 452 -2048
2023-01-23 07:45:41 GMT 43.082245 1.873488 32,975 171 452 -2176
2023-01-23 07:45:40 GMT 43.086609 1.872711 33,050 171 452 -2368
2023-01-23 07:45:37 GMT 43.092102 1.871665 33,175 172 451 -2880
2023-01-23 07:45:35 GMT 43.094242 1.871207 33,225 172 451 -3072
2023-01-23 07:45:34 GMT 43.097122 1.870678 33,300 172 451 -3136
2023-01-23 07:45:33 GMT 43.100437 1.870030 33,375 172 450 -3200
2023-01-23 07:45:31 GMT 43.103256 1.869528 33,450 172 450 -3136
2023-01-23 07:45:29 GMT 43.106487 1.868918 33,500 172 449 -2880
2023-01-23 07:45:27 GMT 43.110947 1.868059 33,625 172 449 -2432
2023-01-23 07:45:26 GMT 43.112865 1.867741 33,675 172 449 -2112
2023-01-23 07:45:24 GMT 43.117538 1.866845 33,750 172 449 -1728
2023-01-23 07:45:23 GMT 43.121475 1.866079 33,800 172 450 -1600
2023-01-23 07:45:21 GMT 43.123760 1.865649 33,825 172 450 -1600
2023-01-23 07:45:19 GMT 43.127563 1.864929 33,875 172 450 -1600
2023-01-23 07:45:17 GMT 43.131775 1.864099 33,925 172 451 -1664
2023-01-23 07:45:15 GMT 43.134048 1.863687 33,950 172 451 -1664
2023-01-23 07:45:14 GMT 43.136032 1.863332 33,975 172 452 -1664
2023-01-23 07:45:12 GMT 43.140106 1.862566 34,025 172 452 -1728
2023-01-23 07:45:11 GMT 43.142101 1.862183 34,075 172 453 -1728
2023-01-23 07:45:09 GMT 43.146477 1.861332 34,125 172 453 -1792
2023-01-23 07:45:08 GMT 43.148438 1.860969 34,150 172 454 -1792
2023-01-23 07:45:06 GMT 43.152901 1.860155 34,225 172 454 -1792
2023-01-23 07:45:05 GMT 43.154808 1.859763 34,250 172 455 -1856
2023-01-23 07:45:04 GMT 43.158829 1.859053 34,300 172 455 -1856
2023-01-23 07:45:02 GMT 43.160889 1.858606 34,325 172 455 -1856
2023-01-23 07:45:01 GMT 43.162949 1.858286 34,375 172 456 -1856
2023-01-23 07:45:00 GMT 43.167423 1.857409 34,425 172 456 -1856
2023-01-23 07:44:58 GMT 43.169266 1.857073 34,450 172 456 -1856
2023-01-23 07:44:56 GMT 43.173523 1.856242 34,525 172 457 -1856
2023-01-23 07:44:55 GMT 43.175583 1.855859 34,550 172 457 -1856
2023-01-23 07:44:54 GMT 43.179668 1.855120 34,625 172 458 -1856
2023-01-23 07:44:52 GMT 43.181808 1.854709 34,650 172 458 -1856
2023-01-23 07:44:51 GMT 43.183868 1.854326 34,675 172 458 -1856
2023-01-23 07:44:49 GMT 43.188721 1.853496 34,750 172 458 -1856
2023-01-23 07:44:47 GMT 43.196938 1.851981 34,850 172 459 -1792
2023-01-23 07:44:45 GMT 43.196938 1.851981 34,875 172 459 -1792
2023-01-23 07:44:44 GMT 43.199314 1.851523 34,900 172 459 -1728
2023-01-23 07:44:42 GMT 43.203594 1.850739 34,950 172 460 -1728
2023-01-23 07:44:40 GMT 43.207809 1.849919 35,025 172 460 -1728
2023-01-23 07:44:37 GMT 43.213303 1.848897 35,100 172 461 -1664
2023-01-23 07:44:36 GMT 43.217651 1.848130 35,150 172 461 -1728
2023-01-23 07:44:34 GMT 43.219517 1.847796 35,175 172 462 -1728
2023-01-23 07:44:33 GMT 43.222549 1.847172 35,225 172 462 -1792
2023-01-23 07:44:32 GMT 43.225983 1.846533 35,250 172 462 -1792
2023-01-23 07:44:30 GMT 43.228271 1.846150 35,300 172 463 -1792
2023-01-23 07:44:29 GMT 43.230652 1.845703 35,325 172 463 -1792
2023-01-23 07:44:28 GMT 43.235138 1.844873 35,375 172 464 -1728
2023-01-23 07:44:26 GMT 43.237392 1.844461 35,425 172 464 -1728
2023-01-23 07:44:24 GMT 43.241768 1.843610 35,475 172 464 -1664
2023-01-23 07:44:23 GMT 43.242977 1.843414 35,475 172 465 -1664
2023-01-23 07:44:21 GMT 43.247726 1.842499 35,550 171 465 -1664
2023-01-23 07:44:20 GMT 43.250149 1.842041 35,575 171 465 -1664
2023-01-23 07:44:19 GMT 43.252380 1.841583 35,600 171 466 -1664
2023-01-23 07:44:18 GMT 43.256618 1.840733 35,675 171 466 -1728
2023-01-23 07:44:16 GMT 43.258575 1.840406 35,700 171 466 -1728
2023-01-23 07:44:15 GMT 43.260807 1.839948 35,750 171 466 -1728
2023-01-23 07:44:14 GMT 43.263199 1.839443 35,775 171 467 -1728
2023-01-23 07:44:12 GMT 43.267365 1.838677 35,800 171 467 -1728
2023-01-23 07:44:11 GMT 43.269608 1.838230 35,850 171 468 -1664
2023-01-23 07:44:10 GMT 43.271759 1.837783 35,875 171 468 -1664
2023-01-23 07:44:07 GMT 43.277481 1.836633 35,950 171 469 -1664
2023-01-23 07:44:06 GMT 43.279522 1.836286 35,975 171 469 -1664
2023-01-23 07:44:05 GMT 43.284027 1.835356 36,000 171 469 -1600
2023-01-23 07:44:03 GMT 43.285992 1.834978 36,050 171 470 -1600
2023-01-23 07:44:02 GMT 43.288460 1.834521 36,075 171 470 -1600
2023-01-23 07:44:01 GMT 43.292835 1.833670 36,125 171 471 -1600
2023-01-23 07:43:59 GMT 43.295105 1.833184 36,150 171 471 -1600
2023-01-23 07:43:57 GMT 43.299179 1.832417 36,225 171 472 -1664
2023-01-23 07:43:56 GMT 43.301353 1.831970 36,250 171 472 -1664
2023-01-23 07:43:55 GMT 43.306057 1.831055 36,300 171 473 -1728
2023-01-23 07:43:53 GMT 43.308151 1.830629 36,325 171 473 -1728
2023-01-23 07:43:52 GMT 43.310303 1.830246 36,350 171 473 -1728
2023-01-23 07:43:51 GMT 43.314671 1.829354 36,400 171 474 -1792
2023-01-23 07:43:49 GMT 43.316902 1.828897 36,450 171 474 -1792
2023-01-23 07:43:47 GMT 43.321106 1.828074 36,475 171 474 -1856
2023-01-23 07:43:46 GMT 43.323395 1.827627 36,525 171 475 -1856
2023-01-23 07:43:45 GMT 43.325775 1.827180 36,550 171 475 -1856
2023-01-23 07:43:44 GMT 43.330353 1.826285 36,625 171 476 -1792
2023-01-23 07:43:42 GMT 43.331615 1.826019 36,650 171 476 -1792
2023-01-23 07:43:41 GMT 43.334732 1.825431 36,675 171 476 -1792
2023-01-23 07:43:39 GMT 43.338272 1.824711 36,725 171 477 -1728
2023-01-23 07:43:38 GMT 43.341248 1.824114 36,775 171 477 -1664
2023-01-23 07:43:37 GMT 43.343624 1.823665 36,800 171 477 -1600
2023-01-23 07:43:36 GMT 43.346100 1.823156 36,825 171 478 -1472
2023-01-23 07:43:35 GMT 43.350143 1.822357 36,875 171 478 -1280
2023-01-23 07:43:33 GMT 43.352097 1.821965 36,900 171 478 -1216
2023-01-23 07:43:32 GMT 43.356148 1.821180 36,925 171 479 -960
2023-01-23 07:43:29 GMT 43.360565 1.820345 36,950 171 479 -704
2023-01-23 07:43:27 GMT 43.365326 1.819387 36,975 171 480 -448
2023-01-23 07:43:26 GMT 43.367878 1.818891 36,975 171 480 -256
2023-01-23 07:43:24 GMT 43.372284 1.818046 37,000 171 480 -64
2023-01-23 07:43:23 GMT 43.374344 1.817599 37,000 171 481 0
2023-01-23 07:43:22 GMT 43.376396 1.817191 37,000 171 481 0
2023-01-23 07:43:21 GMT 43.378540 1.816799 37,000 171 481 0
2023-01-23 07:43:20 GMT 43.382584 1.816002 37,000 171 481 0
2023-01-23 07:43:18 GMT 43.385708 1.815360 37,000 171 481 0
2023-01-23 07:43:17 GMT 43.387897 1.814968 37,000 171 482 0
2023-01-23 07:43:16 GMT 43.393528 1.813856 37,000 171 482 -64
2023-01-23 07:43:14 GMT 43.393528 1.813856 37,000 171 482 -64
2023-01-23 07:43:13 GMT 43.398186 1.812940 37,000 171 482 -128
2023-01-23 07:43:11 GMT 43.400650 1.812483 37,000 171 482 -128
2023-01-23 07:43:10 GMT 43.405426 1.811531 37,000 171 482 -128
2023-01-23 07:43:08 GMT 43.407635 1.811109 37,000 171 482 -64
2023-01-23 07:43:06 GMT 43.413872 1.809867 37,000 171 482 -64
2023-01-23 07:43:04 GMT 43.416275 1.809423 37,000 171 483 0
2023-01-23 07:43:03 GMT 43.420807 1.808528 37,000 172 483 0
2023-01-23 07:43:01 GMT 43.423187 1.808081 37,000 172 483 0
2023-01-23 07:42:59 GMT 43.427464 1.807251 37,000 172 483 0
2023-01-23 07:42:58 GMT 43.429699 1.806859 37,000 172 483 0
2023-01-23 07:42:57 GMT 43.431885 1.806421 37,000 172 483 0
2023-01-23 07:42:56 GMT 43.436356 1.805551 37,000 172 483 0
2023-01-23 07:42:54 GMT 43.438293 1.805207 37,000 172 483 0
2023-01-23 07:42:52 GMT 43.444702 1.803930 37,000 172 483 0
2023-01-23 07:42:50 GMT 43.446922 1.803523 37,000 172 483 0
2023-01-23 07:42:49 GMT 43.449112 1.803131 37,000 172 483 0
2023-01-23 07:42:48 GMT 43.453903 1.802205 37,000 172 484 64
2023-01-23 07:42:46 GMT 43.456055 1.801822 37,000 172 484 64
2023-01-23 07:42:45 GMT 43.462986 1.800515 37,000 172 484 64
2023-01-23 07:42:43 GMT 43.462986 1.800515 37,000 172 484 64
2023-01-23 07:42:41 GMT 43.465622 1.800033 37,000 172 484 0
2023-01-23 07:42:39 GMT 43.474251 1.798423 37,000 172 484 0
2023-01-23 07:42:37 GMT 43.476562 1.797989 37,000 172 484 0
2023-01-23 07:42:36 GMT 43.478951 1.797573 37,000 172 484 0
2023-01-23 07:42:34 GMT 43.483330 1.796722 37,000 172 484 0
2023-01-23 07:42:33 GMT 43.485470 1.796330 37,000 172 484 0
2023-01-23 07:42:31 GMT 43.489334 1.795626 37,000 172 484 0
2023-01-23 07:42:30 GMT 43.491707 1.795153 37,000 172 484 0
2023-01-23 07:42:29 GMT 43.494003 1.794732 37,000 172 484 0
2023-01-23 07:42:28 GMT 43.496223 1.794303 37,000 172 484 0
2023-01-23 07:42:26 GMT 43.500275 1.793518 37,000 172 483 0
2023-01-23 07:42:24 GMT 43.509750 1.791666 37,000 172 484 0
2023-01-23 07:42:22 GMT 43.509750 1.791666 37,000 172 484 0
2023-01-23 07:42:20 GMT 43.513824 1.790899 37,000 172 484 0
2023-01-23 07:42:19 GMT 43.518566 1.789987 37,000 172 484 0
2023-01-23 07:42:17 GMT 43.520664 1.789594 37,000 172 484 64
2023-01-23 07:42:15 GMT 43.525459 1.788679 37,000 171 484 64
2023-01-23 07:42:14 GMT 43.527740 1.788217 37,000 171 484 0
2023-01-23 07:42:12 GMT 43.532364 1.787322 37,000 171 484 0
2023-01-23 07:42:11 GMT 43.536667 1.786492 37,000 171 484 0
2023-01-23 07:42:09 GMT 43.538681 1.786109 37,000 171 484 0
2023-01-23 07:42:08 GMT 43.541054 1.785605 37,000 171 484 0
2023-01-23 07:42:07 GMT 43.545685 1.784703 37,000 171 484 0
2023-01-23 07:42:03 GMT 43.552277 1.783426 37,000 171 484 0
2023-01-23 07:42:02 GMT 43.553623 1.783120 37,000 171 484 0
2023-01-23 07:42:01 GMT 43.555904 1.782728 37,000 171 484 0
2023-01-23 07:42:00 GMT 43.561069 1.781682 37,000 171 484 0
2023-01-23 07:41:58 GMT 43.562988 1.781318 37,000 171 484 -64
2023-01-23 07:41:57 GMT 43.565048 1.780935 37,000 171 484 -64
2023-01-23 07:41:56 GMT 43.569260 1.780105 37,000 171 483 0
2023-01-23 07:41:53 GMT 43.574112 1.779146 37,000 171 483 0
2023-01-23 07:41:52 GMT 43.576431 1.778673 37,000 171 483 0
2023-01-23 07:41:51 GMT 43.578598 1.778252 37,000 171 483 0
2023-01-23 07:41:50 GMT 43.582764 1.777431 37,000 171 483 0
2023-01-23 07:41:48 GMT 43.585232 1.776973 37,000 171 483 0
2023-01-23 07:41:47 GMT 43.587559 1.776515 37,000 171 483 0
2023-01-23 07:41:46 GMT 43.592213 1.775600 37,000 171 483 0
2023-01-23 07:41:44 GMT 43.594345 1.775186 37,000 171 483 0
2023-01-23 07:41:43 GMT 43.596451 1.774803 37,000 171 483 0
2023-01-23 07:41:42 GMT 43.598915 1.774292 37,000 172 483 0
2023-01-23 07:41:40 GMT 43.603153 1.773507 37,000 172 483 -64
2023-01-23 07:41:37 GMT 43.609222 1.772312 37,000 172 483 -64
2023-01-23 07:41:36 GMT 43.612415 1.771676 37,000 171 484 -64
2023-01-23 07:41:34 GMT 43.614746 1.771218 37,000 172 484 0
2023-01-23 07:41:33 GMT 43.621216 1.770012 37,000 172 484 0
2023-01-23 07:41:31 GMT 43.623230 1.769629 37,000 172 484 64
2023-01-23 07:41:30 GMT 43.625824 1.769126 37,000 172 484 64
2023-01-23 07:41:28 GMT 43.629227 1.768416 37,000 172 484 64
2023-01-23 07:41:27 GMT 43.631596 1.767949 37,000 172 484 64
2023-01-23 07:41:26 GMT 43.638794 1.766627 37,000 172 484 0
2023-01-23 07:41:24 GMT 43.638794 1.766627 37,000 172 484 0
2023-01-23 07:41:23 GMT 43.641140 1.766118 37,000 172 484 0
2023-01-23 07:41:21 GMT 43.644608 1.765477 37,000 172 484 0
2023-01-23 07:41:20 GMT 43.646988 1.765030 37,000 172 484 0
2023-01-23 07:41:18 GMT 43.653580 1.763753 37,000 172 484 0
2023-01-23 07:41:16 GMT 43.656097 1.763242 37,000 172 484 64
2023-01-23 07:41:13 GMT 43.661762 1.762194 37,000 172 484 64
2023-01-23 07:41:12 GMT 43.663834 1.761773 37,000 172 484 64
2023-01-23 07:41:11 GMT 43.667130 1.761134 37,000 172 484 64
2023-01-23 07:41:10 GMT 43.669418 1.760687 37,000 172 484 64
2023-01-23 07:41:08 GMT 43.674053 1.759774 37,000 172 484 64
2023-01-23 07:41:07 GMT 43.676056 1.759409 37,000 172 484 0
2023-01-23 07:41:06 GMT 43.678474 1.758924 37,000 172 484 0
2023-01-23 07:41:04 GMT 43.682617 1.758139 37,000 172 484 -64
2023-01-23 07:41:03 GMT 43.685040 1.757682 37,000 172 484 -64
2023-01-23 07:41:01 GMT 43.689331 1.756854 37,000 172 484 0
2023-01-23 07:41:00 GMT 43.691605 1.756439 37,000 172 484 0
2023-01-23 07:40:58 GMT 43.696060 1.755577 37,000 172 484 0
2023-01-23 07:40:57 GMT 43.698120 1.755197 37,000 172 484 0
2023-01-23 07:40:55 GMT 43.702606 1.754299 37,000 172 484 0
2023-01-23 07:40:54 GMT 43.704868 1.753889 37,000 172 484 -64
2023-01-23 07:40:53 GMT 43.707058 1.753496 37,000 172 484 -64
2023-01-23 07:40:51 GMT 43.714005 1.752128 37,000 172 484 0
2023-01-23 07:40:50 GMT 43.714005 1.752128 37,000 172 484 0
2023-01-23 07:40:48 GMT 43.718555 1.751273 37,000 172 484 0
2023-01-23 07:40:46 GMT 43.723492 1.750292 37,000 172 484 64
2023-01-23 07:40:45 GMT 43.725632 1.749900 37,000 172 484 64
2023-01-23 07:40:44 GMT 43.728054 1.749442 37,000 172 484 64
2023-01-23 07:40:42 GMT 43.732361 1.748615 37,000 172 484 0
2023-01-23 07:40:40 GMT 43.735840 1.747912 37,000 172 484 0
2023-01-23 07:40:38 GMT 43.740372 1.747082 37,000 172 484 0
2023-01-23 07:40:37 GMT 43.743740 1.746434 37,000 172 484 0
2023-01-23 07:40:36 GMT 43.747238 1.745740 37,000 172 484 0
2023-01-23 07:40:34 GMT 43.749653 1.745257 37,000 171 484 -64
2023-01-23 07:40:33 GMT 43.751816 1.744846 37,000 171 484 -64
2023-01-23 07:40:31 GMT 43.756870 1.743883 37,000 171 484 -64
2023-01-23 07:40:29 GMT 43.761475 1.742994 37,000 171 484 0
2023-01-23 07:40:26 GMT 43.767342 1.741856 37,000 172 484 0
2023-01-23 07:40:25 GMT 43.769852 1.741333 37,000 172 484 0
2023-01-23 07:40:22 GMT 43.774326 1.740483 37,000 172 484 64
2023-01-23 07:40:21 GMT 43.776466 1.740091 37,000 172 484 64
2023-01-23 07:40:19 GMT 43.780838 1.739225 37,000 172 484 64
2023-01-23 07:40:18 GMT 43.783173 1.738778 37,000 172 484 64
2023-01-23 07:40:17 GMT 43.785690 1.738267 37,000 171 484 64
2023-01-23 07:40:16 GMT 43.787704 1.737884 37,000 171 484 0
2023-01-23 07:40:15 GMT 43.791737 1.737082 37,000 171 484 -64
2023-01-23 07:40:13 GMT 43.793831 1.736690 37,000 171 484 -64
2023-01-23 07:40:12 GMT 43.796856 1.736101 37,000 171 484 -64
2023-01-23 07:40:11 GMT 43.798965 1.735712 37,000 171 484 -64
2023-01-23 07:40:10 GMT 43.803314 1.734882 37,000 171 484 -128
2023-01-23 07:40:08 GMT 43.805466 1.734435 37,000 171 484 -128
2023-01-23 07:40:07 GMT 43.807610 1.734009 37,000 171 484 -128
2023-01-23 07:40:06 GMT 43.811783 1.733221 37,000 171 484 -128
2023-01-23 07:40:04 GMT 43.814640 1.732635 37,000 171 484 -64
2023-01-23 07:40:03 GMT 43.816967 1.732178 37,000 171 483 -64
2023-01-23 07:40:02 GMT 43.819202 1.731720 37,000 171 483 -64
2023-01-23 07:40:00 GMT 43.822769 1.731049 37,000 171 483 0
2023-01-23 07:39:59 GMT 43.825882 1.730474 37,000 171 483 0
2023-01-23 07:39:58 GMT 43.828125 1.730027 37,000 171 483 0
2023-01-23 07:39:56 GMT 43.832237 1.729235 37,000 171 483 0
2023-01-23 07:39:52 GMT 43.840851 1.727535 37,000 171 483 -64
2023-01-23 07:39:46 GMT 43.864014 1.723001 37,000 172 483 128
2023-01-23 07:39:42 GMT 43.864014 1.723001 37,000 172 483 128
2023-01-23 07:39:38 GMT 43.872318 1.721388 37,000 171 483 64
2023-01-23 07:39:36 GMT 43.877392 1.720407 37,000 171 483 0
2023-01-23 07:39:32 GMT 43.886307 1.718658 37,000 171 483 0
2023-01-23 07:39:26 GMT 43.899902 1.715975 37,000 171 483 0
2023-01-23 07:39:22 GMT 43.908417 1.714250 37,000 171 483 0
2023-01-23 07:39:18 GMT 43.916264 1.712755 37,000 171 483 64
2023-01-23 07:39:16 GMT 43.922333 1.711504 37,000 171 483 64
2023-01-23 07:39:11 GMT 43.930984 1.709843 37,000 171 483 64
2023-01-23 07:39:08 GMT 43.945499 1.706935 37,000 171 483 64
2023-01-23 07:39:05 GMT 43.945499 1.706935 37,000 171 483 0
2023-01-23 07:39:01 GMT 43.953323 1.705372 37,000 171 483 0
2023-01-23 07:38:58 GMT 43.961231 1.703731 37,000 171 484 0
2023-01-23 07:38:55 GMT 43.967796 1.702423 37,000 171 484 0
2023-01-23 07:38:51 GMT 43.976303 1.700709 37,000 171 484 -64
2023-01-23 07:38:48 GMT 43.983124 1.699368 37,000 171 484 0
2023-01-23 07:38:41 GMT 43.998615 1.696276 37,000 171 484 64
2023-01-23 07:38:38 GMT 44.005692 1.694833 37,000 171 484 64
2023-01-23 07:38:36 GMT 44.009171 1.694194 37,000 171 486 -64
2023-01-23 07:38:33 GMT 44.017654 1.692483 37,000 171 485 -64
2023-01-23 07:38:30 GMT 44.023407 1.691384 37,000 171 485 -64
2023-01-23 07:38:27 GMT 44.031807 1.689737 37,000 171 486 -64
2023-01-23 07:38:24 GMT 44.037827 1.688509 37,000 171 487 0
2023-01-23 07:38:21 GMT 44.042652 1.687578 37,000 171 487 0
2023-01-23 07:38:18 GMT 44.050941 1.685944 37,000 171 487 0
2023-01-23 07:38:16 GMT 44.054535 1.685252 37,000 171 487 0
2023-01-23 07:38:12 GMT 44.062763 1.683655 37,000 172 488 -64
2023-01-23 07:38:08 GMT 44.072617 1.681739 37,000 172 488 -128
2023-01-23 07:38:06 GMT 44.076309 1.680974 37,000 172 488 -128
2023-01-23 07:38:00 GMT 44.089718 1.678423 37,025 172 488 0
2023-01-23 07:37:58 GMT 44.095139 1.677395 37,025 172 488 -64
2023-01-23 07:37:56 GMT 44.099682 1.676527 37,025 172 488 64
2023-01-23 07:37:50 GMT 44.112030 1.674138 37,025 172 488 0
2023-01-23 07:37:48 GMT 44.122421 1.672094 37,025 172 488 -64
2023-01-23 07:37:45 GMT 44.122421 1.672094 37,025 172 488 -64
2023-01-23 07:37:42 GMT 44.130157 1.670624 37,025 172 488 0
2023-01-23 07:37:40 GMT 44.133957 1.669858 37,025 171 488 0
2023-01-23 07:37:38 GMT 44.139854 1.668679 37,025 171 488 0
2023-01-23 07:37:35 GMT 44.144650 1.667764 37,000 171 489 0
2023-01-23 07:37:31 GMT 44.155106 1.665706 37,000 171 489 128
2023-01-23 07:37:27 GMT 44.165180 1.663709 37,000 171 489 64
2023-01-23 07:37:24 GMT 44.172089 1.662321 37,000 171 489 64
2023-01-23 07:37:19 GMT 44.181007 1.660570 37,000 171 489 0
2023-01-23 07:37:17 GMT 44.187153 1.659328 37,000 171 489 0
2023-01-23 07:37:15 GMT 44.191269 1.658488 37,000 171 490 0
2023-01-23 07:37:11 GMT 44.199768 1.656859 37,000 171 489 0
2023-01-23 07:37:08 GMT 44.207748 1.655273 37,000 171 489 0
2023-01-23 07:37:05 GMT 44.213287 1.654162 37,000 171 489 64
2023-01-23 07:37:02 GMT 44.219830 1.652906 37,000 171 489 0
2023-01-23 07:36:58 GMT 44.229858 1.650892 37,000 171 489 0
2023-01-23 07:36:54 GMT 44.237427 1.649423 37,000 171 489 0
2023-01-23 07:36:50 GMT 44.246613 1.647557 37,000 171 489 0
2023-01-23 07:36:47 GMT 44.253387 1.646249 37,000 171 489 0
2023-01-23 07:36:44 GMT 44.259201 1.645072 37,000 171 490 0
2023-01-23 07:36:41 GMT 44.267406 1.643461 37,000 171 490 0
2023-01-23 07:36:37 GMT 44.275368 1.641853 37,000 171 490 0
2023-01-23 07:36:34 GMT 44.282089 1.640560 37,000 171 490 0
2023-01-23 07:36:30 GMT 44.290359 1.638906 37,000 171 490 0
2023-01-23 07:36:27 GMT 44.298248 1.637355 37,000 171 490 0
2023-01-23 07:36:24 GMT 44.305256 1.635958 37,000 171 490 -64
2023-01-23 07:36:20 GMT 44.314285 1.634149 37,000 171 490 -64
2023-01-23 07:36:17 GMT 44.320679 1.632908 37,000 171 490 -64
2023-01-23 07:36:13 GMT 44.331528 1.630750 37,000 171 489 0
2023-01-23 07:36:10 GMT 44.339100 1.629259 37,000 171 490 64
2023-01-23 07:36:07 GMT 44.342545 1.628522 37,000 171 490 128
2023-01-23 07:36:04 GMT 44.349945 1.627048 37,000 171 490 64
2023-01-23 07:36:01 GMT 44.366318 1.623753 37,000 171 490 0
2023-01-23 07:35:56 GMT 44.366318 1.623753 37,000 171 490 -64
2023-01-23 07:35:54 GMT 44.372849 1.622426 37,000 171 490 -64
2023-01-23 07:35:51 GMT 44.377808 1.621464 37,000 171 490 -64
2023-01-23 07:35:49 GMT 44.383484 1.620287 37,000 171 490 -64
2023-01-23 07:35:46 GMT 44.389236 1.619144 37,000 171 490 0
2023-01-23 07:35:42 GMT 44.399139 1.617148 37,000 171 489 64
2023-01-23 07:35:39 GMT 44.404877 1.615995 37,000 171 489 64
2023-01-23 07:35:36 GMT 44.412048 1.614532 37,000 171 489 0
2023-01-23 07:35:32 GMT 44.421158 1.612701 37,000 171 489 0
2023-01-23 07:35:30 GMT 44.426376 1.611590 37,000 171 489 0
2023-01-23 07:35:26 GMT 44.434204 1.610020 37,000 172 488 0
2023-01-23 07:35:23 GMT 44.442120 1.608425 37,000 171 489 64
2023-01-23 07:35:20 GMT 44.448029 1.607219 37,000 171 489 64
2023-01-23 07:35:16 GMT 44.457153 1.605411 37,000 171 489 -192
2023-01-23 07:35:12 GMT 44.466465 1.603535 37,000 171 489 -192
2023-01-23 07:35:10 GMT 44.471260 1.602530 37,000 171 489 0
2023-01-23 07:35:06 GMT 44.479687 1.600855 37,000 171 489 0
2023-01-23 07:35:00 GMT 44.493420 1.598109 37,000 171 488 64
2023-01-23 07:34:55 GMT 44.503380 1.596099 37,000 171 488 64
2023-01-23 07:34:51 GMT 44.512985 1.594195 37,000 172 488 0
2023-01-23 07:34:49 GMT 44.517021 1.593420 37,000 172 488 0
2023-01-23 07:34:45 GMT 44.526077 1.591644 37,000 172 488 64
2023-01-23 07:34:42 GMT 44.535641 1.589735 37,000 172 488 64
2023-01-23 07:34:37 GMT 44.545807 1.587721 37,000 172 488 0
2023-01-23 07:34:30 GMT 44.567715 1.583371 37,000 172 488 0
2023-01-23 07:34:27 GMT 44.567715 1.583371 37,000 172 488 0
2023-01-23 07:34:25 GMT 44.570984 1.582751 37,000 172 488 0
2023-01-23 07:34:22 GMT 44.579262 1.581093 37,000 172 488 -128
2023-01-23 07:34:20 GMT 44.583755 1.580266 37,000 172 488 -128
2023-01-23 07:34:17 GMT 44.590073 1.579023 37,000 172 488 -128
2023-01-23 07:34:11 GMT 44.603027 1.576473 37,000 172 488 -64
2023-01-23 07:34:09 GMT 44.607376 1.575557 37,000 172 488 -64
2023-01-23 07:34:07 GMT 44.612595 1.574576 37,000 172 488 0
2023-01-23 07:34:05 GMT 44.616875 1.573725 37,000 172 488 0
2023-01-23 07:34:02 GMT 44.624836 1.572117 37,000 171 487 64
2023-01-23 07:33:59 GMT 44.629353 1.571246 37,000 171 487 64
2023-01-23 07:33:56 GMT 44.637032 1.569705 37,000 171 487 64
2023-01-23 07:33:52 GMT 44.646622 1.567829 37,000 171 486 64
2023-01-23 07:33:50 GMT 44.651047 1.566990 37,000 171 486 64
2023-01-23 07:33:47 GMT 44.657562 1.565686 37,000 171 486 64
2023-01-23 07:33:41 GMT 44.669907 1.563263 37,000 171 485 0
2023-01-23 07:33:37 GMT 44.679859 1.561264 37,000 171 485 0
2023-01-23 07:33:31 GMT 44.692520 1.558719 37,000 171 484 0
2023-01-23 07:33:27 GMT 44.701950 1.556854 37,000 171 484 -64
2023-01-23 07:33:24 GMT 44.707932 1.555637 37,000 171 484 -64
2023-01-23 07:33:19 GMT 44.722687 1.552690 37,000 171 483 -64
2023-01-23 07:33:17 GMT 44.722687 1.552690 37,000 171 483 -64
2023-01-23 07:33:14 GMT 44.729813 1.551216 37,000 171 483 -64
2023-01-23 07:33:11 GMT 44.736652 1.549809 37,000 171 484 0
2023-01-23 07:33:06 GMT 44.746582 1.547830 37,000 171 484 0
2023-01-23 07:33:01 GMT 44.759140 1.545254 37,000 171 483 64
2023-01-23 07:32:59 GMT 44.764725 1.544115 37,000 171 483 0
2023-01-23 07:32:55 GMT 44.770889 1.542860 37,000 171 483 0
2023-01-23 07:32:53 GMT 44.775238 1.542010 37,000 171 483 0
2023-01-23 07:32:50 GMT 44.782043 1.540632 37,000 171 483 0
2023-01-23 07:32:48 GMT 44.786697 1.539694 37,000 171 483 0
2023-01-23 07:32:45 GMT 44.793449 1.538287 37,000 171 483 0
2023-01-23 07:32:41 GMT 44.808994 1.535138 37,000 171 483 0
2023-01-23 07:32:38 GMT 44.815559 1.533866 37,000 171 483 0
2023-01-23 07:32:35 GMT 44.815559 1.533866 37,000 171 483 64
2023-01-23 07:32:30 GMT 44.826637 1.531588 37,000 171 483 64
2023-01-23 07:32:27 GMT 44.832737 1.530382 37,000 171 483 0
2023-01-23 07:32:24 GMT 44.840187 1.528841 37,000 171 483 0
2023-01-23 07:32:21 GMT 44.847633 1.527368 37,000 171 483 0
2023-01-23 07:32:19 GMT 44.852058 1.526430 37,000 171 484 64
2023-01-23 07:32:16 GMT 44.859283 1.525007 37,000 171 484 64
2023-01-23 07:32:11 GMT 44.870258 1.522745 37,000 171 483 0
2023-01-23 07:32:09 GMT 44.874634 1.521874 37,000 171 484 0
2023-01-23 07:32:05 GMT 44.881943 1.520364 37,000 171 484 64
2023-01-23 07:32:02 GMT 44.889404 1.518860 37,000 171 485 0
2023-01-23 07:31:59 GMT 44.894745 1.517788 37,000 171 485 0
2023-01-23 07:31:56 GMT 44.902496 1.516179 37,000 171 484 0
2023-01-23 07:31:51 GMT 44.914295 1.513836 37,000 171 484 0
2023-01-23 07:31:49 GMT 44.916687 1.513301 37,000 171 484 0
2023-01-23 07:31:46 GMT 44.925018 1.511666 37,000 171 484 0
2023-01-23 07:31:42 GMT 44.931942 1.510218 37,000 171 485 0
2023-01-23 07:31:39 GMT 44.947441 1.507070 37,000 171 485 0
2023-01-23 07:31:36 GMT 44.947441 1.507070 37,000 171 485 0
2023-01-23 07:31:33 GMT 44.959499 1.504658 37,000 171 485 0
2023-01-23 07:31:30 GMT 44.959499 1.504658 37,000 171 485 0
2023-01-23 07:31:27 GMT 44.966263 1.503231 37,000 171 485 0
2023-01-23 07:31:23 GMT 44.974869 1.501530 37,000 171 485 0
2023-01-23 07:31:20 GMT 44.981323 1.500222 37,000 171 486 0
2023-01-23 07:31:17 GMT 44.989426 1.498522 37,000 171 486 -64
2023-01-23 07:31:13 GMT 45.003025 1.495748 37,000 171 486 0
2023-01-23 07:31:10 GMT 45.003025 1.495748 37,000 171 486 0
2023-01-23 07:31:07 GMT 45.011215 1.494075 37,000 171 486 0
2023-01-23 07:31:00 GMT 45.026768 1.490925 37,000 171 487 0
2023-01-23 07:30:57 GMT 45.033703 1.489518 37,000 171 487 0
2023-01-23 07:30:53 GMT 45.042458 1.487777 37,000 171 487 0
2023-01-23 07:30:49 GMT 45.053257 1.485566 37,000 171 487 0
2023-01-23 07:30:46 GMT 45.056561 1.484896 37,000 171 487 0
2023-01-23 07:30:42 GMT 45.065685 1.483020 38,000 171 487 0
2023-01-23 07:30:39 GMT 45.072205 1.481681 37,000 171 487 0
2023-01-23 07:30:36 GMT 45.079102 1.480277 37,000 171 487 64
2023-01-23 07:30:33 GMT 45.088623 1.478315 37,000 171 487 64
2023-01-23 07:30:29 GMT 45.095154 1.476991 37,000 171 487 0
2023-01-23 07:30:26 GMT 45.101807 1.475634 37,000 171 487 -64
2023-01-23 07:30:22 GMT 45.112099 1.473508 37,000 171 487 -64
2023-01-23 07:30:19 GMT 45.117966 1.472299 37,000 171 487 -64
2023-01-23 07:30:16 GMT 45.124878 1.470860 37,000 171 487 -64
2023-01-23 07:30:12 GMT 45.133884 1.468952 37,000 171 487 -64
2023-01-23 07:30:09 GMT 45.138912 1.467948 37,000 171 487 -64
2023-01-23 07:30:06 GMT 45.147034 1.466282 37,000 171 487 0
2023-01-23 07:30:02 GMT 45.156227 1.464330 37,000 171 487 0
2023-01-23 07:29:59 GMT 45.163010 1.462947 37,000 171 487 0
2023-01-23 07:29:56 GMT 45.169464 1.461574 37,025 171 487 0
2023-01-23 07:29:50 GMT 45.183243 1.458697 37,000 171 487 64
2023-01-23 07:29:46 GMT 45.192215 1.456800 37,000 171 487 128
2023-01-23 07:29:39 GMT 45.206692 1.453813 37,000 171 488 0
2023-01-23 07:29:36 GMT 45.214188 1.452288 37,000 171 488 -64
2023-01-23 07:29:29 GMT 45.229176 1.449190 37,000 171 489 0
2023-01-23 07:29:26 GMT 45.236160 1.447717 37,000 171 489 64
2023-01-23 07:29:20 GMT 45.250214 1.444898 37,000 171 490 0
2023-01-23 07:29:15 GMT 45.259735 1.442936 37,000 171 490 0
2023-01-23 07:29:10 GMT 45.273743 1.440059 37,000 171 491 0
2023-01-23 07:29:08 GMT 45.276985 1.439410 37,000 171 491 0
2023-01-23 07:29:05 GMT 45.282990 1.438204 37,000 171 491 0
2023-01-23 07:29:00 GMT 45.296356 1.435416 37,000 171 492 0
2023-01-23 07:28:55 GMT 45.305740 1.433520 37,000 171 492 0
2023-01-23 07:28:50 GMT 45.318100 1.430969 37,000 171 493 0
2023-01-23 07:28:46 GMT 45.326286 1.429294 37,000 171 493 64
2023-01-23 07:28:44 GMT 45.329498 1.428615 37,000 171 493 64
2023-01-23 07:28:39 GMT 45.341263 1.426195 37,000 171 493 0
2023-01-23 07:28:37 GMT 45.346573 1.425084 37,000 171 493 0
2023-01-23 07:28:34 GMT 45.353287 1.423667 37,000 171 493 0
2023-01-23 07:28:28 GMT 45.364609 1.421291 37,000 171 493 0
2023-01-23 07:28:25 GMT 45.373627 1.419460 37,000 171 493 0
2023-01-23 07:28:23 GMT 45.377399 1.418643 37,000 171 493 -64
2023-01-23 07:28:19 GMT 45.386478 1.416767 37,000 171 493 -64
2023-01-23 07:28:15 GMT 45.400681 1.413836 37,000 171 493 0
2023-01-23 07:28:13 GMT 45.400681 1.413836 37,000 171 493 0
2023-01-23 07:28:09 GMT 45.408783 1.412201 37,000 171 493 0
2023-01-23 07:28:06 GMT 45.418350 1.410239 37,000 171 493 64
2023-01-23 07:28:03 GMT 45.423615 1.409193 37,000 171 493 64
2023-01-23 07:27:59 GMT 45.431351 1.407623 37,000 171 493 64
2023-01-23 07:27:55 GMT 45.441593 1.405513 37,000 171 493 0
2023-01-23 07:27:52 GMT 45.447235 1.404419 37,000 171 493 -64
2023-01-23 07:27:48 GMT 45.457214 1.402392 37,000 171 492 -64
2023-01-23 07:27:44 GMT 45.464859 1.400888 37,000 171 492 -64
2023-01-23 07:27:41 GMT 45.471806 1.399484 37,000 171 492 0
2023-01-23 07:27:35 GMT 45.488937 1.396001 37,000 171 492 0
2023-01-23 07:27:31 GMT 45.494522 1.394862 37,000 171 492 0
2023-01-23 07:27:28 GMT 45.502487 1.393236 37,000 171 492 64
2023-01-23 07:27:26 GMT 45.505325 1.392648 37,000 171 492 64
2023-01-23 07:27:23 GMT 45.512970 1.391078 37,000 171 492 0
2023-01-23 07:27:18 GMT 45.524460 1.388699 37,000 171 492 0
2023-01-23 07:27:15 GMT 45.531300 1.387292 37,000 171 492 0
2023-01-23 07:27:13 GMT 45.536087 1.386305 37,000 171 492 0
2023-01-23 07:27:08 GMT 45.546989 1.384071 37,000 171 492 0
2023-01-23 07:27:04 GMT 45.555882 1.382217 37,000 171 491 -64
2023-01-23 07:26:58 GMT 45.569332 1.379471 37,000 171 491 -64
2023-01-23 07:26:54 GMT 45.579025 1.377444 37,000 171 491 0
2023-01-23 07:26:50 GMT 45.588886 1.375420 37,000 171 490 64
2023-01-23 07:26:46 GMT 45.595821 1.373978 37,000 171 490 64
2023-01-23 07:26:43 GMT 45.612534 1.370477 37,000 171 489 0
2023-01-23 07:26:39 GMT 45.612534 1.370477 37,000 171 490 0
2023-01-23 07:26:33 GMT 45.625900 1.367731 37,000 171 489 0
2023-01-23 07:26:29 GMT 45.633808 1.366013 37,000 171 489 0
2023-01-23 07:26:26 GMT 45.641117 1.364502 37,000 171 489 0
2023-01-23 07:26:23 GMT 45.646683 1.363310 37,000 171 489 0
2023-01-23 07:26:18 GMT 45.657970 1.360931 37,000 171 488 64
2023-01-23 07:26:16 GMT 45.669708 1.358486 37,000 171 488 64
2023-01-23 07:26:13 GMT 45.669708 1.358486 37,000 171 488 0
2023-01-23 07:26:08 GMT 45.681427 1.356008 37,000 171 488 -64
2023-01-23 07:26:06 GMT 45.685715 1.355095 37,000 171 488 0
2023-01-23 07:26:02 GMT 45.693489 1.353447 37,000 171 488 0
2023-01-23 07:25:58 GMT 45.703400 1.351385 37,000 171 487 0
2023-01-23 07:25:56 GMT 45.708755 1.350247 37,000 171 487 64
2023-01-23 07:25:52 GMT 45.716583 1.348572 37,000 171 487 64
2023-01-23 07:25:47 GMT 45.727249 1.346361 37,000 171 487 0
2023-01-23 07:25:45 GMT 45.732742 1.345222 37,000 171 487 0
2023-01-23 07:25:42 GMT 45.738552 1.343971 37,000 171 486 0
2023-01-23 07:25:37 GMT 45.749584 1.341705 37,000 171 486 0
2023-01-23 07:25:35 GMT 45.754669 1.340600 37,000 171 486 64
2023-01-23 07:25:32 GMT 45.761456 1.339165 37,000 171 486 0
2023-01-23 07:25:28 GMT 45.770065 1.337379 37,000 171 486 0
2023-01-23 07:25:26 GMT 45.775497 1.336246 37,000 171 486 0
2023-01-23 07:25:22 GMT 45.783428 1.334633 37,000 171 486 0
2023-01-23 07:25:18 GMT 45.792526 1.332695 37,000 171 486 -64
2023-01-23 07:25:14 GMT 45.801304 1.330925 37,000 171 486 -64
2023-01-23 07:25:11 GMT 45.806705 1.329758 37,000 171 486 -64
2023-01-23 07:25:08 GMT 45.815460 1.327939 37,000 171 486 0
2023-01-23 07:25:04 GMT 45.824249 1.326130 37,000 171 486 0
2023-01-23 07:25:01 GMT 45.830864 1.324745 37,000 171 486 -64
2023-01-23 07:24:58 GMT 45.837708 1.323303 37,000 171 486 -64
2023-01-23 07:24:53 GMT 45.858444 1.319029 37,000 171 486 0
2023-01-23 07:24:49 GMT 45.863342 1.318024 37,000 171 486 0
2023-01-23 07:24:44 GMT 45.868244 1.316986 37,000 171 486 0
2023-01-23 07:24:41 GMT 45.874855 1.315613 37,000 171 486 0
2023-01-23 07:24:37 GMT 45.882935 1.313938 37,000 171 486 0
2023-01-23 07:24:34 GMT 45.889664 1.312531 37,000 171 486 0
2023-01-23 07:24:31 GMT 45.897713 1.310806 37,000 171 486 0
2023-01-23 07:24:28 GMT 45.904495 1.309383 37,000 171 487 0
2023-01-23 07:24:25 GMT 45.909988 1.308244 37,000 171 487 0
2023-01-23 07:24:21 GMT 45.918709 1.306412 37,000 171 487 0
2023-01-23 07:24:18 GMT 45.927181 1.304626 37,000 171 487 0
2023-01-23 07:24:15 GMT 45.932999 1.303459 37,000 171 487 64
2023-01-23 07:24:12 GMT 45.939743 1.302014 37,000 171 487 64
2023-01-23 07:24:08 GMT 45.948761 1.300138 37,000 171 487 64
2023-01-23 07:24:05 GMT 45.954529 1.298932 37,000 171 487 0
2023-01-23 07:24:01 GMT 45.962608 1.297279 37,000 171 487 0
2023-01-23 07:23:58 GMT 45.970428 1.295700 37,000 171 487 0
2023-01-23 07:23:55 GMT 45.977509 1.294176 37,000 171 487 0
2023-01-23 07:23:51 GMT 45.985325 1.292542 37,000 171 487 0
2023-01-23 07:23:47 GMT 45.995178 1.290492 37,000 171 488 0
2023-01-23 07:23:44 GMT 46.000488 1.289353 37,000 171 488 0
2023-01-23 07:23:41 GMT 46.007217 1.287946 37,000 171 488 0
2023-01-23 07:23:37 GMT 46.017426 1.285802 37,000 171 488 -64
2023-01-23 07:23:35 GMT 46.022381 1.284782 37,000 171 488 0
2023-01-23 07:23:32 GMT 46.029270 1.283340 37,000 171 488 0
2023-01-23 07:23:27 GMT 46.040302 1.281006 37,000 171 488 64
2023-01-23 07:23:24 GMT 46.047005 1.279633 37,000 171 488 0
2023-01-23 07:23:21 GMT 46.052811 1.278433 37,000 171 488 -64
2023-01-23 07:23:18 GMT 46.058441 1.277228 37,000 171 489 -64
2023-01-23 07:23:15 GMT 46.066883 1.275444 37,000 171 489 -64
2023-01-23 07:23:11 GMT 46.075729 1.273590 37,000 171 489 0
2023-01-23 07:23:07 GMT 46.084854 1.271667 37,000 171 489 0
2023-01-23 07:23:01 GMT 46.097889 1.268990 37,000 171 489 -64
2023-01-23 07:22:57 GMT 46.108063 1.266844 37,000 171 489 0
2023-01-23 07:22:54 GMT 46.112778 1.265839 37,000 171 489 64
2023-01-23 07:22:51 GMT 46.120560 1.264252 37,000 171 489 64
2023-01-23 07:22:48 GMT 46.125870 1.263093 37,000 171 489 0
2023-01-23 07:22:45 GMT 46.135036 1.261162 37,000 171 489 0
2023-01-23 07:22:41 GMT 46.142532 1.259609 37,000 171 489 0
2023-01-23 07:22:36 GMT 46.153145 1.257385 37,000 171 489 0
2023-01-23 07:22:32 GMT 46.163479 1.255188 37,000 171 489 0
2023-01-23 07:22:26 GMT 46.176361 1.252441 37,000 171 489 -64
2023-01-23 07:22:23 GMT 46.188431 1.249901 37,000 171 489 0
2023-01-23 07:22:20 GMT 46.188431 1.249901 37,000 171 489 0
2023-01-23 07:22:17 GMT 46.195770 1.248355 37,000 171 489 0
2023-01-23 07:22:14 GMT 46.202213 1.246948 37,000 171 489 0
2023-01-23 07:22:11 GMT 46.210602 1.245140 37,000 171 489 0
2023-01-23 07:22:07 GMT 46.224743 1.242073 37,000 171 489 0
2023-01-23 07:22:04 GMT 46.234909 1.239914 37,000 171 489 0
2023-01-23 07:21:59 GMT 46.234909 1.239914 37,000 171 489 0
2023-01-23 07:21:55 GMT 46.243790 1.237972 37,000 171 489 0
2023-01-23 07:21:52 GMT 46.252716 1.236096 37,000 171 489 0
2023-01-23 07:21:49 GMT 46.257561 1.235069 37,000 171 489 0
2023-01-23 07:21:44 GMT 46.269852 1.232460 37,000 171 489 0
2023-01-23 07:21:40 GMT 46.278580 1.230670 37,000 171 489 0
2023-01-23 07:21:37 GMT 46.287773 1.228752 37,000 171 489 0
2023-01-23 07:21:34 GMT 46.292522 1.227722 37,000 171 489 0
2023-01-23 07:21:30 GMT 46.301239 1.225913 37,000 171 489 0
2023-01-23 07:21:25 GMT 46.311356 1.223770 37,000 171 489 0
2023-01-23 07:21:22 GMT 46.318085 1.222363 37,000 171 488 64
2023-01-23 07:21:19 GMT 46.325958 1.220621 37,000 171 488 0
2023-01-23 07:21:14 GMT 46.337074 1.218246 37,000 171 488 64
2023-01-23 07:21:10 GMT 46.346199 1.216255 37,000 171 488 0
2023-01-23 07:21:05 GMT 46.357368 1.213852 37,000 171 488 0
2023-01-23 07:21:01 GMT 46.368896 1.211377 37,000 171 488 0
2023-01-23 07:20:56 GMT 46.378925 1.209183 37,000 171 489 0
2023-01-23 07:20:53 GMT 46.383362 1.208228 37,000 171 488 -64
2023-01-23 07:20:50 GMT 46.391876 1.206352 37,000 171 488 -64
2023-01-23 07:20:46 GMT 46.410023 1.202454 37,000 171 489 64
2023-01-23 07:20:42 GMT 46.410023 1.202454 37,000 171 489 0
2023-01-23 07:20:38 GMT 46.416550 1.201060 37,000 171 489 0
2023-01-23 07:20:34 GMT 46.428177 1.198540 37,000 171 489 0
2023-01-23 07:20:29 GMT 46.438934 1.196170 37,000 171 488 0
2023-01-23 07:20:25 GMT 46.447868 1.194214 37,000 171 488 0
2023-01-23 07:20:21 GMT 46.461548 1.191280 37,000 171 488 0
2023-01-23 07:20:18 GMT 46.461548 1.191280 37,000 171 488 0
2023-01-23 07:20:14 GMT 46.470886 1.189203 37,000 171 488 64
2023-01-23 07:20:11 GMT 46.477196 1.187828 37,000 171 488 64
2023-01-23 07:20:08 GMT 46.484390 1.186255 37,000 171 489 64
2023-01-23 07:20:03 GMT 46.495678 1.183846 37,000 171 489 0
2023-01-23 07:19:59 GMT 46.505405 1.181717 37,000 171 489 0
2023-01-23 07:19:53 GMT 46.517899 1.179021 37,000 171 489 0
2023-01-23 07:19:49 GMT 46.527378 1.176910 37,000 171 489 0
2023-01-23 07:19:47 GMT 46.540283 1.174130 37,000 171 489 0
2023-01-23 07:19:43 GMT 46.540283 1.174130 37,000 171 489 0
2023-01-23 07:19:39 GMT 46.550079 1.171987 37,000 171 489 -64
2023-01-23 07:19:36 GMT 46.557358 1.170379 37,000 171 489 -64
2023-01-23 07:19:33 GMT 46.562618 1.169220 37,000 171 489 0
2023-01-23 07:19:30 GMT 46.576538 1.166159 37,000 171 488 0
2023-01-23 07:19:27 GMT 46.576538 1.166159 37,000 171 488 0
2023-01-23 07:19:23 GMT 46.585464 1.164216 37,000 171 488 0
2023-01-23 07:19:18 GMT 46.594894 1.162072 37,000 171 489 64
2023-01-23 07:19:16 GMT 46.599300 1.161118 37,000 171 488 0
2023-01-23 07:19:13 GMT 46.607590 1.159264 37,000 171 489 64
2023-01-23 07:19:10 GMT 46.613342 1.157986 37,000 171 489 64
2023-01-23 07:19:08 GMT 46.616821 1.157249 37,000 171 489 64
2023-01-23 07:19:04 GMT 46.628910 1.154526 37,000 171 489 64
2023-01-23 07:19:00 GMT 46.636265 1.152946 37,000 171 490 64
2023-01-23 07:18:56 GMT 46.643555 1.151354 37,000 171 490 0
2023-01-23 07:18:53 GMT 46.652466 1.149445 37,000 171 490 -64
2023-01-23 07:18:50 GMT 46.657654 1.148339 37,000 171 491 0
2023-01-23 07:18:46 GMT 46.675041 1.144569 37,000 171 491 0
2023-01-23 07:18:43 GMT 46.675041 1.144569 37,000 171 491 0
2023-01-23 07:18:40 GMT 46.681320 1.143248 37,000 171 491 -64
2023-01-23 07:18:37 GMT 46.688217 1.141754 37,000 171 491 0
2023-01-23 07:18:33 GMT 46.697021 1.139899 37,000 171 492 64
2023-01-23 07:18:30 GMT 46.703522 1.138559 37,000 171 492 0
2023-01-23 07:18:26 GMT 46.712402 1.136683 37,000 171 492 0
2023-01-23 07:18:23 GMT 46.721783 1.134682 37,000 171 492 0
2023-01-23 07:18:20 GMT 46.726715 1.133652 37,000 171 493 -64
2023-01-23 07:18:16 GMT 46.734100 1.132128 37,000 171 493 -64
2023-01-23 07:18:13 GMT 46.742569 1.130386 37,000 171 494 0
2023-01-23 07:18:10 GMT 46.749481 1.128914 37,000 171 494 0
2023-01-23 07:18:06 GMT 46.763443 1.125965 37,000 171 495 64
2023-01-23 07:18:00 GMT 46.772755 1.124039 37,000 171 495 0
2023-01-23 07:17:54 GMT 46.783951 1.121677 37,000 171 496 0
2023-01-23 07:17:50 GMT 46.794250 1.119467 37,000 171 496 -64
2023-01-23 07:17:47 GMT 46.800751 1.118060 37,000 171 496 -64
2023-01-23 07:17:44 GMT 46.806927 1.116760 37,000 171 496 -64
2023-01-23 07:17:40 GMT 46.817261 1.114494 37,000 171 496 0
2023-01-23 07:17:36 GMT 46.825516 1.112701 37,000 171 496 0
2023-01-23 07:17:32 GMT 46.834442 1.110758 37,000 171 496 0
2023-01-23 07:17:29 GMT 46.840771 1.109413 37,000 171 496 0
2023-01-23 07:17:26 GMT 46.847809 1.107877 37,000 171 496 0
2023-01-23 07:17:23 GMT 46.854721 1.106337 37,000 171 496 0
2023-01-23 07:17:20 GMT 46.862881 1.104607 37,000 171 496 0
2023-01-23 07:17:16 GMT 46.870468 1.102959 37,000 171 496 64
2023-01-23 07:17:12 GMT 46.879917 1.100886 37,000 171 496 64
2023-01-23 07:17:09 GMT 46.885925 1.099619 37,000 171 496 -64
2023-01-23 07:17:05 GMT 46.903053 1.095886 37,000 171 496 -64
2023-01-23 07:17:02 GMT 46.903053 1.095886 37,000 171 496 -64
2023-01-23 07:16:59 GMT 46.909195 1.094513 37,000 171 496 -64
2023-01-23 07:16:54 GMT 46.921120 1.091872 37,000 171 496 0
2023-01-23 07:16:51 GMT 46.928425 1.090252 37,000 171 496 64
2023-01-23 07:16:47 GMT 46.938480 1.088069 37,000 171 497 64
2023-01-23 07:16:44 GMT 46.944439 1.086801 37,000 171 497 -64
2023-01-23 07:16:41 GMT 46.949234 1.085745 37,000 171 497 0
2023-01-23 07:16:38 GMT 46.956070 1.084213 37,000 171 497 -64
2023-01-23 07:16:35 GMT 46.964676 1.082291 37,000 171 497 -64
2023-01-23 07:16:32 GMT 46.971451 1.080780 37,000 171 497 -64
2023-01-23 07:16:29 GMT 46.977310 1.079475 37,000 171 497 -64
2023-01-23 07:16:24 GMT 46.989689 1.076731 37,000 171 497 0
2023-01-23 07:16:19 GMT 47.000629 1.074266 37,000 171 497 0
2023-01-23 07:16:16 GMT 47.006790 1.072884 37,000 171 496 64
2023-01-23 07:16:12 GMT 47.017593 1.070480 37,000 171 496 64
2023-01-23 07:16:07 GMT 47.028233 1.068068 37,000 171 496 64
2023-01-23 07:16:04 GMT 47.037220 1.066026 37,000 171 497 0
2023-01-23 07:15:59 GMT 47.046524 1.063889 37,000 171 498 -64
2023-01-23 07:15:56 GMT 47.052795 1.062584 37,000 172 499 0
2023-01-23 07:15:51 GMT 47.063232 1.060593 37,000 174 500 64
2023-01-23 07:15:48 GMT 47.070648 1.059494 37,000 175 502 -64
2023-01-23 07:15:45 GMT 47.076740 1.058702 37,000 175 502 -64
2023-01-23 07:15:42 GMT 47.086098 1.057716 37,000 177 503 -64
2023-01-23 07:15:38 GMT 47.092896 1.057228 37,000 178 505 -64
2023-01-23 07:15:33 GMT 47.105667 1.056816 37,000 181 507 0
2023-01-23 07:15:29 GMT 47.123386 1.057082 37,000 181 507 0
2023-01-23 07:15:24 GMT 47.125668 1.057152 37,000 181 507 64
2023-01-23 07:15:21 GMT 47.132931 1.057293 37,000 181 507 0
2023-01-23 07:15:18 GMT 47.149689 1.057645 37,000 181 507 0
2023-01-23 07:15:15 GMT 47.149689 1.057645 37,000 181 507 0
2023-01-23 07:15:11 GMT 47.157043 1.057786 37,000 181 507 0
2023-01-23 07:15:07 GMT 47.166367 1.057983 37,000 181 507 0
2023-01-23 07:15:04 GMT 47.174129 1.058138 37,000 181 507 0
2023-01-23 07:15:01 GMT 47.180878 1.058258 37,000 181 507 0
2023-01-23 07:14:57 GMT 47.190609 1.058490 37,000 181 507 0
2023-01-23 07:14:54 GMT 47.197815 1.058670 37,000 181 507 0
2023-01-23 07:14:50 GMT 47.205093 1.058876 37,000 181 507 0
2023-01-23 07:14:47 GMT 47.212254 1.058983 37,000 181 507 0
2023-01-23 07:14:44 GMT 47.219658 1.059195 37,000 181 507 0
2023-01-23 07:14:41 GMT 47.227982 1.059357 37,000 181 507 0
2023-01-23 07:14:38 GMT 47.234756 1.059563 37,000 181 507 0
2023-01-23 07:14:35 GMT 47.241631 1.059688 37,000 181 507 0
2023-01-23 07:14:30 GMT 47.252850 1.059969 37,000 182 507 0
2023-01-23 07:14:27 GMT 47.259228 1.060110 37,000 182 507 0
2023-01-23 07:14:24 GMT 47.266441 1.060322 37,000 182 507 0
2023-01-23 07:14:20 GMT 47.277512 1.060661 37,000 182 507 0
2023-01-23 07:14:17 GMT 47.289459 1.061005 37,000 182 507 0
2023-01-23 07:14:14 GMT 47.289459 1.061005 37,000 182 507 0
2023-01-23 07:14:08 GMT 47.306385 1.061448 37,000 181 507 0
2023-01-23 07:14:05 GMT 47.313446 1.061554 37,000 181 507 0
2023-01-23 07:14:00 GMT 47.323235 1.061800 37,000 181 507 0
2023-01-23 07:13:57 GMT 47.330566 1.061966 37,000 181 508 0
2023-01-23 07:13:53 GMT 47.338596 1.062153 37,000 173 501 0
2023-01-23 07:13:49 GMT 47.349213 1.062434 37,000 182 508 -64
2023-01-23 07:13:46 GMT 47.354099 1.062575 37,000 182 508 0
2023-01-23 07:13:43 GMT 47.362202 1.062786 37,000 182 508 -64
2023-01-23 07:13:40 GMT 47.370953 1.062998 37,000 181 507 -64
2023-01-23 07:13:36 GMT 47.377991 1.062996 37,000 179 506 0
2023-01-23 07:13:34 GMT 47.383846 1.062857 37,000 178 505 0
2023-01-23 07:13:30 GMT 47.394241 1.062309 37,000 176 503 0
2023-01-23 07:13:27 GMT 47.403584 1.061448 37,000 175 502 0
2023-01-23 07:13:24 GMT 47.408112 1.060867 37,000 174 502 0
2023-01-23 07:13:17 GMT 47.423950 1.058464 37,000 172 499 0
2023-01-23 07:13:13 GMT 47.432030 1.056871 37,000 171 498 0
2023-01-23 07:13:07 GMT 47.447159 1.053138 37,000 168 496 -64
2023-01-23 07:13:03 GMT 47.455307 1.050774 37,000 167 494 -64
2023-01-23 07:13:00 GMT 47.463089 1.048302 37,000 166 493 0
2023-01-23 07:12:56 GMT 47.469910 1.045898 37,000 165 490 64
2023-01-23 07:12:53 GMT 47.476730 1.043289 37,000 165 490 64
2023-01-23 07:12:49 GMT 47.486916 1.039053 37,000 163 488 0
2023-01-23 07:12:44 GMT 47.497993 1.034194 37,000 163 489 0
2023-01-23 07:12:40 GMT 47.506302 1.030518 37,000 163 488 0
2023-01-23 07:12:37 GMT 47.512802 1.027634 37,000 163 488 0
2023-01-23 07:12:34 GMT 47.519405 1.024757 37,000 163 488 0
2023-01-23 07:12:32 GMT 47.521957 1.023582 37,000 163 488 64
2023-01-23 07:12:29 GMT 47.529465 1.020287 37,000 163 488 64
2023-01-23 07:12:26 GMT 47.536072 1.017362 37,000 163 489 0
2023-01-23 07:12:23 GMT 47.542191 1.014656 37,000 163 489 0
2023-01-23 07:12:19 GMT 47.550613 1.010880 37,000 163 489 0
2023-01-23 07:12:16 GMT 47.556885 1.008133 37,000 163 489 -64
2023-01-23 07:12:12 GMT 47.565495 1.004333 37,000 163 489 0
2023-01-23 07:12:09 GMT 47.573044 1.000992 37,000 163 489 0
2023-01-23 07:12:06 GMT 47.578762 0.998418 37,000 163 489 0
2023-01-23 07:12:03 GMT 47.586411 0.995087 37,000 163 489 0
2023-01-23 07:11:59 GMT 47.595291 0.991173 37,000 163 489 0
2023-01-23 07:11:56 GMT 47.600784 0.988701 37,000 163 489 0
2023-01-23 07:11:53 GMT 47.608463 0.985319 37,000 163 489 0
2023-01-23 07:11:50 GMT 47.616001 0.982009 37,000 163 489 0
2023-01-23 07:11:46 GMT 47.622482 0.979088 37,000 163 489 0
2023-01-23 07:11:42 GMT 47.631134 0.975243 37,000 163 490 0
2023-01-23 07:11:38 GMT 47.642212 0.970318 37,000 163 489 64
2023-01-23 07:11:35 GMT 47.646496 0.968417 37,000 163 490 0
2023-01-23 07:11:32 GMT 47.656677 0.963913 37,000 163 490 0
2023-01-23 07:11:30 GMT 47.662228 0.961445 37,000 163 490 0
2023-01-23 07:11:28 GMT 47.662228 0.961445 37,000 163 490 0
2023-01-23 07:11:25 GMT 47.666977 0.959332 37,000 163 490 0
2023-01-23 07:11:22 GMT 47.675262 0.955605 37,000 163 490 -64
2023-01-23 07:11:19 GMT 47.688393 0.949824 37,000 163 490 -64
2023-01-23 07:11:16 GMT 47.688393 0.949824 37,000 163 490 0
2023-01-23 07:11:12 GMT 47.698120 0.945528 37,000 163 491 0
2023-01-23 07:11:08 GMT 47.712982 0.938988 37,000 163 491 0
2023-01-23 07:11:05 GMT 47.712982 0.938988 37,000 163 491 0
2023-01-23 07:11:01 GMT 47.720512 0.935669 37,000 163 491 0
2023-01-23 07:10:58 GMT 47.726852 0.932808 37,000 163 491 0
2023-01-23 07:10:54 GMT 47.734619 0.929401 37,000 163 491 0
2023-01-23 07:10:52 GMT 47.740494 0.926765 37,000 163 491 0
2023-01-23 07:10:50 GMT 47.744659 0.924911 37,000 163 491 0
2023-01-23 07:10:48 GMT 47.755150 0.920316 37,000 163 491 0
2023-01-23 07:10:45 GMT 47.755150 0.920316 37,000 163 491 -64
2023-01-23 07:10:42 GMT 47.761642 0.917427 37,000 163 491 -64
2023-01-23 07:10:38 GMT 47.770157 0.913651 37,000 163 491 0
2023-01-23 07:10:35 GMT 47.776516 0.910809 37,000 163 490 64
2023-01-23 07:10:29 GMT 47.791443 0.904175 37,000 163 490 0
2023-01-23 07:10:25 GMT 47.799088 0.900742 37,000 163 490 0
2023-01-23 07:10:21 GMT 47.807831 0.896828 37,000 163 490 0
2023-01-23 07:10:18 GMT 47.816162 0.893120 37,000 163 490 0
2023-01-23 07:10:14 GMT 47.823898 0.889618 37,000 163 490 64
2023-01-23 07:10:10 GMT 47.830795 0.886512 37,000 163 491 0
2023-01-23 07:10:07 GMT 47.837036 0.883713 37,000 163 491 -64
2023-01-23 07:10:05 GMT 47.842346 0.881310 37,000 163 490 0
2023-01-23 07:10:01 GMT 47.850067 0.877850 37,000 163 490 0
2023-01-23 07:09:59 GMT 47.853886 0.876160 37,000 163 490 0
2023-01-23 07:09:56 GMT 47.869015 0.869328 37,000 163 490 0
2023-01-23 07:09:52 GMT 47.869015 0.869328 37,000 163 490 0
2023-01-23 07:09:49 GMT 47.875351 0.866478 37,000 163 490 64
2023-01-23 07:09:46 GMT 47.882004 0.863483 37,000 163 490 64
2023-01-23 07:09:43 GMT 47.889404 0.860161 37,000 163 491 0
2023-01-23 07:09:39 GMT 47.898468 0.856110 37,000 163 491 0
2023-01-23 07:09:36 GMT 47.903881 0.853624 37,000 163 490 -64
2023-01-23 07:09:33 GMT 47.910690 0.850616 37,000 163 491 -64
2023-01-23 07:09:26 GMT 47.925659 0.843887 37,000 163 490 -64
2023-01-23 07:09:23 GMT 47.933075 0.840591 37,000 163 491 0
2023-01-23 07:09:19 GMT 47.942616 0.836299 37,000 163 491 0
2023-01-23 07:09:16 GMT 47.949039 0.833412 37,000 163 491 0
2023-01-23 07:09:13 GMT 47.954346 0.831017 37,000 163 491 0
2023-01-23 07:09:07 GMT 47.970592 0.823763 37,000 163 491 0
2023-01-23 07:09:03 GMT 47.976288 0.821159 37,000 163 492 0
2023-01-23 07:09:00 GMT 47.982044 0.818552 37,000 163 491 0
2023-01-23 07:08:56 GMT 47.990795 0.814608 37,000 163 492 0
2023-01-23 07:08:53 GMT 47.998474 0.811157 37,000 163 492 0
2023-01-23 07:08:50 GMT 48.004295 0.808551 37,000 163 492 -64
2023-01-23 07:08:46 GMT 48.014648 0.803856 37,000 163 492 -64
2023-01-23 07:08:43 GMT 48.020279 0.801315 37,000 163 491 -64
2023-01-23 07:08:40 GMT 48.025570 0.798974 37,000 163 491 0
2023-01-23 07:08:37 GMT 48.033390 0.795452 37,000 163 491 0
2023-01-23 07:08:34 GMT 48.047497 0.789044 37,000 163 491 64
2023-01-23 07:08:31 GMT 48.047497 0.789044 37,000 163 491 0
2023-01-23 07:08:25 GMT 48.060745 0.783119 37,000 163 491 0
2023-01-23 07:08:23 GMT 48.064087 0.781609 37,000 163 491 -64
2023-01-23 07:08:20 GMT 48.076591 0.776015 37,000 163 491 64
2023-01-23 07:08:17 GMT 48.076591 0.776015 37,000 163 491 64
2023-01-23 07:08:13 GMT 48.086014 0.771790 37,000 163 491 64
2023-01-23 07:08:10 GMT 48.092743 0.768837 37,000 163 491 64
2023-01-23 07:08:06 GMT 48.101311 0.764958 37,000 163 491 0
2023-01-23 07:08:03 GMT 48.106758 0.762493 37,000 163 491 0
2023-01-23 07:08:00 GMT 48.113087 0.759676 37,000 163 491 -64
2023-01-23 07:07:58 GMT 48.116116 0.758338 37,000 163 491 -64
2023-01-23 07:07:56 GMT 48.128033 0.752986 37,000 163 491 -64
2023-01-23 07:07:53 GMT 48.140461 0.747422 37,000 163 490 -64
2023-01-23 07:07:48 GMT 48.140461 0.747422 37,000 163 489 0
2023-01-23 07:07:44 GMT 48.149025 0.743619 37,000 163 489 0
2023-01-23 07:07:41 GMT 48.154518 0.741155 37,000 163 490 64
2023-01-23 07:07:36 GMT 48.165367 0.736229 37,000 163 490 64
2023-01-23 07:07:33 GMT 48.171890 0.733337 37,000 163 490 64
2023-01-23 07:07:29 GMT 48.179935 0.729651 37,000 163 490 64
2023-01-23 07:07:27 GMT 48.186268 0.726832 37,000 163 490 64
2023-01-23 07:07:23 GMT 48.192646 0.723941 37,000 163 490 64
2023-01-23 07:07:21 GMT 48.197861 0.721556 37,000 163 488 0
2023-01-23 07:07:18 GMT 48.205353 0.718196 37,000 163 488 -64
2023-01-23 07:07:15 GMT 48.214760 0.713967 37,000 163 488 -64
2023-01-23 07:07:13 GMT 48.219589 0.711787 37,000 163 488 -64
2023-01-23 07:07:11 GMT 48.219589 0.711787 37,000 163 488 -64
2023-01-23 07:07:06 GMT 48.237534 0.703688 37,000 163 487 64
2023-01-23 07:07:03 GMT 48.237534 0.703688 37,000 163 487 0
2023-01-23 07:06:59 GMT 48.245682 0.700026 37,000 163 487 64
2023-01-23 07:06:54 GMT 48.255398 0.695608 37,000 163 487 64
2023-01-23 07:06:50 GMT 48.279510 0.684766 37,000 163 487 64
2023-01-23 07:06:44 GMT 48.279510 0.684766 37,000 163 487 64
2023-01-23 07:06:41 GMT 48.283630 0.682843 37,000 163 487 0
2023-01-23 07:06:38 GMT 48.289566 0.680213 37,000 163 486 0
2023-01-23 07:06:36 GMT 48.293476 0.678406 37,000 163 487 0
2023-01-23 07:06:34 GMT 48.299149 0.675870 37,000 163 487 0
2023-01-23 07:06:31 GMT 48.304733 0.673335 37,000 163 487 0
2023-01-23 07:06:28 GMT 48.312057 0.670025 37,000 163 487 0
2023-01-23 07:06:25 GMT 48.320801 0.666011 37,000 163 487 0
2023-01-23 07:06:22 GMT 48.326019 0.663687 37,000 163 486 -64
2023-01-23 07:06:19 GMT 48.333435 0.660236 37,000 163 486 -64
2023-01-23 07:06:14 GMT 48.347294 0.653903 37,000 163 486 -64
2023-01-23 07:06:12 GMT 48.347294 0.653903 37,000 163 486 0
2023-01-23 07:06:07 GMT 48.356689 0.649602 37,000 163 486 0
2023-01-23 07:06:04 GMT 48.364052 0.646242 37,000 163 486 0
2023-01-23 07:06:01 GMT 48.372009 0.642556 37,000 163 486 0
2023-01-23 07:05:57 GMT 48.379414 0.639159 37,000 163 486 -64
2023-01-23 07:05:53 GMT 48.388596 0.634953 37,000 163 486 0
2023-01-23 07:05:51 GMT 48.392403 0.633232 37,000 163 484 -64
2023-01-23 07:05:48 GMT 48.397896 0.630702 37,000 163 485 -64
2023-01-23 07:05:46 GMT 48.403198 0.628263 37,000 163 484 -64
2023-01-23 07:05:42 GMT 48.411346 0.624558 37,000 163 484 0
2023-01-23 07:05:40 GMT 48.414791 0.622968 37,000 163 484 0
2023-01-23 07:05:36 GMT 48.423546 0.618993 37,000 163 484 0
2023-01-23 07:05:33 GMT 48.431900 0.615164 37,000 163 484 64
2023-01-23 07:05:31 GMT 48.435516 0.613544 37,000 163 485 64
2023-01-23 07:05:27 GMT 48.444122 0.609597 37,000 163 484 0
2023-01-23 07:05:24 GMT 48.451584 0.606150 37,000 163 484 0
2023-01-23 07:05:21 GMT 48.456070 0.604107 37,000 163 484 0
2023-01-23 07:05:17 GMT 48.464264 0.600375 37,000 163 484 0
2023-01-23 07:05:14 GMT 48.475021 0.595445 37,000 163 484 0
2023-01-23 07:05:10 GMT 48.481476 0.592487 37,000 163 484 0
2023-01-23 07:05:08 GMT 48.487061 0.589952 37,000 162 485 0
2023-01-23 07:05:02 GMT 48.497284 0.585239 37,000 163 484 0
2023-01-23 07:05:00 GMT 48.501526 0.583332 37,000 163 484 64
2023-01-23 07:04:57 GMT 48.508690 0.580035 37,000 163 484 0
2023-01-23 07:04:53 GMT 48.515018 0.577144 37,000 163 484 0
2023-01-23 07:04:51 GMT 48.520477 0.574599 37,000 163 484 64
2023-01-23 07:04:49 GMT 48.524734 0.572627 37,000 163 483 0
2023-01-23 07:04:42 GMT 48.543465 0.564061 37,000 162 484 0
2023-01-23 07:04:34 GMT 48.561768 0.555655 37,000 163 484 0
2023-01-23 07:04:32 GMT 48.561768 0.555655 37,000 163 484 0
2023-01-23 07:04:29 GMT 48.567249 0.553147 37,000 163 484 0
2023-01-23 07:04:27 GMT 48.573257 0.550373 37,000 163 484 0
2023-01-23 07:04:24 GMT 48.577469 0.548471 37,000 163 483 0
2023-01-23 07:04:22 GMT 48.582779 0.546006 37,000 163 483 64
2023-01-23 07:04:20 GMT 48.587265 0.543964 37,000 163 483 64
2023-01-23 07:04:17 GMT 48.594158 0.540788 37,000 163 483 64
2023-01-23 07:04:12 GMT 48.604889 0.535865 37,000 163 483 0
2023-01-23 07:04:09 GMT 48.610870 0.533126 37,000 163 483 0
2023-01-23 07:04:06 GMT 48.616516 0.530513 37,000 163 483 0
2023-01-23 07:04:03 GMT 48.626083 0.526147 37,000 163 483 -64
2023-01-23 07:04:00 GMT 48.630424 0.524163 37,000 163 483 -64
2023-01-23 07:03:55 GMT 48.639919 0.519827 37,000 163 483 -64
2023-01-23 07:03:53 GMT 48.645035 0.517414 37,000 163 483 0
2023-01-23 07:03:50 GMT 48.652721 0.513900 37,000 163 483 0
2023-01-23 07:03:47 GMT 48.657051 0.511948 37,000 163 483 0
2023-01-23 07:03:44 GMT 48.663940 0.508752 37,000 163 483 0
2023-01-23 07:03:41 GMT 48.670303 0.505864 37,000 162 484 0
2023-01-23 07:03:39 GMT 48.675659 0.503329 37,000 163 483 0
2023-01-23 07:03:34 GMT 48.685402 0.498866 37,000 162 484 0
2023-01-23 07:03:31 GMT 48.692944 0.495397 37,000 163 483 0
2023-01-23 07:03:29 GMT 48.695782 0.494096 37,000 163 483 0
2023-01-23 07:03:26 GMT 48.702251 0.491060 37,000 162 483 64
2023-01-23 07:03:23 GMT 48.708801 0.488046 37,000 162 484 0
2023-01-23 07:03:20 GMT 48.714981 0.485229 37,000 162 483 0
2023-01-23 07:03:18 GMT 48.719105 0.483254 37,000 162 483 0
2023-01-23 07:03:16 GMT 48.729950 0.478257 37,000 162 483 0
2023-01-23 07:03:13 GMT 48.729950 0.478257 37,000 162 483 0
2023-01-23 07:03:11 GMT 48.734161 0.476285 37,000 162 483 0
2023-01-23 07:03:09 GMT 48.742985 0.472195 37,000 162 483 0
2023-01-23 07:03:07 GMT 48.742985 0.472195 37,000 162 483 64
2023-01-23 07:03:03 GMT 48.751553 0.468148 37,000 162 483 0
2023-01-23 07:03:00 GMT 48.763096 0.462799 37,000 162 483 0
2023-01-23 07:02:55 GMT 48.774765 0.457341 37,000 162 484 64
2023-01-23 07:02:52 GMT 48.774765 0.457341 37,000 162 483 0
2023-01-23 07:02:50 GMT 48.779808 0.454993 37,000 162 483 0
2023-01-23 07:02:48 GMT 48.782185 0.453837 37,000 162 484 0
2023-01-23 07:02:44 GMT 48.792114 0.449242 37,000 162 484 64
2023-01-23 07:02:41 GMT 48.797607 0.446636 37,000 162 484 0
2023-01-23 07:02:39 GMT 48.809601 0.441043 37,000 162 484 0
2023-01-23 07:02:36 GMT 48.809601 0.441043 37,000 162 484 0
2023-01-23 07:02:33 GMT 48.816010 0.438045 37,000 162 484 0
2023-01-23 07:02:30 GMT 48.823471 0.434594 37,000 162 484 0
2023-01-23 07:02:28 GMT 48.825485 0.433678 37,000 162 484 0
2023-01-23 07:02:23 GMT 48.837341 0.428115 37,000 162 484 0
2023-01-23 07:02:21 GMT 48.841461 0.426143 37,000 162 484 0
2023-01-23 07:02:18 GMT 48.847820 0.423190 37,000 162 484 0
2023-01-23 07:02:15 GMT 48.854294 0.420155 37,000 162 484 0
2023-01-23 07:02:13 GMT 48.858994 0.417986 37,000 162 485 0
2023-01-23 07:02:09 GMT 48.866592 0.414382 37,000 162 484 0
2023-01-23 07:02:07 GMT 48.870724 0.412493 37,000 162 484 0
2023-01-23 07:02:03 GMT 48.880409 0.407940 37,000 162 485 0
2023-01-23 07:02:00 GMT 48.886738 0.404976 37,000 162 485 0
2023-01-23 07:01:58 GMT 48.890900 0.403043 37,000 162 486 0
2023-01-23 07:01:55 GMT 48.896378 0.400495 37,000 162 486 0
2023-01-23 07:01:52 GMT 48.903778 0.397026 37,000 162 486 -64
2023-01-23 07:01:49 GMT 48.908993 0.394568 37,000 162 486 -64
2023-01-23 07:01:47 GMT 48.913330 0.392550 37,000 162 486 -64
2023-01-23 07:01:43 GMT 48.923904 0.387620 37,000 162 489 0
2023-01-23 07:01:40 GMT 48.929855 0.384803 37,000 162 488 0
2023-01-23 07:01:38 GMT 48.933247 0.383220 37,000 162 487 0
2023-01-23 07:01:35 GMT 48.941952 0.379173 37,000 162 488 0
2023-01-23 07:01:32 GMT 48.946701 0.376986 37,000 162 488 0
2023-01-23 07:01:30 GMT 48.956940 0.372234 37,000 163 489 0
2023-01-23 07:01:28 GMT 48.956940 0.372234 37,000 162 489 0
2023-01-23 07:01:25 GMT 48.960430 0.370572 37,000 162 489 0
2023-01-23 07:01:22 GMT 48.966888 0.367549 37,000 162 490 0
2023-01-23 07:01:19 GMT 48.975098 0.363778 37,000 162 490 0
2023-01-23 07:01:15 GMT 48.982773 0.360154 37,000 162 491 0
2023-01-23 07:01:12 GMT 48.989433 0.357056 37,000 162 492 0
2023-01-23 07:01:09 GMT 48.996780 0.353605 37,000 162 492 0
2023-01-23 07:01:06 GMT 49.002640 0.350858 37,000 162 492 0
2023-01-23 07:01:02 GMT 49.011063 0.346985 37,000 162 492 0
2023-01-23 07:01:00 GMT 49.016556 0.344379 37,000 162 492 0
2023-01-23 07:00:58 GMT 49.019787 0.342889 37,000 162 493 0
2023-01-23 07:00:55 GMT 49.025093 0.340359 37,000 162 493 0
2023-01-23 07:00:52 GMT 49.033333 0.336529 37,000 162 495 0
2023-01-23 07:00:49 GMT 49.042328 0.332336 37,000 162 494 0
2023-01-23 07:00:46 GMT 49.048042 0.329662 37,000 162 495 0
2023-01-23 07:00:42 GMT 49.056976 0.325435 37,000 162 496 0
2023-01-23 07:00:39 GMT 49.061497 0.323374 37,000 162 495 0
2023-01-23 07:00:37 GMT 49.067921 0.320338 37,000 162 496 0
2023-01-23 07:00:34 GMT 49.072495 0.318181 37,000 162 495 0
2023-01-23 07:00:31 GMT 49.078117 0.315568 37,000 162 495 0
2023-01-23 07:00:29 GMT 49.082443 0.313544 37,000 162 496 0
2023-01-23 07:00:26 GMT 49.100506 0.305087 37,000 162 496 0
2023-01-23 07:00:21 GMT 49.100506 0.305087 37,000 162 496 -64
2023-01-23 07:00:18 GMT 49.107632 0.301690 37,000 162 497 0
2023-01-23 07:00:15 GMT 49.113914 0.298799 37,000 162 498 0
2023-01-23 07:00:12 GMT 49.123039 0.294463 37,000 162 498 0
2023-01-23 07:00:09 GMT 49.126297 0.292945 37,000 162 498 0
2023-01-23 07:00:07 GMT 49.129715 0.291349 37,000 162 499 0
2023-01-23 07:00:05 GMT 49.136307 0.288250 37,000 162 499 0
2023-01-23 07:00:01 GMT 49.150269 0.281771 37,000 162 500 0
2023-01-23 06:59:59 GMT 49.150269 0.281771 37,000 162 500 0
2023-01-23 06:59:56 GMT 49.154602 0.279718 37,000 162 500 0
2023-01-23 06:59:53 GMT 49.162144 0.276176 37,000 162 501 0
2023-01-23 06:59:50 GMT 49.169769 0.272616 37,000 162 501 0
2023-01-23 06:59:48 GMT 49.174152 0.270538 37,000 162 501 -64
2023-01-23 06:59:45 GMT 49.180939 0.267404 37,000 162 501 -64
2023-01-23 06:59:43 GMT 49.188538 0.263816 37,000 162 502 -64
2023-01-23 06:59:41 GMT 49.188538 0.263816 37,000 162 502 -64
2023-01-23 06:59:39 GMT 49.193848 0.261348 37,000 162 502 0
2023-01-23 06:59:37 GMT 49.203094 0.256981 37,000 162 502 0
2023-01-23 06:59:34 GMT 49.203094 0.256981 37,000 162 502 0
2023-01-23 06:59:32 GMT 49.208649 0.254420 37,000 163 502 0
2023-01-23 06:59:30 GMT 49.213303 0.252180 37,000 163 502 0
2023-01-23 06:59:27 GMT 49.221542 0.248390 37,000 162 503 0
2023-01-23 06:59:24 GMT 49.227448 0.245573 37,000 162 503 0
2023-01-23 06:59:22 GMT 49.231785 0.243578 37,000 162 503 0
2023-01-23 06:59:19 GMT 49.237415 0.240904 37,000 162 503 0
2023-01-23 06:59:16 GMT 49.246674 0.236558 37,000 162 503 0
2023-01-23 06:59:13 GMT 49.251389 0.234375 37,000 162 503 0
2023-01-23 06:59:10 GMT 49.258041 0.231219 37,000 162 503 0
2023-01-23 06:59:07 GMT 49.270752 0.225220 37,000 162 503 0
2023-01-23 06:59:04 GMT 49.277451 0.222039 37,000 162 504 0
2023-01-23 06:59:01 GMT 49.277451 0.222039 37,000 162 504 0
2023-01-23 06:58:59 GMT 49.282619 0.219582 37,000 162 504 0
2023-01-23 06:58:57 GMT 49.285927 0.218064 37,000 162 503 0
2023-01-23 06:58:54 GMT 49.294350 0.214017 37,000 162 504 0
2023-01-23 06:58:52 GMT 49.298309 0.212137 37,000 162 504 0
2023-01-23 06:58:49 GMT 49.304733 0.209102 37,000 162 504 0
2023-01-23 06:58:47 GMT 49.316742 0.203392 37,000 162 504 64
2023-01-23 06:58:44 GMT 49.316742 0.203392 37,000 162 504 64
2023-01-23 06:58:42 GMT 49.322388 0.200712 37,000 162 504 64
2023-01-23 06:58:39 GMT 49.327927 0.198106 37,000 162 504 64
2023-01-23 06:58:36 GMT 49.332230 0.196064 37,000 162 504 64
2023-01-23 06:58:33 GMT 49.340763 0.191972 37,000 162 504 0
2023-01-23 06:58:30 GMT 49.346722 0.189153 37,000 162 504 0
2023-01-23 06:58:28 GMT 49.352680 0.186334 37,000 162 504 0
2023-01-23 06:58:24 GMT 49.360565 0.182542 37,000 162 504 64
2023-01-23 06:58:21 GMT 49.367020 0.179514 37,000 162 504 64
2023-01-23 06:58:19 GMT 49.375809 0.175288 37,000 162 504 0
2023-01-23 06:58:17 GMT 49.375809 0.175288 37,000 162 505 -64
2023-01-23 06:58:13 GMT 49.384941 0.170939 37,000 162 505 0
2023-01-23 06:58:10 GMT 49.391968 0.167542 37,000 162 505 0
2023-01-23 06:58:07 GMT 49.395401 0.165922 37,000 162 505 0
2023-01-23 06:58:05 GMT 49.401142 0.163205 37,000 162 506 0
2023-01-23 06:58:03 GMT 49.406681 0.160530 37,000 162 506 0
2023-01-23 06:58:01 GMT 49.416782 0.155760 37,000 162 506 0
2023-01-23 06:57:59 GMT 49.416782 0.155760 37,000 162 505 -64
2023-01-23 06:57:57 GMT 49.420135 0.154098 37,000 162 505 -64
2023-01-23 06:57:55 GMT 49.432709 0.148099 37,000 162 505 0
2023-01-23 06:57:51 GMT 49.438618 0.145198 37,000 162 505 0
2023-01-23 06:57:49 GMT 49.438618 0.145198 37,000 162 505 0
2023-01-23 06:57:46 GMT 49.444153 0.142533 37,000 162 505 0
2023-01-23 06:57:43 GMT 49.452164 0.138702 37,000 162 505 0
2023-01-23 06:57:40 GMT 49.457561 0.136067 37,000 162 505 0
2023-01-23 06:57:37 GMT 49.464066 0.132920 37,000 162 505 0
2023-01-23 06:57:34 GMT 49.474228 0.128005 37,000 162 505 0
2023-01-23 06:57:31 GMT 49.478745 0.125823 37,000 162 505 0
2023-01-23 06:57:29 GMT 49.484436 0.123018 37,000 162 504 0
2023-01-23 06:57:26 GMT 49.487774 0.121443 37,000 162 504 -64
2023-01-23 06:57:24 GMT 49.494015 0.118400 37,000 162 504 0
2023-01-23 06:57:22 GMT 49.498016 0.116396 37,000 162 504 0
2023-01-23 06:57:19 GMT 49.512028 0.109566 37,000 162 504 0
2023-01-23 06:57:16 GMT 49.512028 0.109566 37,000 162 504 0
2023-01-23 06:57:13 GMT 49.518734 0.106300 37,000 162 504 0
2023-01-23 06:57:10 GMT 49.524227 0.103628 37,000 162 504 64
2023-01-23 06:57:08 GMT 49.529526 0.101045 37,000 162 504 64
2023-01-23 06:57:05 GMT 49.536026 0.097865 37,000 162 504 64
2023-01-23 06:57:03 GMT 49.541729 0.095017 37,000 162 504 0
2023-01-23 06:57:00 GMT 49.545967 0.093013 37,000 162 505 0
2023-01-23 06:56:57 GMT 49.556114 0.087965 37,000 162 505 0
2023-01-23 06:56:53 GMT 49.563560 0.084327 37,000 162 504 0
2023-01-23 06:56:51 GMT 49.568390 0.081964 37,000 162 504 0
2023-01-23 06:56:47 GMT 49.577015 0.077721 37,000 162 504 0
2023-01-23 06:56:45 GMT 49.581482 0.075459 37,000 162 504 0
2023-01-23 06:56:42 GMT 49.587936 0.072351 37,000 162 505 0
2023-01-23 06:56:40 GMT 49.591167 0.070743 37,000 162 505 0
2023-01-23 06:56:38 GMT 49.595856 0.068375 37,000 162 505 0
2023-01-23 06:56:36 GMT 49.600067 0.066352 37,000 162 505 0
2023-01-23 06:56:34 GMT 49.604248 0.064285 37,000 162 504 0
2023-01-23 06:56:32 GMT 49.608856 0.062015 37,000 162 504 0
2023-01-23 06:56:30 GMT 49.612610 0.060208 37,000 162 504 -64
2023-01-23 06:56:28 GMT 49.618309 0.057381 37,000 162 504 0
2023-01-23 06:56:26 GMT 49.621399 0.055871 37,000 162 504 0
2023-01-23 06:56:23 GMT 49.630131 0.051591 37,000 162 504 0
2023-01-23 06:56:21 GMT 49.632156 0.050595 37,000 162 504 64
2023-01-23 06:56:18 GMT 49.640625 0.046475 37,000 162 504 0
2023-01-23 06:56:16 GMT 49.644058 0.044813 37,000 162 504 0
2023-01-23 06:56:13 GMT 49.650848 0.041496 37,000 162 504 0
2023-01-23 06:56:11 GMT 49.656647 0.038597 37,000 162 505 0
2023-01-23 06:56:08 GMT 49.662048 0.035995 37,000 162 505 0
2023-01-23 06:56:06 GMT 49.668732 0.032742 37,000 162 505 0
2023-01-23 06:56:03 GMT 49.673565 0.030361 37,000 162 505 0
2023-01-23 06:56:01 GMT 49.685158 0.024719 37,000 162 505 0
2023-01-23 06:55:58 GMT 49.685158 0.024719 37,000 162 506 0
2023-01-23 06:55:56 GMT 49.688416 0.023160 37,000 162 506 0
2023-01-23 06:55:53 GMT 49.700241 0.017445 37,000 162 506 0
2023-01-23 06:55:51 GMT 49.700241 0.017445 37,000 162 506 0
2023-01-23 06:55:49 GMT 49.705082 0.015143 37,000 162 506 0
2023-01-23 06:55:46 GMT 49.711926 0.011803 37,000 162 506 0
2023-01-23 06:55:44 GMT 49.724819 0.005567 37,000 162 506 0
2023-01-23 06:55:41 GMT 49.724819 0.005567 37,000 162 505 -64
2023-01-23 06:55:38 GMT 49.730438 0.002891 37,000 162 505 0
2023-01-23 06:55:36 GMT 49.734596 0.000891 37,000 162 505 0
2023-01-23 06:55:34 GMT 49.737621 -0.000520 37,000 162 505 0
2023-01-23 06:55:31 GMT 49.746277 -0.004698 37,000 162 505 0
2023-01-23 06:55:28 GMT 49.752136 -0.007517 37,000 162 505 0
2023-01-23 06:55:26 GMT 49.756569 -0.009576 37,000 162 506 0
2023-01-23 06:55:23 GMT 49.763130 -0.012768 37,000 162 506 0
2023-01-23 06:55:21 GMT 49.766876 -0.014528 37,000 162 506 0
2023-01-23 06:55:19 GMT 49.771133 -0.016552 37,000 162 506 0
2023-01-23 06:55:17 GMT 49.775848 -0.018720 37,000 162 506 0
2023-01-23 06:55:14 GMT 49.782440 -0.021828 37,000 162 506 0
2023-01-23 06:55:12 GMT 49.787106 -0.024051 37,000 163 505 64
2023-01-23 06:55:09 GMT 49.794067 -0.027321 37,000 163 506 64
2023-01-23 06:55:07 GMT 49.798828 -0.029562 37,000 163 506 0
2023-01-23 06:55:04 GMT 49.809776 -0.034666 37,000 163 506 64
2023-01-23 06:55:02 GMT 49.809776 -0.034666 37,000 163 506 64
2023-01-23 06:54:59 GMT 49.815903 -0.037513 37,000 163 506 64
2023-01-23 06:54:57 GMT 49.822678 -0.040693 37,000 163 506 64
2023-01-23 06:54:54 GMT 49.832821 -0.045356 37,000 163 507 0
2023-01-23 06:54:52 GMT 49.832821 -0.045356 37,000 163 507 0
2023-01-23 06:54:50 GMT 49.837383 -0.047508 37,000 163 507 0
2023-01-23 06:54:48 GMT 49.840942 -0.049149 37,000 163 506 -64
2023-01-23 06:54:46 GMT 49.842968 -0.050032 37,000 163 506 0
2023-01-23 06:54:44 GMT 49.849960 -0.053269 37,000 163 506 0
2023-01-23 06:54:42 GMT 49.857029 -0.056565 37,000 163 506 0
2023-01-23 06:54:39 GMT 49.862961 -0.059268 37,000 163 506 0
2023-01-23 06:54:36 GMT 49.872112 -0.063543 37,000 163 506 0
2023-01-23 06:54:34 GMT 49.872112 -0.063543 37,000 163 506 0
2023-01-23 06:54:31 GMT 49.878258 -0.066438 37,000 163 505 0
2023-01-23 06:54:29 GMT 49.884476 -0.069315 37,000 163 505 0
2023-01-23 06:54:27 GMT 49.892315 -0.072970 37,000 162 505 0
2023-01-23 06:54:25 GMT 49.892315 -0.072970 37,000 163 505 0
2023-01-23 06:54:23 GMT 49.895920 -0.074664 37,000 162 505 0
2023-01-23 06:54:21 GMT 49.901672 -0.077424 37,000 162 504 0
2023-01-23 06:54:18 GMT 49.910469 -0.081581 37,000 162 504 0
2023-01-23 06:54:15 GMT 49.915077 -0.083808 37,000 162 505 0
2023-01-23 06:54:13 GMT 49.920593 -0.086517 37,000 162 505 0
2023-01-23 06:54:11 GMT 49.925949 -0.089119 37,000 162 505 0
2023-01-23 06:54:08 GMT 49.931324 -0.091676 37,000 162 505 0
2023-01-23 06:54:05 GMT 49.938076 -0.095017 37,000 162 505 0
2023-01-23 06:54:03 GMT 49.942200 -0.096998 37,000 162 505 0
2023-01-23 06:54:00 GMT 49.948792 -0.100178 37,000 162 505 0
2023-01-23 06:53:58 GMT 49.952591 -0.102057 37,000 162 505 0
2023-01-23 06:53:56 GMT 49.955906 -0.103702 37,000 162 505 0
2023-01-23 06:53:53 GMT 49.965225 -0.108201 37,000 162 505 0
2023-01-23 06:53:50 GMT 49.969757 -0.110442 37,000 162 505 0
2023-01-23 06:53:48 GMT 49.974434 -0.112684 37,000 162 504 0
2023-01-23 06:53:46 GMT 49.979927 -0.115356 37,000 162 504 0
2023-01-23 06:53:43 GMT 49.985653 -0.118177 37,000 162 504 0
2023-01-23 06:53:41 GMT 49.990860 -0.120705 37,000 162 504 0
2023-01-23 06:53:38 GMT 49.995895 -0.123235 37,000 162 504 0
2023-01-23 06:53:36 GMT 50.001293 -0.125897 37,000 162 504 0
2023-01-23 06:53:33 GMT 50.006699 -0.128511 37,000 162 504 0
2023-01-23 06:53:31 GMT 50.012970 -0.131619 37,000 162 504 0
2023-01-23 06:53:28 GMT 50.024475 -0.137255 37,000 162 504 0
2023-01-23 06:53:26 GMT 50.024475 -0.137255 37,000 162 504 0
2023-01-23 06:53:23 GMT 50.030273 -0.140148 37,000 162 504 0
2023-01-23 06:53:21 GMT 50.033890 -0.141883 37,000 162 503 0
2023-01-23 06:53:19 GMT 50.039429 -0.144629 37,000 162 503 0
2023-01-23 06:53:17 GMT 50.043983 -0.146831 37,000 162 503 0
2023-01-23 06:53:14 GMT 50.050266 -0.149949 37,000 162 503 0
2023-01-23 06:53:12 GMT 50.053619 -0.151656 37,000 162 503 0
2023-01-23 06:53:10 GMT 50.059483 -0.154551 37,000 162 503 0
2023-01-23 06:53:07 GMT 50.066002 -0.157743 37,000 162 503 0
2023-01-23 06:53:04 GMT 50.074631 -0.161976 37,000 162 503 0
2023-01-23 06:53:01 GMT 50.079826 -0.164572 37,000 162 503 0
2023-01-23 06:52:58 GMT 50.090813 -0.169991 37,000 162 503 0
2023-01-23 06:52:56 GMT 50.090813 -0.169991 37,000 162 503 0
2023-01-23 06:52:53 GMT 50.101959 -0.175492 37,000 162 503 0
2023-01-23 06:52:51 GMT 50.101959 -0.175492 37,000 162 503 -64
2023-01-23 06:52:48 GMT 50.108688 -0.178745 37,000 162 503 0
2023-01-23 06:52:46 GMT 50.111755 -0.180263 37,000 162 503 0
2023-01-23 06:52:43 GMT 50.119816 -0.184244 37,000 162 503 0
2023-01-23 06:52:40 GMT 50.127411 -0.187996 37,000 162 502 0
2023-01-23 06:52:37 GMT 50.133591 -0.191032 37,000 162 502 0
2023-01-23 06:52:34 GMT 50.137848 -0.193128 37,000 162 502 0
2023-01-23 06:52:32 GMT 50.143066 -0.195730 37,000 162 502 0
2023-01-23 06:52:30 GMT 50.148354 -0.198274 37,000 162 502 0
2023-01-23 06:52:27 GMT 50.154007 -0.201079 37,000 162 502 0
2023-01-23 06:52:25 GMT 50.160690 -0.204404 37,000 162 502 0
2023-01-23 06:52:22 GMT 50.166504 -0.207295 37,000 162 502 0
2023-01-23 06:52:20 GMT 50.173443 -0.210744 37,000 162 502 0
2023-01-23 06:52:18 GMT 50.173443 -0.210744 37,000 162 502 0
2023-01-23 06:52:16 GMT 50.183357 -0.215644 37,000 162 502 64
2023-01-23 06:52:14 GMT 50.183357 -0.215644 37,000 162 502 0
2023-01-23 06:52:11 GMT 50.189037 -0.218390 37,000 162 502 0
2023-01-23 06:52:08 GMT 50.198723 -0.223215 37,000 162 502 0
2023-01-23 06:52:05 GMT 50.203888 -0.225739 37,000 162 502 0
2023-01-23 06:52:03 GMT 50.208405 -0.227966 37,000 162 502 0
2023-01-23 06:52:01 GMT 50.211731 -0.229629 37,000 162 502 0
2023-01-23 06:51:58 GMT 50.219833 -0.233604 37,000 162 502 0
2023-01-23 06:51:56 GMT 50.223301 -0.235315 37,000 162 502 0
2023-01-23 06:51:54 GMT 50.227890 -0.237579 37,000 162 502 0
2023-01-23 06:51:52 GMT 50.230797 -0.238953 37,000 162 502 0
2023-01-23 06:51:50 GMT 50.235497 -0.241254 37,000 162 502 0
2023-01-23 06:51:48 GMT 50.240154 -0.243629 37,000 162 502 0
2023-01-23 06:51:46 GMT 50.250000 -0.248421 37,000 162 502 0
2023-01-23 06:51:44 GMT 50.250000 -0.248421 37,000 162 502 0
2023-01-23 06:51:41 GMT 50.257099 -0.251943 37,000 162 502 0
2023-01-23 06:51:38 GMT 50.263092 -0.254854 37,000 162 501 -64
2023-01-23 06:51:36 GMT 50.267303 -0.256950 37,000 162 502 0
2023-01-23 06:51:34 GMT 50.272785 -0.259663 37,000 162 501 -64
2023-01-23 06:51:31 GMT 50.278656 -0.262515 37,000 162 501 0
2023-01-23 06:51:28 GMT 50.285820 -0.266047 37,000 162 501 0
2023-01-23 06:51:26 GMT 50.289265 -0.267755 37,000 162 501 0
2023-01-23 06:51:24 GMT 50.293968 -0.270056 37,000 162 501 0
2023-01-23 06:51:22 GMT 50.297333 -0.271695 37,000 162 501 0
2023-01-23 06:51:20 GMT 50.303558 -0.274803 37,000 162 501 0
2023-01-23 06:51:17 GMT 50.307934 -0.276959 37,000 162 501 0
2023-01-23 06:51:15 GMT 50.314453 -0.280151 37,000 162 501 0
2023-01-23 06:51:13 GMT 50.319290 -0.282527 37,000 162 501 0
2023-01-23 06:51:10 GMT 50.324135 -0.284902 37,000 162 501 0
2023-01-23 06:51:08 GMT 50.329605 -0.287596 37,000 162 501 0
2023-01-23 06:51:06 GMT 50.340473 -0.292919 37,000 162 501 0
2023-01-23 06:51:03 GMT 50.340473 -0.292919 37,000 162 501 0
2023-01-23 06:51:01 GMT 50.342941 -0.294107 37,000 162 501 0
2023-01-23 06:50:59 GMT 50.354370 -0.299739 37,000 162 501 0
2023-01-23 06:50:57 GMT 50.354370 -0.299739 37,000 162 502 0
2023-01-23 06:50:55 GMT 50.358307 -0.301618 37,000 162 502 0
2023-01-23 06:50:53 GMT 50.362537 -0.303683 37,000 162 502 0
2023-01-23 06:50:51 GMT 50.367188 -0.306027 37,000 162 502 0
2023-01-23 06:50:49 GMT 50.371151 -0.307988 37,000 162 502 0
2023-01-23 06:50:47 GMT 50.376598 -0.310586 37,000 162 502 0
2023-01-23 06:50:44 GMT 50.382706 -0.313616 37,000 162 502 0
2023-01-23 06:50:42 GMT 50.388233 -0.316377 37,000 162 502 0
2023-01-23 06:50:39 GMT 50.394428 -0.319420 37,000 162 502 0
2023-01-23 06:50:36 GMT 50.399921 -0.322167 37,000 162 501 0
2023-01-23 06:50:33 GMT 50.405369 -0.324839 37,000 162 501 0
2023-01-23 06:50:31 GMT 50.409882 -0.327066 37,000 162 501 0
2023-01-23 06:50:29 GMT 50.414536 -0.329367 37,000 162 501 0
2023-01-23 06:50:27 GMT 50.419006 -0.331594 37,000 162 501 0
2023-01-23 06:50:25 GMT 50.425827 -0.335011 37,000 162 501 0
2023-01-23 06:50:22 GMT 50.437206 -0.340650 37,000 162 501 0
2023-01-23 06:50:19 GMT 50.437206 -0.340650 37,000 162 501 0
2023-01-23 06:50:17 GMT 50.440567 -0.342311 37,000 162 501 0
2023-01-23 06:50:15 GMT 50.446098 -0.345030 37,000 162 501 0
2023-01-23 06:50:13 GMT 50.450382 -0.347183 37,000 162 501 0
2023-01-23 06:50:11 GMT 50.454571 -0.349261 37,000 162 501 0
2023-01-23 06:50:09 GMT 50.460346 -0.352156 37,000 162 501 0
2023-01-23 06:50:06 GMT 50.468445 -0.356165 37,000 162 501 0
2023-01-23 06:50:03 GMT 50.473022 -0.358429 37,000 162 501 0
2023-01-23 06:50:01 GMT 50.476685 -0.360248 37,000 162 501 0
2023-01-23 06:49:59 GMT 50.486275 -0.365073 37,000 162 501 0
2023-01-23 06:49:57 GMT 50.486275 -0.365073 37,000 162 501 0
2023-01-23 06:49:55 GMT 50.491653 -0.367753 37,000 162 501 0
2023-01-23 06:49:52 GMT 50.497879 -0.370861 37,000 162 501 0
2023-01-23 06:49:50 GMT 50.502010 -0.372941 37,000 162 502 0
2023-01-23 06:49:47 GMT 50.508774 -0.376354 37,000 161 502 0
2023-01-23 06:49:44 GMT 50.516396 -0.380439 37,000 158 500 0
2023-01-23 06:49:41 GMT 50.519714 -0.382281 37,000 159 501 0
2023-01-23 06:49:39 GMT 50.524887 -0.385317 37,000 158 500 0
2023-01-23 06:49:37 GMT 50.528915 -0.387713 37,000 157 499 64
2023-01-23 06:49:35 GMT 50.534222 -0.391054 37,000 157 498 64
2023-01-23 06:49:32 GMT 50.540817 -0.395436 37,000 157 498 0
2023-01-23 06:49:30 GMT 50.548748 -0.400704 37,000 157 499 0
2023-01-23 06:49:28 GMT 50.548748 -0.400704 37,000 157 498 -128
2023-01-23 06:49:26 GMT 50.553085 -0.403603 37,000 157 498 -64
2023-01-23 06:49:24 GMT 50.559315 -0.407682 37,000 157 498 -128
2023-01-23 06:49:21 GMT 50.563705 -0.410614 37,000 157 498 0
2023-01-23 06:49:19 GMT 50.572395 -0.416441 37,000 157 497 768
2023-01-23 06:49:17 GMT 50.572395 -0.416441 37,000 157 498 384
2023-01-23 06:49:15 GMT 50.576202 -0.418926 36,900 157 497 960
2023-01-23 06:49:13 GMT 50.581284 -0.422323 36,975 157 497 896
2023-01-23 06:49:11 GMT 50.584579 -0.424491 36,950 157 497 960
2023-01-23 06:49:08 GMT 50.591537 -0.429117 36,850 157 497 960
2023-01-23 06:49:05 GMT 50.596836 -0.432698 36,800 157 497 960
2023-01-23 06:49:03 GMT 50.600700 -0.435296 36,825 156 497 960
2023-01-23 06:49:01 GMT 50.606426 -0.439082 36,700 156 497 896
2023-01-23 06:48:59 GMT 50.610306 -0.441621 36,700 157 497 896
2023-01-23 06:48:56 GMT 50.617676 -0.446536 36,700 157 497 896
2023-01-23 06:48:54 GMT 50.622021 -0.449474 36,675 157 497 896
2023-01-23 06:48:50 GMT 50.632690 -0.456583 36,575 156 497 896
2023-01-23 06:48:48 GMT 50.638081 -0.460164 36,575 156 497 896
2023-01-23 06:48:46 GMT 50.638081 -0.460164 36,575 156 497 896
2023-01-23 06:48:43 GMT 50.643436 -0.463801 36,525 156 497 896
2023-01-23 06:48:41 GMT 50.650043 -0.468181 36,450 156 497 896
2023-01-23 06:48:38 GMT 50.655441 -0.471834 36,400 156 497 960
2023-01-23 06:48:35 GMT 50.667206 -0.479712 36,350 156 497 960
2023-01-23 06:48:32 GMT 50.671783 -0.482788 36,300 156 497 960
2023-01-23 06:48:30 GMT 50.671783 -0.482788 36,250 156 497 960
2023-01-23 06:48:27 GMT 50.678238 -0.487036 36,250 156 496 960
2023-01-23 06:48:25 GMT 50.682541 -0.489931 36,225 156 496 960
2023-01-23 06:48:23 GMT 50.687119 -0.493049 36,150 156 496 960
2023-01-23 06:48:21 GMT 50.691147 -0.495721 36,150 156 496 960
2023-01-23 06:48:19 GMT 50.694550 -0.497971 36,100 156 496 960
2023-01-23 06:48:16 GMT 50.700134 -0.501785 36,050 156 496 960
2023-01-23 06:48:14 GMT 50.705521 -0.505371 36,025 156 496 960
2023-01-23 06:48:12 GMT 50.709732 -0.508192 35,975 156 496 896
2023-01-23 06:48:09 GMT 50.715309 -0.511932 35,925 156 496 896
2023-01-23 06:48:07 GMT 50.719593 -0.514832 35,950 156 496 896
2023-01-23 06:48:05 GMT 50.724106 -0.517842 35,900 156 496 896
2023-01-23 06:48:03 GMT 50.732395 -0.523376 35,850 156 496 896
2023-01-23 06:48:01 GMT 50.732395 -0.523376 35,825 156 495 896
2023-01-23 06:47:59 GMT 50.736679 -0.526276 35,825 156 495 896
2023-01-23 06:47:57 GMT 50.739658 -0.528259 35,775 156 495 960
2023-01-23 06:47:55 GMT 50.744934 -0.531798 35,750 156 495 960
2023-01-23 06:47:53 GMT 50.755417 -0.538850 35,700 156 495 960
2023-01-23 06:47:50 GMT 50.755417 -0.538850 35,675 156 495 960
2023-01-23 06:47:48 GMT 50.760838 -0.542450 35,625 156 495 960
2023-01-23 06:47:46 GMT 50.771221 -0.549469 35,575 156 495 960
2023-01-23 06:47:43 GMT 50.771221 -0.549469 35,525 156 495 1024
2023-01-23 06:47:40 GMT 50.776382 -0.552954 35,500 156 495 1024
2023-01-23 06:47:38 GMT 50.781509 -0.556368 35,400 156 494 1024
2023-01-23 06:47:36 GMT 50.786770 -0.559921 35,400 156 494 1088
2023-01-23 06:47:33 GMT 50.790848 -0.562678 35,375 156 494 1024
2023-01-23 06:47:31 GMT 50.799545 -0.568542 35,225 156 494 1024
2023-01-23 06:47:29 GMT 50.799545 -0.568542 35,300 156 494 1024
2023-01-23 06:47:27 GMT 50.803253 -0.570992 35,275 156 494 1024
2023-01-23 06:47:25 GMT 50.809341 -0.575075 35,250 156 494 1088
2023-01-23 06:47:23 GMT 50.812408 -0.577153 35,175 156 494 1088
2023-01-23 06:47:21 GMT 50.817673 -0.580717 35,150 156 494 1088
2023-01-23 06:47:19 GMT 50.825317 -0.585839 35,100 156 494 1088
2023-01-23 06:47:17 GMT 50.825317 -0.585839 35,100 156 494 1088
2023-01-23 06:47:15 GMT 50.829758 -0.588808 35,050 156 494 1088
2023-01-23 06:47:12 GMT 50.837723 -0.594153 34,975 156 493 1152
2023-01-23 06:47:09 GMT 50.842163 -0.597196 34,950 156 493 1088
2023-01-23 06:47:07 GMT 50.847240 -0.600586 34,900 156 493 1088
2023-01-23 06:47:05 GMT 50.850677 -0.602912 34,875 156 493 1088
2023-01-23 06:47:03 GMT 50.854980 -0.605807 34,825 156 493 1152
2023-01-23 06:47:01 GMT 50.858364 -0.608063 34,800 156 493 1152
2023-01-23 06:46:59 GMT 50.863209 -0.611343 34,750 156 493 1216
2023-01-23 06:46:57 GMT 50.866745 -0.613708 34,725 156 493 1216
2023-01-23 06:46:55 GMT 50.870888 -0.616531 34,700 156 493 1216
2023-01-23 06:46:53 GMT 50.875946 -0.619911 34,625 156 493 1216
2023-01-23 06:46:51 GMT 50.880020 -0.622658 34,600 156 493 1216
2023-01-23 06:46:49 GMT 50.884296 -0.625534 34,550 156 493 1216
2023-01-23 06:46:46 GMT 50.890068 -0.629425 34,475 156 493 1280
2023-01-23 06:46:44 GMT 50.894772 -0.632553 34,450 156 493 1280
2023-01-23 06:46:42 GMT 50.898239 -0.634906 34,425 156 493 1280
2023-01-23 06:46:40 GMT 50.903137 -0.638172 34,375 156 493 1280
2023-01-23 06:46:38 GMT 50.906982 -0.640770 34,325 156 493 1344
2023-01-23 06:46:36 GMT 50.913532 -0.645218 34,250 156 493 1344
2023-01-23 06:46:33 GMT 50.917694 -0.648045 34,200 156 493 1344
2023-01-23 06:46:31 GMT 50.921539 -0.650643 34,175 156 493 1344
2023-01-23 06:46:29 GMT 50.925705 -0.653390 34,150 156 493 1280
2023-01-23 06:46:26 GMT 50.932388 -0.657918 34,050 156 493 1280
2023-01-23 06:46:24 GMT 50.941555 -0.664139 33,950 156 493 1344
2023-01-23 06:46:22 GMT 50.941555 -0.664139 33,950 156 493 1344
2023-01-23 06:46:19 GMT 50.946770 -0.667648 33,900 156 493 1344
2023-01-23 06:46:17 GMT 50.951340 -0.670760 33,850 156 493 1344
2023-01-23 06:46:15 GMT 50.954361 -0.672838 33,825 156 493 1344
2023-01-23 06:46:13 GMT 50.959900 -0.676550 33,775 156 493 1280
2023-01-23 06:46:10 GMT 50.965298 -0.680161 33,675 156 493 1280
2023-01-23 06:46:08 GMT 50.968697 -0.682449 33,675 156 493 1280
2023-01-23 06:46:06 GMT 50.975189 -0.686868 33,600 156 493 1280
2023-01-23 06:46:03 GMT 50.981552 -0.691174 33,575 156 493 1280
2023-01-23 06:46:01 GMT 50.984848 -0.693436 33,500 156 493 1280
2023-01-23 06:45:59 GMT 50.987732 -0.695331 33,475 156 493 1344
2023-01-23 06:45:57 GMT 50.993275 -0.699081 33,400 156 493 1344
2023-01-23 06:45:55 GMT 50.997299 -0.701863 33,400 156 493 1344
2023-01-23 06:45:53 GMT 51.001747 -0.704880 33,325 156 492 1344
2023-01-23 06:45:51 GMT 51.004852 -0.706985 33,300 156 492 1344
2023-01-23 06:45:49 GMT 51.013573 -0.712891 33,225 156 492 1344
2023-01-23 06:45:45 GMT 51.017944 -0.715819 33,100 156 492 1344
2023-01-23 06:45:42 GMT 51.026047 -0.721312 33,050 156 492 1344
2023-01-23 06:45:39 GMT 51.030235 -0.724182 33,025 156 492 1344
2023-01-23 06:45:37 GMT 51.043167 -0.732966 32,925 156 492 1344
2023-01-23 06:45:34 GMT 51.043167 -0.732966 32,875 156 492 1344
2023-01-23 06:45:31 GMT 51.051464 -0.738602 32,800 156 492 1408
2023-01-23 06:45:29 GMT 51.056633 -0.742035 32,775 156 492 1408
2023-01-23 06:45:27 GMT 51.056633 -0.742035 32,650 156 492 1408
2023-01-23 06:45:25 GMT 51.063663 -0.746841 32,675 156 492 1408
2023-01-23 06:45:23 GMT 51.063663 -0.746841 32,625 156 492 1344
2023-01-23 06:45:21 GMT 51.068272 -0.749969 32,600 156 492 1280
2023-01-23 06:45:19 GMT 51.072418 -0.752786 32,550 156 492 1280
2023-01-23 06:45:17 GMT 51.077862 -0.756454 32,500 156 492 1344
2023-01-23 06:45:15 GMT 51.082096 -0.759354 32,450 156 492 1344
2023-01-23 06:45:12 GMT 51.087524 -0.763030 32,400 156 492 1344
2023-01-23 06:45:10 GMT 51.091782 -0.765925 32,350 156 492 1280
2023-01-23 06:45:08 GMT 51.094807 -0.767975 32,325 156 492 1280
2023-01-23 06:45:06 GMT 51.097916 -0.770082 32,275 156 491 1280
2023-01-23 06:45:04 GMT 51.107468 -0.776596 32,225 156 491 1280
2023-01-23 06:45:02 GMT 51.107468 -0.776596 32,200 156 491 1280
2023-01-23 06:45:00 GMT 51.112564 -0.780029 32,150 156 491 1280
2023-01-23 06:44:58 GMT 51.117710 -0.783539 32,025 156 490 1280
2023-01-23 06:44:55 GMT 51.122864 -0.787081 32,050 156 490 1280
2023-01-23 06:44:53 GMT 51.131287 -0.792723 32,000 156 490 1280
2023-01-23 06:44:51 GMT 51.131287 -0.792723 31,950 156 490 1280
2023-01-23 06:44:49 GMT 51.135399 -0.795593 31,925 156 490 1344
2023-01-23 06:44:47 GMT 51.139400 -0.798264 31,875 156 490 1344
2023-01-23 06:44:44 GMT 51.154064 -0.808258 31,800 156 489 1280
2023-01-23 06:44:41 GMT 51.154064 -0.808258 31,700 156 489 1280
2023-01-23 06:44:38 GMT 51.160210 -0.812454 31,650 156 489 1408
2023-01-23 06:44:35 GMT 51.165192 -0.815811 31,575 156 489 1472
2023-01-23 06:44:32 GMT 51.170517 -0.819446 31,525 156 489 1536
2023-01-23 06:44:30 GMT 51.173447 -0.821451 31,500 156 489 1536
2023-01-23 06:44:28 GMT 51.178459 -0.824814 31,425 156 489 1536
2023-01-23 06:44:26 GMT 51.182602 -0.827686 31,375 156 489 1536
2023-01-23 06:44:24 GMT 51.185898 -0.829839 31,325 156 489 1600
2023-01-23 06:44:22 GMT 51.191216 -0.833511 31,300 156 489 1664
2023-01-23 06:44:20 GMT 51.194149 -0.835495 31,225 156 489 1728
2023-01-23 06:44:18 GMT 51.200043 -0.839489 31,150 156 489 1600
2023-01-23 06:44:15 GMT 51.205765 -0.843349 31,075 156 489 1408
2023-01-23 06:44:13 GMT 51.210068 -0.846329 31,025 156 489 1152
2023-01-23 06:44:11 GMT 51.214771 -0.849533 30,900 156 488 1152
2023-01-23 06:44:08 GMT 51.221420 -0.854039 30,925 156 488 1152
2023-01-23 06:44:05 GMT 51.226685 -0.857602 30,875 156 487 1152
2023-01-23 06:44:03 GMT 51.230713 -0.860422 30,850 156 486 1152
2023-01-23 06:44:01 GMT 51.235107 -0.863392 30,800 156 486 1152
2023-01-23 06:43:59 GMT 51.239227 -0.866213 30,750 156 486 1216
2023-01-23 06:43:56 GMT 51.245041 -0.870221 30,675 156 486 1280
2023-01-23 06:43:54 GMT 51.248749 -0.872745 30,675 156 485 1280
2023-01-23 06:43:52 GMT 51.253456 -0.876007 30,625 156 485 1280
2023-01-23 06:43:50 GMT 51.257629 -0.878832 30,500 156 482 1344
2023-01-23 06:43:48 GMT 51.266815 -0.885086 30,525 156 484 1216
2023-01-23 06:43:46 GMT 51.266815 -0.885086 30,475 156 484 1152
2023-01-23 06:43:44 GMT 51.269897 -0.887294 30,475 156 484 1088
2023-01-23 06:43:41 GMT 51.277382 -0.892410 30,325 156 482 1280
2023-01-23 06:43:38 GMT 51.282532 -0.895905 30,300 156 482 1408
2023-01-23 06:43:36 GMT 51.286835 -0.898875 30,250 156 482 1472
2023-01-23 06:43:34 GMT 51.290745 -0.901642 30,225 156 481 1408
2023-01-23 06:43:31 GMT 51.296936 -0.905838 30,175 156 481 1344
2023-01-23 06:43:29 GMT 51.300983 -0.908661 30,125 156 480 1280
2023-01-23 06:43:26 GMT 51.307068 -0.912904 30,075 156 480 1216
2023-01-23 06:43:24 GMT 51.311234 -0.915800 30,025 156 480 1280
2023-01-23 06:43:22 GMT 51.315353 -0.918695 29,950 156 480 1408
2023-01-23 06:43:20 GMT 51.322815 -0.923891 29,900 156 479 1472
2023-01-23 06:43:18 GMT 51.322815 -0.923891 29,875 156 479 1472
2023-01-23 06:43:16 GMT 51.330093 -0.928939 29,800 156 479 1408
2023-01-23 06:43:14 GMT 51.336090 -0.933170 29,675 156 478 1408
2023-01-23 06:43:12 GMT 51.338879 -0.935135 29,700 156 478 1344
2023-01-23 06:43:08 GMT 51.343861 -0.938568 29,625 156 475 1344
2023-01-23 06:43:06 GMT 51.347816 -0.941391 29,600 156 477 1408
2023-01-23 06:43:04 GMT 51.349865 -0.942841 29,575 156 477 1472
2023-01-23 06:43:02 GMT 51.358429 -0.948907 29,475 156 476 1472
2023-01-23 06:43:00 GMT 51.358429 -0.948907 29,375 156 476 1408
2023-01-23 06:42:58 GMT 51.362293 -0.951614 29,425 156 476 1408
2023-01-23 06:42:56 GMT 51.367416 -0.955276 29,350 156 475 1344
2023-01-23 06:42:53 GMT 51.377285 -0.962219 29,225 156 474 1472
2023-01-23 06:42:51 GMT 51.377285 -0.962219 29,250 156 474 1472
2023-01-23 06:42:49 GMT 51.381271 -0.965090 29,225 156 474 1536
2023-01-23 06:42:47 GMT 51.385025 -0.967762 29,150 156 474 1536
2023-01-23 06:42:45 GMT 51.390133 -0.971375 29,075 155 474 1536
2023-01-23 06:42:43 GMT 51.393253 -0.973587 29,050 155 474 1472
2023-01-23 06:42:41 GMT 51.398418 -0.977249 28,975 155 474 1472
2023-01-23 06:42:39 GMT 51.402237 -0.979996 28,925 155 473 1472
2023-01-23 06:42:36 GMT 51.407589 -0.983810 28,875 155 473 1408
2023-01-23 06:42:34 GMT 51.410847 -0.986099 28,825 155 472 1408
2023-01-23 06:42:32 GMT 51.415924 -0.989735 28,775 155 471 1408
2023-01-23 06:42:30 GMT 51.418579 -0.991665 28,700 155 471 1472
2023-01-23 06:42:28 GMT 51.422653 -0.994560 28,700 155 471 1472
2023-01-23 06:42:25 GMT 51.428513 -0.998717 28,625 155 470 1472
2023-01-23 06:42:23 GMT 51.434143 -1.002725 28,550 156 470 1408
2023-01-23 06:42:21 GMT 51.437149 -1.004868 28,525 156 470 1408
2023-01-23 06:42:19 GMT 51.442039 -1.008301 28,425 156 470 1408
2023-01-23 06:42:16 GMT 51.446182 -1.011262 28,400 156 469 1472
2023-01-23 06:42:14 GMT 51.455074 -1.017532 28,325 156 469 1472
2023-01-23 06:42:12 GMT 51.455074 -1.017532 28,300 156 469 1472
2023-01-23 06:42:09 GMT 51.461220 -1.021805 28,250 156 468 1536
2023-01-23 06:42:07 GMT 51.463963 -1.023712 28,200 156 467 1472
2023-01-23 06:42:05 GMT 51.468758 -1.026993 28,100 157 467 1344
2023-01-23 06:42:03 GMT 51.477768 -1.033086 28,050 157 467 1280
2023-01-23 06:42:00 GMT 51.477768 -1.033086 28,000 157 467 1280
2023-01-23 06:41:58 GMT 51.483398 -1.036798 27,925 157 466 1472
2023-01-23 06:41:55 GMT 51.489304 -1.040658 27,875 157 466 1536
2023-01-23 06:41:53 GMT 51.492691 -1.042885 27,825 157 466 1600
2023-01-23 06:41:51 GMT 51.496307 -1.045186 27,750 157 465 1472
2023-01-23 06:41:49 GMT 51.501160 -1.048355 27,725 157 465 1344
2023-01-23 06:41:47 GMT 51.503998 -1.050186 27,700 157 465 1344
2023-01-23 06:41:45 GMT 51.509399 -1.053696 27,650 157 463 1344
2023-01-23 06:41:43 GMT 51.513218 -1.056213 27,600 157 462 1472
2023-01-23 06:41:41 GMT 51.516289 -1.058197 27,550 157 462 1472
2023-01-23 06:41:39 GMT 51.520981 -1.061220 26,675 158 450 1152
2023-01-23 06:41:37 GMT 51.524761 -1.063690 27,425 157 461 1344
2023-01-23 06:41:34 GMT 51.530594 -1.067455 27,400 157 460 1344
2023-01-23 06:41:32 GMT 51.534576 -1.070054 27,350 157 460 1344
2023-01-23 06:41:30 GMT 51.538868 -1.072845 27,250 158 459 1408
2023-01-23 06:41:27 GMT 51.542862 -1.075398 27,250 158 459 1408
2023-01-23 06:41:25 GMT 51.547993 -1.078720 27,175 158 458 1344
2023-01-23 06:41:23 GMT 51.552200 -1.081485 27,150 158 458 1344
2023-01-23 06:41:21 GMT 51.556000 -1.083908 27,125 158 457 1344
2023-01-23 06:41:19 GMT 51.561909 -1.087799 27,000 158 455 1216
2023-01-23 06:41:16 GMT 51.566425 -1.090698 26,975 158 454 1280
2023-01-23 06:41:14 GMT 51.575596 -1.096649 26,900 158 454 1344
2023-01-23 06:41:11 GMT 51.581223 -1.100192 26,850 158 453 1408
2023-01-23 06:41:09 GMT 51.581223 -1.100192 26,800 158 453 1472
2023-01-23 06:41:06 GMT 51.590057 -1.105908 26,750 158 452 1408
2023-01-23 06:41:04 GMT 51.593903 -1.108357 26,700 158 450 1152
2023-01-23 06:41:02 GMT 51.593903 -1.108357 26,675 158 450 1152
2023-01-23 06:41:00 GMT 51.602005 -1.113628 26,600 158 449 1216
2023-01-23 06:40:57 GMT 51.602005 -1.113628 26,575 158 448 1280
2023-01-23 06:40:55 GMT 51.605858 -1.116104 26,550 158 448 1344
2023-01-23 06:40:53 GMT 51.610886 -1.119344 26,500 158 446 1536
2023-01-23 06:40:51 GMT 51.614639 -1.121719 26,425 158 446 1600
2023-01-23 06:40:49 GMT 51.618668 -1.124317 26,375 158 446 1600
2023-01-23 06:40:47 GMT 51.621681 -1.126251 26,350 158 446 1600
2023-01-23 06:40:45 GMT 51.625671 -1.128845 26,275 158 445 1536
2023-01-23 06:40:43 GMT 51.629505 -1.131287 26,175 158 444 1536
2023-01-23 06:40:40 GMT 51.636795 -1.136046 26,075 158 442 1600
2023-01-23 06:40:37 GMT 51.641739 -1.139238 26,025 158 441 1664
2023-01-23 06:40:34 GMT 51.646587 -1.142349 25,975 158 441 1792
2023-01-23 06:40:32 GMT 51.650219 -1.144714 25,925 158 441 1792
2023-01-23 06:40:30 GMT 51.655945 -1.148453 25,825 158 441 1728
2023-01-23 06:40:27 GMT 51.659904 -1.150970 25,750 157 440 1664
2023-01-23 06:40:24 GMT 51.665771 -1.154826 25,675 157 439 1600
2023-01-23 06:40:22 GMT 51.669353 -1.157150 25,650 157 439 1600
2023-01-23 06:40:20 GMT 51.673233 -1.159726 25,475 157 435 1728
2023-01-23 06:40:17 GMT 51.679501 -1.163864 25,475 157 437 1792
2023-01-23 06:40:14 GMT 51.685089 -1.167520 25,400 157 436 1728
2023-01-23 06:40:12 GMT 51.688534 -1.169739 25,350 157 436 1728
2023-01-23 06:40:10 GMT 51.693741 -1.173236 25,250 157 435 1728
2023-01-23 06:40:07 GMT 51.697704 -1.175842 25,200 157 434 1792
2023-01-23 06:40:05 GMT 51.700836 -1.177913 25,150 157 434 1792
2023-01-23 06:40:03 GMT 51.705139 -1.180733 25,075 157 433 1856
2023-01-23 06:40:01 GMT 51.710495 -1.184222 24,900 157 431 1792
2023-01-23 06:39:58 GMT 51.713390 -1.186142 24,700 157 430 1920
2023-01-23 06:39:56 GMT 51.717113 -1.188583 24,775 157 431 1792
2023-01-23 06:39:53 GMT 51.721863 -1.191711 24,575 157 431 1792
2023-01-23 06:39:51 GMT 51.726242 -1.194615 24,750 157 430 1920
2023-01-23 06:39:49 GMT 51.730846 -1.197586 24,650 157 430 1856
2023-01-23 06:39:47 GMT 51.734760 -1.200180 24,575 157 430 1984
2023-01-23 06:39:45 GMT 51.738205 -1.202469 24,525 157 429 2176
2023-01-23 06:39:43 GMT 51.741623 -1.204710 24,500 157 429 2304
2023-01-23 06:39:41 GMT 51.745884 -1.207581 24,375 157 429 2304
2023-01-23 06:39:39 GMT 51.749268 -1.209832 24,275 157 429 2368
2023-01-23 06:39:36 GMT 51.754898 -1.213618 24,175 157 428 2368
2023-01-23 06:39:33 GMT 51.760643 -1.217499 24,050 157 428 2432
2023-01-23 06:39:30 GMT 51.765530 -1.220779 23,975 157 428 2432
2023-01-23 06:39:27 GMT 51.772888 -1.225866 23,775 156 428 2624
2023-01-23 06:39:24 GMT 51.776329 -1.228180 23,625 156 428 2624
2023-01-23 06:39:22 GMT 51.783279 -1.232993 23,550 156 428 2624
2023-01-23 06:39:20 GMT 51.783279 -1.232993 23,525 156 429 2560
2023-01-23 06:39:18 GMT 51.786198 -1.235046 23,350 156 429 2560
2023-01-23 06:39:16 GMT 51.791107 -1.238486 23,250 156 429 2560
2023-01-23 06:39:13 GMT 51.798069 -1.243286 23,125 156 429 2560
2023-01-23 06:39:10 GMT 51.806915 -1.249542 23,075 156 429 2560
2023-01-23 06:39:08 GMT 51.806915 -1.249542 22,975 156 429 2496
2023-01-23 06:39:05 GMT 51.809753 -1.251450 22,825 156 429 2432
2023-01-23 06:39:03 GMT 51.818756 -1.257786 22,725 156 429 2368
2023-01-23 06:39:01 GMT 51.818756 -1.257786 22,700 156 429 2368
2023-01-23 06:38:59 GMT 51.821457 -1.259642 22,650 156 429 2240
2023-01-23 06:38:57 GMT 51.825863 -1.262741 22,525 156 428 2112
2023-01-23 06:38:54 GMT 51.829586 -1.265335 22,475 156 427 2112
2023-01-23 06:38:52 GMT 51.835079 -1.269073 22,375 156 427 2112
2023-01-23 06:38:50 GMT 51.838074 -1.271148 22,325 156 427 2112
2023-01-23 06:38:48 GMT 51.840912 -1.273078 22,225 156 427 2176
2023-01-23 06:38:46 GMT 51.845737 -1.276398 22,150 157 425 2240
2023-01-23 06:38:44 GMT 51.849472 -1.279016 22,075 157 425 2240
2023-01-23 06:38:42 GMT 51.855835 -1.283322 21,950 157 425 2176
2023-01-23 06:38:40 GMT 51.855835 -1.283322 21,950 157 424 2112
2023-01-23 06:38:37 GMT 51.863205 -1.288295 21,775 157 424 2112
2023-01-23 06:38:34 GMT 51.867691 -1.291413 21,725 157 423 2112
2023-01-23 06:38:32 GMT 51.870621 -1.293417 21,600 157 423 2112
2023-01-23 06:38:30 GMT 51.874374 -1.295941 21,625 157 421 2112
2023-01-23 06:38:27 GMT 51.880001 -1.299744 21,475 157 421 2112
2023-01-23 06:38:25 GMT 51.884563 -1.302872 21,325 157 420 2112
2023-01-23 06:38:22 GMT 51.889267 -1.306000 21,300 157 420 2112
2023-01-23 06:38:20 GMT 51.895828 -1.310434 21,225 157 419 1920
2023-01-23 06:38:18 GMT 51.895828 -1.310434 21,000 157 414 1984
2023-01-23 06:38:16 GMT 51.898499 -1.312256 21,100 157 418 1728
2023-01-23 06:38:14 GMT 51.902069 -1.314621 21,100 157 418 1728
2023-01-23 06:38:12 GMT 51.905548 -1.316986 20,950 157 415 1856
2023-01-23 06:38:10 GMT 51.909348 -1.319580 20,925 157 414 1856
2023-01-23 06:38:08 GMT 51.913334 -1.322283 20,875 157 413 2048
2023-01-23 06:38:05 GMT 51.919373 -1.326370 20,725 157 412 2176
2023-01-23 06:38:02 GMT 51.924507 -1.329895 20,650 156 411 2176
2023-01-23 06:37:59 GMT 51.930279 -1.333819 20,550 156 410 2112
2023-01-23 06:37:57 GMT 51.937683 -1.338959 20,450 156 409 2112
2023-01-23 06:37:54 GMT 51.937683 -1.338959 20,400 156 409 2112
2023-01-23 06:37:52 GMT 51.941452 -1.341509 20,275 156 407 2176
2023-01-23 06:37:50 GMT 51.944012 -1.343314 20,275 156 407 2176
2023-01-23 06:37:48 GMT 51.948669 -1.346588 20,200 156 406 2176
2023-01-23 06:37:46 GMT 51.952065 -1.348886 20,100 156 405 2176
2023-01-23 06:37:44 GMT 51.960258 -1.354693 19,975 156 404 2112
2023-01-23 06:37:42 GMT 51.960258 -1.354693 19,575 156 402 1984
2023-01-23 06:37:39 GMT 51.964680 -1.357753 19,775 156 402 2048
2023-01-23 06:37:36 GMT 51.969681 -1.361313 19,725 156 402 1984
2023-01-23 06:37:33 GMT 51.974258 -1.364517 19,650 156 400 1920
2023-01-23 06:37:29 GMT 51.987717 -1.373901 19,475 156 398 1856
2023-01-23 06:37:26 GMT 51.987717 -1.373901 19,425 156 396 1792
2023-01-23 06:37:23 GMT 51.991882 -1.376724 19,325 157 395 1792
2023-01-23 06:37:21 GMT 51.994858 -1.378784 19,275 157 393 1792
2023-01-23 06:37:19 GMT 51.998108 -1.380997 19,225 157 392 2048
2023-01-23 06:37:17 GMT 52.001358 -1.383209 19,125 157 391 2176
2023-01-23 06:37:15 GMT 52.010300 -1.389300 19,000 157 390 2304
2023-01-23 06:37:12 GMT 52.010300 -1.389300 18,925 156 388 2496
2023-01-23 06:37:09 GMT 52.017700 -1.394424 18,825 156 388 2560
2023-01-23 06:37:07 GMT 52.017700 -1.394424 18,700 156 388 2560
2023-01-23 06:37:04 GMT 52.023514 -1.398392 18,575 156 387 2560
2023-01-23 06:37:01 GMT 52.032227 -1.404445 18,500 156 386 2560
2023-01-23 06:36:59 GMT 52.037067 -1.407819 18,275 156 385 2688
2023-01-23 06:36:56 GMT 52.037067 -1.407819 18,250 156 385 2688
2023-01-23 06:36:53 GMT 52.041119 -1.410723 18,175 156 384 2688
2023-01-23 06:36:51 GMT 52.044617 -1.413193 18,050 156 384 2752
2023-01-23 06:36:49 GMT 52.046288 -1.414411 18,000 156 384 2752
2023-01-23 06:36:47 GMT 52.054947 -1.420611 17,625 155 383 2688
2023-01-23 06:36:44 GMT 52.054947 -1.420611 17,750 155 383 2560
2023-01-23 06:36:42 GMT 52.058304 -1.423035 17,475 155 382 2304
2023-01-23 06:36:40 GMT 52.062286 -1.425934 17,550 155 382 2368
2023-01-23 06:36:38 GMT 52.064713 -1.427689 17,475 155 381 2176
2023-01-23 06:36:35 GMT 52.069469 -1.431205 17,425 155 381 2048
2023-01-23 06:36:32 GMT 52.075424 -1.435547 17,275 155 380 1920
2023-01-23 06:36:29 GMT 52.078812 -1.437988 17,225 155 379 1984
2023-01-23 06:36:27 GMT 52.081760 -1.440151 17,150 155 378 2176
2023-01-23 06:36:25 GMT 52.086136 -1.443329 17,050 155 378 2176
2023-01-23 06:36:22 GMT 52.091629 -1.447372 16,925 155 377 2496
2023-01-23 06:36:20 GMT 52.093781 -1.448898 16,875 155 376 2752
2023-01-23 06:36:17 GMT 52.099171 -1.452863 16,700 155 375 2880
2023-01-23 06:36:15 GMT 52.100754 -1.454041 16,450 155 375 2752
2023-01-23 06:36:13 GMT 52.108521 -1.459732 16,475 155 375 2688
2023-01-23 06:36:11 GMT 52.108521 -1.459732 16,425 155 375 2624
2023-01-23 06:36:09 GMT 52.111130 -1.461639 16,400 155 375 2560
2023-01-23 06:36:06 GMT 52.117676 -1.466446 16,175 155 374 2240
2023-01-23 06:36:03 GMT 52.123718 -1.470871 16,075 155 374 1792
2023-01-23 06:36:01 GMT 52.123718 -1.470871 16,075 155 374 1792
2023-01-23 06:35:58 GMT 52.128891 -1.474686 15,950 155 374 1408
2023-01-23 06:35:55 GMT 52.133102 -1.477814 15,925 155 373 960
2023-01-23 06:35:53 GMT 52.136353 -1.480179 15,875 155 373 1024
2023-01-23 06:35:51 GMT 52.140198 -1.483002 15,850 155 373 960
2023-01-23 06:35:49 GMT 52.142624 -1.484756 15,825 155 373 960
2023-01-23 06:35:47 GMT 52.145721 -1.487078 15,800 155 373 960
2023-01-23 06:35:44 GMT 52.150818 -1.490784 15,350 155 371 896
2023-01-23 06:35:41 GMT 52.155731 -1.494376 15,675 155 372 896
2023-01-23 06:35:39 GMT 52.163364 -1.500026 15,650 155 372 896
2023-01-23 06:35:37 GMT 52.163364 -1.500026 15,625 155 372 896
2023-01-23 06:35:34 GMT 52.166718 -1.502459 15,550 155 371 896
2023-01-23 06:35:31 GMT 52.171921 -1.506271 15,525 155 371 896
2023-01-23 06:35:29 GMT 52.174538 -1.508187 15,500 155 371 896
2023-01-23 06:35:27 GMT 52.176865 -1.509933 15,450 155 371 896
2023-01-23 06:35:24 GMT 52.181763 -1.513519 15,400 155 371 896
2023-01-23 06:35:21 GMT 52.185837 -1.516495 15,400 155 371 896
2023-01-23 06:35:19 GMT 52.194462 -1.522862 15,300 155 371 896
2023-01-23 06:35:17 GMT 52.194462 -1.522862 15,300 155 371 896
2023-01-23 06:35:14 GMT 52.198513 -1.525766 15,250 158 371 832
2023-01-23 06:35:11 GMT 52.201492 -1.527863 15,250 156 370 896
2023-01-23 06:35:09 GMT 52.210968 -1.534119 15,200 158 371 832
2023-01-23 06:35:06 GMT 52.210968 -1.534119 15,150 162 373 896
2023-01-23 06:35:03 GMT 52.215134 -1.536407 15,125 163 373 896
2023-01-23 06:35:00 GMT 52.221836 -1.539420 15,025 165 373 960
2023-01-23 06:34:57 GMT 52.224583 -1.540676 15,000 165 372 1024
2023-01-23 06:34:54 GMT 52.231796 -1.543808 14,925 165 372 1280
2023-01-23 06:34:51 GMT 52.235046 -1.545181 14,950 164 371 1408
2023-01-23 06:34:49 GMT 52.238434 -1.546707 14,825 164 371 1728
2023-01-23 06:34:47 GMT 52.241573 -1.548052 14,775 164 371 1728
2023-01-23 06:34:45 GMT 52.245762 -1.549935 14,725 164 371 1728
2023-01-23 06:34:42 GMT 52.256516 -1.554718 14,600 164 370 1792
2023-01-23 06:34:40 GMT 52.256516 -1.554718 14,525 164 370 1792
2023-01-23 06:34:37 GMT 52.258072 -1.555481 12,975 164 369 1792
2023-01-23 06:34:34 GMT 52.263172 -1.557704 14,300 164 369 1792
2023-01-23 06:34:31 GMT 52.267502 -1.559677 14,325 164 368 1856
2023-01-23 06:34:29 GMT 52.271690 -1.561628 14,225 164 368 1920
2023-01-23 06:34:27 GMT 52.274204 -1.562727 14,200 164 365 2496
2023-01-23 06:34:25 GMT 52.278999 -1.564924 14,025 164 366 2432
2023-01-23 06:34:22 GMT 52.282166 -1.566415 13,975 163 365 2496
2023-01-23 06:34:20 GMT 52.285538 -1.567993 13,925 163 365 2432
2023-01-23 06:34:18 GMT 52.289337 -1.569711 13,775 163 363 2432
2023-01-23 06:34:15 GMT 52.294598 -1.572222 13,650 163 361 2816
2023-01-23 06:34:12 GMT 52.299809 -1.574655 13,550 163 360 2944
2023-01-23 06:34:10 GMT 52.302109 -1.575775 13,475 163 360 3072
2023-01-23 06:34:08 GMT 52.306561 -1.577872 13,250 163 359 2944
2023-01-23 06:34:05 GMT 52.310623 -1.579742 13,025 163 358 2688
2023-01-23 06:34:02 GMT 52.315475 -1.582031 13,075 163 357 2496
2023-01-23 06:34:00 GMT 52.318756 -1.583601 12,900 164 355 2176
2023-01-23 06:33:57 GMT 52.323807 -1.585999 12,875 163 353 2112
2023-01-23 06:33:54 GMT 52.328300 -1.588074 12,775 164 351 2176
2023-01-23 06:33:51 GMT 52.332024 -1.589800 12,600 164 349 2432
2023-01-23 06:33:49 GMT 52.335655 -1.591527 12,550 164 348 2624
2023-01-23 06:33:47 GMT 52.340057 -1.593552 12,450 164 347 2752
2023-01-23 06:33:44 GMT 52.343353 -1.595078 12,275 164 345 2816
2023-01-23 06:33:41 GMT 52.351456 -1.598816 11,775 164 344 2944
2023-01-23 06:33:39 GMT 52.351456 -1.598816 12,025 164 343 3072
2023-01-23 06:33:37 GMT 52.354431 -1.600189 12,000 164 343 3200
2023-01-23 06:33:34 GMT 52.358231 -1.601944 11,875 163 342 3392
2023-01-23 06:33:31 GMT 52.362747 -1.604082 11,775 163 342 3328
2023-01-23 06:33:29 GMT 52.366196 -1.605759 11,550 163 342 3008
2023-01-23 06:33:27 GMT 52.369446 -1.607285 11,475 163 341 2816
2023-01-23 06:33:24 GMT 52.373966 -1.609497 11,325 163 339 2624
2023-01-23 06:33:21 GMT 52.378098 -1.611557 11,175 163 337 2624
2023-01-23 06:33:19 GMT 52.381649 -1.613264 11,100 163 336 2688
2023-01-23 06:33:17 GMT 52.383591 -1.614227 10,875 166 334 1984
2023-01-23 06:33:14 GMT 52.388817 -1.616638 10,850 168 333 1856
2023-01-23 06:33:11 GMT 52.397011 -1.619071 10,725 176 327 832
2023-01-23 06:33:08 GMT 52.397011 -1.619071 10,750 179 324 768
2023-01-23 06:33:05 GMT 52.405109 -1.619542 10,700 181 322 768
2023-01-23 06:33:03 GMT 52.405109 -1.619542 10,675 183 311 1536
2023-01-23 06:33:00 GMT 52.410278 -1.619339 10,650 183 313 1280
2023-01-23 06:32:58 GMT 52.412567 -1.619186 10,550 183 310 1728
2023-01-23 06:32:55 GMT 52.418243 -1.618805 10,525 183 306 2240
2023-01-23 06:32:52 GMT 52.420990 -1.618652 10,425 183 306 2496
2023-01-23 06:32:50 GMT 52.423920 -1.618443 10,300 183 304 2880
2023-01-23 06:32:47 GMT 52.433990 -1.617889 10,100 182 302 3072
2023-01-23 06:32:44 GMT 52.433990 -1.617889 9,950 182 302 3072
2023-01-23 06:32:41 GMT 52.435364 -1.617813 9,900 182 301 3072
2023-01-23 06:32:38 GMT 52.439560 -1.617580 9,300 183 290 2432
2023-01-23 06:32:36 GMT 52.444519 -1.617279 9,550 182 299 3136
2023-01-23 06:32:33 GMT 52.447567 -1.617109 8,975 183 296 2816
2023-01-23 06:32:30 GMT 52.451057 -1.616952 9,300 183 297 3008
2023-01-23 06:32:28 GMT 52.453804 -1.616795 9,150 183 294 2368
2023-01-23 06:32:26 GMT 52.457714 -1.616560 9,100 183 294 2432
2023-01-23 06:32:23 GMT 52.462326 -1.616211 8,900 183 290 2432
2023-01-23 06:32:20 GMT 52.465210 -1.616089 8,825 182 287 2944
2023-01-23 06:32:17 GMT 52.469261 -1.615775 8,650 179 285 3008
2023-01-23 06:32:14 GMT 52.472939 -1.615696 8,500 177 283 3264
2023-01-23 06:32:11 GMT 52.477386 -1.615677 8,425 177 283 3200
2023-01-23 06:32:09 GMT 52.479176 -1.615775 8,350 175 282 3392
2023-01-23 06:32:07 GMT 52.486065 -1.617109 8,125 170 281 3648
2023-01-23 06:32:04 GMT 52.486065 -1.617109 8,025 167 281 3648
2023-01-23 06:32:01 GMT 52.490067 -1.618729 7,825 161 280 3584
2023-01-23 06:31:59 GMT 52.492119 -1.619777 7,650 158 280 3584
2023-01-23 06:31:57 GMT 52.498718 -1.624603 7,525 153 279 3584
2023-01-23 06:31:54 GMT 52.498718 -1.624603 7,400 150 278 3520
2023-01-23 06:31:51 GMT 52.501942 -1.627781 7,225 144 277 3328
2023-01-23 06:31:49 GMT 52.503387 -1.629486 7,150 143 276 3200
2023-01-23 06:31:47 GMT 52.506134 -1.632996 7,025 138 274 2816
2023-01-23 06:31:43 GMT 52.508736 -1.636806 6,725 136 270 1728
2023-01-23 06:31:41 GMT 52.511398 -1.641006 6,825 136 268 1344
2023-01-23 06:31:39 GMT 52.513138 -1.643753 6,800 135 255 1408
2023-01-23 06:31:36 GMT 52.516754 -1.649475 6,675 135 257 1344
2023-01-23 06:31:33 GMT 52.520046 -1.654698 6,425 130 247 2112
2023-01-23 06:31:31 GMT 52.520046 -1.654698 6,425 130 247 2112
2023-01-23 06:31:28 GMT 52.523399 -1.660662 6,450 128 244 2432
2023-01-23 06:31:23 GMT 52.525589 -1.665370 6,300 124 241 2688
2023-01-23 06:31:21 GMT 52.527374 -1.669769 6,175 119 239 2496
2023-01-23 06:31:18 GMT 52.528702 -1.673737 6,075 115 235 2496
2023-01-23 06:31:16 GMT 52.530197 -1.678868 5,975 110 231 2752
2023-01-23 06:31:13 GMT 52.530991 -1.682281 5,850 107 231 2944
2023-01-23 06:31:11 GMT 52.531826 -1.686637 5,800 105 230 3136
2023-01-23 06:31:08 GMT 52.532639 -1.691589 5,475 102 228 3328
2023-01-23 06:31:05 GMT 52.533035 -1.694641 5,350 103 228 3328
2023-01-23 06:31:02 GMT 52.533691 -1.699066 5,250 103 228 3264
2023-01-23 06:31:00 GMT 52.534424 -1.704330 5,125 103 227 3264
2023-01-23 06:30:57 GMT 52.535339 -1.710587 4,925 103 226 3072
2023-01-23 06:30:54 GMT 52.535843 -1.713715 4,825 103 226 2880
2023-01-23 06:30:51 GMT 52.536667 -1.719517 4,675 102 224 2752
2023-01-23 06:30:48 GMT 52.537216 -1.723709 4,550 97 224 2496
2023-01-23 06:30:45 GMT 52.537628 -1.735077 4,400 89 223 1984
2023-01-23 06:30:41 GMT 52.537628 -1.735077 4,350 87 222 1920
2023-01-23 06:30:38 GMT 52.537170 -1.740570 4,075 64 220 1984
2023-01-23 06:30:36 GMT 52.536575 -1.743927 4,075 64 220 1984
2023-01-23 06:30:33 GMT 52.535156 -1.749802 3,775 63 220 1920
2023-01-23 06:30:30 GMT 52.534286 -1.752930 3,950 62 220 1920
2023-01-23 06:30:27 GMT 52.532944 -1.757185 3,875 62 220 1984
2023-01-23 06:30:24 GMT 52.531677 -1.761169 3,775 62 219 2432
2023-01-23 06:30:21 GMT 52.530029 -1.766205 3,500 62 219 2752
2023-01-23 06:30:18 GMT 52.528614 -1.770525 3,475 57 215 3072
2023-01-23 06:30:15 GMT 52.527466 -1.773987 3,300 57 215 3072
2023-01-23 06:30:12 GMT 52.525543 -1.779079 3,175 52 214 3200
2023-01-23 06:30:09 GMT 52.524052 -1.782296 3,050 49 214 3392
2023-01-23 06:30:06 GMT 52.521057 -1.787338 2,775 36 214 3392
2023-01-23 06:30:03 GMT 52.519547 -1.789398 2,625 32 214 3392
2023-01-23 06:30:00 GMT 52.517029 -1.792145 2,400 23 214 3264
2023-01-23 06:29:57 GMT 52.514374 -1.794357 2,325 21 214 3200
2023-01-23 06:29:54 GMT 52.510712 -1.796570 2,125 9 213 2560
2023-01-23 06:29:51 GMT 52.507713 -1.797520 2,000 6 213 2368
2023-01-23 06:29:49 GMT 52.506683 -1.797638 1,975 4 212 2240
2023-01-23 06:29:47 GMT 52.504990 -1.797867 1,900 0 212 2176
2023-01-23 06:29:45 GMT 52.503010 -1.797756 1,825 358 211 2176
2023-01-23 06:29:44 GMT 52.501614 -1.797599 1,775 354 209 2176
2023-01-23 06:29:43 GMT 52.500778 -1.797333 1,750 351 208 2176
2023-01-23 06:29:42 GMT 52.499798 -1.797049 1,725 346 207 2112
2023-01-23 06:29:41 GMT 52.497894 -1.796341 1,650 341 205 1664
2023-01-23 06:29:38 GMT 52.495979 -1.795166 1,600 336 204 1280
2023-01-23 06:29:35 GMT 52.492489 -1.792184 1,550 327 194 704
2023-01-23 06:29:34 GMT 52.492489 -1.792184 1,550 327 194 704
2023-01-23 06:29:32 GMT 52.491745 -1.791399 1,525 326 190 832
2023-01-23 06:29:31 GMT 52.490982 -1.790543 1,525 326 190 832
2023-01-23 06:29:30 GMT 52.490250 -1.789780 1,500 325 187 960
2023-01-23 06:29:29 GMT 52.488785 -1.788101 1,475 325 184 1280
2023-01-23 06:29:27 GMT 52.488007 -1.787109 1,450 324 182 1536
2023-01-23 06:29:26 GMT 52.486626 -1.785435 1,400 324 180 1792
2023-01-23 06:29:24 GMT 52.485878 -1.784572 1,350 323 177 1920
2023-01-23 06:29:23 GMT 52.485134 -1.783709 1,325 323 177 1984
2023-01-23 06:29:22 GMT 52.484482 -1.782837 1,300 323 175 2048
2023-01-23 06:29:20 GMT 52.483246 -1.781311 1,225 323 172 2240
2023-01-23 06:29:19 GMT 52.482513 -1.780396 1,175 323 171 2304
2023-01-23 06:29:17 GMT 52.481178 -1.778687 1,100 324 170 2624
2023-01-23 06:29:15 GMT 52.479919 -1.777117 1,000 324 168 2880
2023-01-23 06:29:14 GMT 52.478619 -1.775626 900 325 168 3072
2023-01-23 06:29:12 GMT 52.478012 -1.774920 850 325 168 3136
2023-01-23 06:29:11 GMT 52.477314 -1.774135 800 325 169 3136
2023-01-23 06:29:10 GMT 52.476337 -1.772958 700 325 168 2944
2023-01-23 06:29:08 GMT 52.475685 -1.772173 650 326 168 2944
2023-01-23 06:29:07 GMT 52.474731 -1.771088 575 326 168 3008
2023-01-23 06:29:06 GMT 52.474091 -1.770401 525 326 168 3008
2023-01-23 06:29:03 GMT 52.472427 -1.768485 400 327 168 3072
2023-01-23 06:29:02 GMT 52.471527 -1.767502 325 327 168 2944
2023-01-23 06:29:00 GMT 52.470245 -1.766129 225 327 168 2816
2023-01-23 06:28:59 GMT 52.469650 -1.765442 175 327 168 2752
2023-01-23 06:28:58 GMT 52.468964 -1.764679 125 327 168 2496
2023-01-23 06:28:57 GMT 52.468323 -1.763992 100 327 167 2240
2023-01-23 06:28:55 GMT 52.467041 -1.762619 25 327 166 2048
2023-01-23 06:28:54 GMT 52.466328 -1.761815 -25 326 165 1984
2023-01-23 06:28:53 GMT 52.465714 -1.761169 -50 326 164 1984
2023-01-23 06:28:51 GMT 52.464340 -1.759644 -125 326 163 2048
2023-01-23 06:28:50 GMT 52.463699 -1.758881 -175 327 162 1984
2023-01-23 06:28:49 GMT 52.463116 -1.758283 -200 327 162 1920
2023-01-23 06:28:46 GMT 52.461182 -1.756134 -275 327 157 576
2023-01-23 06:28:45 GMT 52.459076 -1.753845 -275 327 150 128
2023-01-23 06:28:42 GMT 52.459076 -1.753845 -275 327 146 64
2023-01-23 06:28:40 GMT 52.458225 -1.752869 -275 326 135 -64
2023-01-23 06:28:38 GMT 52.457111 -1.751613 -275 326 126 -64
2023-01-23 06:28:35 GMT 52.455853 -1.750201 -250 327 110 0
2023-01-23 06:28:34 GMT 52.455341 -1.749651 -250 327 110 0
2023-01-23 06:28:30 GMT 52.453491 -1.747665 -250 326 94
2023-01-23 06:28:24 GMT 52.451305 -1.745167 0 326 64
2023-01-23 06:28:20 GMT 52.450535 -1.744315 0 326 48
2023-01-23 06:28:05 GMT 52.449360 -1.743011 0 317 5
2023-01-23 06:28:03 GMT 52.449310 -1.742961 0 306 4
2023-01-23 06:28:00 GMT 52.449276 -1.742922 0 289 4
2023-01-23 06:27:55 GMT 52.449219 -1.742824 0 258 5
2023-01-23 06:27:49 GMT 52.449265 -1.742589 0 230 9
2023-01-23 06:27:43 GMT 52.449429 -1.742235 0 236 10
2023-01-23 06:27:29 GMT 52.449646 -1.741447 0 253 7
2023-01-23 06:27:24 GMT 52.449680 -1.741199 0 253 6
2023-01-23 06:27:20 GMT 52.449703 -1.741047 0 253 5
2023-01-23 06:27:18 GMT 52.449715 -1.741009 0 253 5
2023-01-23 06:27:08 GMT 52.449757 -1.740744 0 253 3
2023-01-23 06:27:06 GMT 52.449760 -1.740723 0 253 2
2023-01-23 06:26:54 GMT 52.449764 -1.740666 0 253 0
2023-01-23 06:26:50 GMT 52.449772 -1.740665 0 253 0
2023-01-23 06:26:47 GMT 52.449772 -1.740665 0 253 1
2023-01-23 06:26:44 GMT 52.449780 -1.740627 0 255 5
2023-01-23 06:26:35 GMT 52.449848 -1.740156 0 255 10
2023-01-23 06:26:27 GMT 52.449944 -1.739559 0 247 11
2023-01-23 06:26:22 GMT 52.450035 -1.739216 0 236 10
2023-01-23 06:26:17 GMT 52.450150 -1.738930 0 236 10
2023-01-23 06:26:15 GMT 52.450207 -1.738777 0 236 10
2023-01-23 06:26:04 GMT 52.450466 -1.738174 0 236 10
2023-01-23 06:25:56 GMT 52.450653 -1.737709 0 230 9
2023-01-23 06:25:45 GMT 52.450954 -1.737272 0 213 8
2023-01-23 06:25:34 GMT 52.451176 -1.736860 0 236 8
2023-01-23 06:25:23 GMT 52.451557 -1.735938 0 236 7
2023-01-23 06:25:12 GMT 52.451557 -1.735938 0 236 7
2023-01-23 06:25:04 GMT 52.451687 -1.735624 0 236 6
2023-01-23 06:24:54 GMT 52.451832 -1.735306 0 236 5
2023-01-23 06:21:41 GMT 52.451923 -1.735058 0 233 0
2023-01-23 06:21:32 GMT 52.451900 -1.735115 0 233 1
2023-01-23 06:21:16 GMT 52.451851 -1.735232 0 236 1
2023-01-23 06:21:08 GMT 52.451855 -1.735306 0 253 2
2023-01-23 06:21:04 GMT 52.451862 -1.735349 0 261 2
2023-01-23 06:21:01 GMT 52.451885 -1.735389 0 272 2
2023-01-23 06:20:48 GMT 52.451981 -1.735477 0 315 3
2023-01-23 06:20:33 GMT 52.452129 -1.735573 0 334 3
2023-01-23 06:20:32 GMT 52.452152 -1.735592 0 334 3
2023-01-23 06:20:16 GMT 52.452316 -1.735742 0 329 3
2023-01-23 06:20:11 GMT 52.452362 -1.735781 0 329 3
2023-01-23 06:20:00 GMT 52.452442 -1.735879 0 326 2
2023-01-23 06:19:51 GMT 52.452507 -1.735954 0 326 1
2023-01-23 06:19:46 GMT 52.452522 -1.735958 0 326 1
2023-01-23 06:19:40 GMT 52.452553 -1.735992 0 326 0
2023-01-23 06:19:18 GMT 52.452560 -1.735997 0 326 0

Making use of Plane Finder data

You are free to use the raw flight data, aircraft information and images provided in this report for your own purposes provided the data is correctly attributed to Plane Finder. We ask that you please credit Plane Finder and link to planefinder.net in close proximity to the content.

Optionally one of the following logos (no smaller then 150x24px) can be used and must link to planefinder.net

Embedding the Plane Finder map

You are welcome to embed the Plane Finder playback map on your website to offer visitors a more interactive experience. We suggest using the following HTML code:

<iframe src="//planefinder.net/data/report/FR3120-EI-DYA-7700-squawk-2023-01-23/map" width="800" height="600" seamless="seamless"></iframe>

Where our data comes from

Plane Finder has a global network of data feeds and antenna radars that receive data broadcast directly from aircraft. The primary technologies used are ADS-B and MLAT. We also show feeds from the FAA and a FLARM glider feed.

Click here to find out more about the Plane Finder network.

How we collect our data